<?xml version="1.0" encoding="UTF-8" standalone="no" ?>
<gpx xmlns="http://www.topografix.com/GPX/1/1" xmlns:xsi="http://www.w3.org/2001/XMLSchema-instance" xsi:schemaLocation="http://www.topografix.com/GPX/1/1 http://www.topografix.com/GPX/1/1/gpx.xsd" version="1.1" creator="VisuGPX - https://www.visugpx.com">
  <metadata>
    <name>tour des bas</name>
  </metadata>
  <trk>
    <name><![CDATA[tour des bas_1]]></name>
    <trkseg>
      <trkpt lat="48.51091" lon="3.10039">
        <ele>120.6</ele>
        <time>2021-04-24T11:29:28Z</time>
      </trkpt>
      <trkpt lat="48.51086" lon="3.10031">
        <ele>118.2</ele>
        <time>2021-04-24T11:30:12Z</time>
      </trkpt>
      <trkpt lat="48.51082" lon="3.10034">
        <ele>114.7</ele>
        <time>2021-04-24T11:30:18Z</time>
      </trkpt>
      <trkpt lat="48.51084" lon="3.10055">
        <ele>113.7</ele>
        <time>2021-04-24T11:30:22Z</time>
      </trkpt>
      <trkpt lat="48.51085" lon="3.10063">
        <ele>114.7</ele>
        <time>2021-04-24T11:30:25Z</time>
      </trkpt>
      <trkpt lat="48.51089" lon="3.10068">
        <ele>117.8</ele>
        <time>2021-04-24T11:30:39Z</time>
      </trkpt>
      <trkpt lat="48.51088" lon="3.1006">
        <ele>117.7</ele>
        <time>2021-04-24T11:30:55Z</time>
      </trkpt>
      <trkpt lat="48.51086" lon="3.10052">
        <ele>117.1</ele>
        <time>2021-04-24T11:30:59Z</time>
      </trkpt>
      <trkpt lat="48.51085" lon="3.10046">
        <ele>116.6</ele>
        <time>2021-04-24T11:31:03Z</time>
      </trkpt>
      <trkpt lat="48.51081" lon="3.10041">
        <ele>116.7</ele>
        <time>2021-04-24T11:31:09Z</time>
      </trkpt>
      <trkpt lat="48.51077" lon="3.10038">
        <ele>117.3</ele>
        <time>2021-04-24T11:31:14Z</time>
      </trkpt>
      <trkpt lat="48.51074" lon="3.10043">
        <ele>117.3</ele>
        <time>2021-04-24T11:31:22Z</time>
      </trkpt>
      <trkpt lat="48.51078" lon="3.1004">
        <ele>117</ele>
        <time>2021-04-24T11:32:38Z</time>
      </trkpt>
      <trkpt lat="48.51073" lon="3.10045">
        <ele>116.2</ele>
        <time>2021-04-24T11:33:30Z</time>
      </trkpt>
      <trkpt lat="48.51078" lon="3.10045">
        <ele>117.1</ele>
        <time>2021-04-24T11:34:25Z</time>
      </trkpt>
      <trkpt lat="48.51084" lon="3.10045">
        <ele>117.4</ele>
        <time>2021-04-24T11:34:30Z</time>
      </trkpt>
      <trkpt lat="48.51089" lon="3.10046">
        <ele>117.5</ele>
        <time>2021-04-24T11:34:34Z</time>
      </trkpt>
      <trkpt lat="48.51089" lon="3.10053">
        <ele>117.3</ele>
        <time>2021-04-24T11:34:42Z</time>
      </trkpt>
      <trkpt lat="48.51084" lon="3.10056">
        <ele>117</ele>
        <time>2021-04-24T11:34:52Z</time>
      </trkpt>
      <trkpt lat="48.51079" lon="3.10054">
        <ele>116.9</ele>
        <time>2021-04-24T11:34:56Z</time>
      </trkpt>
      <trkpt lat="48.51075" lon="3.10053">
        <ele>116.8</ele>
        <time>2021-04-24T11:35:00Z</time>
      </trkpt>
      <trkpt lat="48.5107" lon="3.10051">
        <ele>116.8</ele>
        <time>2021-04-24T11:35:05Z</time>
      </trkpt>
      <trkpt lat="48.51065" lon="3.10048">
        <ele>116.8</ele>
        <time>2021-04-24T11:35:10Z</time>
      </trkpt>
      <trkpt lat="48.51061" lon="3.10044">
        <ele>117</ele>
        <time>2021-04-24T11:35:15Z</time>
      </trkpt>
      <trkpt lat="48.51058" lon="3.1004">
        <ele>117</ele>
        <time>2021-04-24T11:35:20Z</time>
      </trkpt>
      <trkpt lat="48.51054" lon="3.10035">
        <ele>116.9</ele>
        <time>2021-04-24T11:35:27Z</time>
      </trkpt>
      <trkpt lat="48.51059" lon="3.10031">
        <ele>116.3</ele>
        <time>2021-04-24T11:35:36Z</time>
      </trkpt>
      <trkpt lat="48.51063" lon="3.10033">
        <ele>115.9</ele>
        <time>2021-04-24T11:35:39Z</time>
      </trkpt>
      <trkpt lat="48.51067" lon="3.10037">
        <ele>115.3</ele>
        <time>2021-04-24T11:35:42Z</time>
      </trkpt>
      <trkpt lat="48.51072" lon="3.10042">
        <ele>114.6</ele>
        <time>2021-04-24T11:35:46Z</time>
      </trkpt>
      <trkpt lat="48.51077" lon="3.10046">
        <ele>113.9</ele>
        <time>2021-04-24T11:35:50Z</time>
      </trkpt>
      <trkpt lat="48.51082" lon="3.10049">
        <ele>113.3</ele>
        <time>2021-04-24T11:35:55Z</time>
      </trkpt>
      <trkpt lat="48.51087" lon="3.10048">
        <ele>113.6</ele>
        <time>2021-04-24T11:36:01Z</time>
      </trkpt>
      <trkpt lat="48.51092" lon="3.10049">
        <ele>113.7</ele>
        <time>2021-04-24T11:36:17Z</time>
      </trkpt>
      <trkpt lat="48.51097" lon="3.10065">
        <ele>113</ele>
        <time>2021-04-24T11:37:05Z</time>
      </trkpt>
      <trkpt lat="48.51094" lon="3.10049">
        <ele>115.1</ele>
        <time>2021-04-24T11:37:28Z</time>
      </trkpt>
      <trkpt lat="48.51089" lon="3.10047">
        <ele>115.7</ele>
        <time>2021-04-24T11:37:35Z</time>
      </trkpt>
      <trkpt lat="48.51083" lon="3.10047">
        <ele>115.6</ele>
        <time>2021-04-24T11:37:40Z</time>
      </trkpt>
      <trkpt lat="48.51079" lon="3.10051">
        <ele>115.2</ele>
        <time>2021-04-24T11:37:46Z</time>
      </trkpt>
      <trkpt lat="48.51074" lon="3.10052">
        <ele>115.1</ele>
        <time>2021-04-24T11:37:51Z</time>
      </trkpt>
      <trkpt lat="48.5107" lon="3.1005">
        <ele>115.5</ele>
        <time>2021-04-24T11:37:56Z</time>
      </trkpt>
      <trkpt lat="48.51066" lon="3.10047">
        <ele>115.8</ele>
        <time>2021-04-24T11:38:00Z</time>
      </trkpt>
      <trkpt lat="48.51062" lon="3.10043">
        <ele>116.1</ele>
        <time>2021-04-24T11:38:04Z</time>
      </trkpt>
      <trkpt lat="48.51058" lon="3.10039">
        <ele>116.2</ele>
        <time>2021-04-24T11:38:08Z</time>
      </trkpt>
      <trkpt lat="48.51054" lon="3.10035">
        <ele>116.1</ele>
        <time>2021-04-24T11:38:11Z</time>
      </trkpt>
      <trkpt lat="48.5105" lon="3.10031">
        <ele>116.1</ele>
        <time>2021-04-24T11:38:14Z</time>
      </trkpt>
      <trkpt lat="48.51044" lon="3.10028">
        <ele>116.1</ele>
        <time>2021-04-24T11:38:18Z</time>
      </trkpt>
      <trkpt lat="48.51039" lon="3.10026">
        <ele>116.4</ele>
        <time>2021-04-24T11:38:24Z</time>
      </trkpt>
      <trkpt lat="48.51035" lon="3.10022">
        <ele>116.8</ele>
        <time>2021-04-24T11:38:28Z</time>
      </trkpt>
      <trkpt lat="48.51031" lon="3.10017">
        <ele>117</ele>
        <time>2021-04-24T11:38:32Z</time>
      </trkpt>
      <trkpt lat="48.51027" lon="3.10013">
        <ele>117</ele>
        <time>2021-04-24T11:38:36Z</time>
      </trkpt>
      <trkpt lat="48.51023" lon="3.10008">
        <ele>116.8</ele>
        <time>2021-04-24T11:38:40Z</time>
      </trkpt>
      <trkpt lat="48.51019" lon="3.10005">
        <ele>116.6</ele>
        <time>2021-04-24T11:38:44Z</time>
      </trkpt>
      <trkpt lat="48.51014" lon="3.10001">
        <ele>116</ele>
        <time>2021-04-24T11:38:48Z</time>
      </trkpt>
      <trkpt lat="48.5101" lon="3.09997">
        <ele>115.4</ele>
        <time>2021-04-24T11:38:52Z</time>
      </trkpt>
      <trkpt lat="48.51006" lon="3.09993">
        <ele>114.9</ele>
        <time>2021-04-24T11:38:56Z</time>
      </trkpt>
      <trkpt lat="48.51002" lon="3.09987">
        <ele>114.8</ele>
        <time>2021-04-24T11:39:00Z</time>
      </trkpt>
      <trkpt lat="48.50999" lon="3.09983">
        <ele>114.5</ele>
        <time>2021-04-24T11:39:04Z</time>
      </trkpt>
      <trkpt lat="48.50995" lon="3.09979">
        <ele>113.3</ele>
        <time>2021-04-24T11:39:10Z</time>
      </trkpt>
      <trkpt lat="48.5099" lon="3.09976">
        <ele>112</ele>
        <time>2021-04-24T11:39:15Z</time>
      </trkpt>
      <trkpt lat="48.50986" lon="3.09973">
        <ele>110.7</ele>
        <time>2021-04-24T11:39:19Z</time>
      </trkpt>
      <trkpt lat="48.50982" lon="3.09968">
        <ele>109.5</ele>
        <time>2021-04-24T11:39:23Z</time>
      </trkpt>
      <trkpt lat="48.50979" lon="3.09963">
        <ele>108.3</ele>
        <time>2021-04-24T11:39:27Z</time>
      </trkpt>
      <trkpt lat="48.50975" lon="3.09959">
        <ele>107.3</ele>
        <time>2021-04-24T11:39:31Z</time>
      </trkpt>
      <trkpt lat="48.50971" lon="3.09956">
        <ele>106.6</ele>
        <time>2021-04-24T11:39:34Z</time>
      </trkpt>
      <trkpt lat="48.50965" lon="3.09957">
        <ele>106.1</ele>
        <time>2021-04-24T11:39:37Z</time>
      </trkpt>
      <trkpt lat="48.50961" lon="3.09961">
        <ele>106</ele>
        <time>2021-04-24T11:39:41Z</time>
      </trkpt>
      <trkpt lat="48.50956" lon="3.09961">
        <ele>105.7</ele>
        <time>2021-04-24T11:39:46Z</time>
      </trkpt>
      <trkpt lat="48.50951" lon="3.0996">
        <ele>105.2</ele>
        <time>2021-04-24T11:39:51Z</time>
      </trkpt>
      <trkpt lat="48.50947" lon="3.09965">
        <ele>104.3</ele>
        <time>2021-04-24T11:39:57Z</time>
      </trkpt>
      <trkpt lat="48.50948" lon="3.09972">
        <ele>103.9</ele>
        <time>2021-04-24T11:40:02Z</time>
      </trkpt>
      <trkpt lat="48.50947" lon="3.0998">
        <ele>103.3</ele>
        <time>2021-04-24T11:40:07Z</time>
      </trkpt>
      <trkpt lat="48.50945" lon="3.09987">
        <ele>102.9</ele>
        <time>2021-04-24T11:40:11Z</time>
      </trkpt>
      <trkpt lat="48.50942" lon="3.09993">
        <ele>102.2</ele>
        <time>2021-04-24T11:40:16Z</time>
      </trkpt>
      <trkpt lat="48.50938" lon="3.09999">
        <ele>101.5</ele>
        <time>2021-04-24T11:40:21Z</time>
      </trkpt>
      <trkpt lat="48.50935" lon="3.10005">
        <ele>100.9</ele>
        <time>2021-04-24T11:40:25Z</time>
      </trkpt>
      <trkpt lat="48.50932" lon="3.1001">
        <ele>100.3</ele>
        <time>2021-04-24T11:40:29Z</time>
      </trkpt>
      <trkpt lat="48.50928" lon="3.10015">
        <ele>99.5</ele>
        <time>2021-04-24T11:40:34Z</time>
      </trkpt>
      <trkpt lat="48.50926" lon="3.10022">
        <ele>98.5</ele>
        <time>2021-04-24T11:40:42Z</time>
      </trkpt>
      <trkpt lat="48.50923" lon="3.10028">
        <ele>97.9</ele>
        <time>2021-04-24T11:40:46Z</time>
      </trkpt>
      <trkpt lat="48.50919" lon="3.10032">
        <ele>97.3</ele>
        <time>2021-04-24T11:40:50Z</time>
      </trkpt>
      <trkpt lat="48.50915" lon="3.10037">
        <ele>96.6</ele>
        <time>2021-04-24T11:40:55Z</time>
      </trkpt>
      <trkpt lat="48.50912" lon="3.10043">
        <ele>96.2</ele>
        <time>2021-04-24T11:41:00Z</time>
      </trkpt>
      <trkpt lat="48.5091" lon="3.1005">
        <ele>96.1</ele>
        <time>2021-04-24T11:41:06Z</time>
      </trkpt>
      <trkpt lat="48.50906" lon="3.10057">
        <ele>96.2</ele>
        <time>2021-04-24T11:41:11Z</time>
      </trkpt>
      <trkpt lat="48.50901" lon="3.10061">
        <ele>97</ele>
        <time>2021-04-24T11:41:14Z</time>
      </trkpt>
      <trkpt lat="48.50897" lon="3.10067">
        <ele>97.8</ele>
        <time>2021-04-24T11:41:18Z</time>
      </trkpt>
      <trkpt lat="48.50894" lon="3.10075">
        <ele>98.9</ele>
        <time>2021-04-24T11:41:22Z</time>
      </trkpt>
      <trkpt lat="48.50892" lon="3.10081">
        <ele>99.8</ele>
        <time>2021-04-24T11:41:26Z</time>
      </trkpt>
      <trkpt lat="48.5089" lon="3.10088">
        <ele>100.4</ele>
        <time>2021-04-24T11:41:30Z</time>
      </trkpt>
      <trkpt lat="48.50888" lon="3.10095">
        <ele>101.1</ele>
        <time>2021-04-24T11:41:34Z</time>
      </trkpt>
      <trkpt lat="48.50885" lon="3.10102">
        <ele>102</ele>
        <time>2021-04-24T11:41:39Z</time>
      </trkpt>
      <trkpt lat="48.50882" lon="3.10107">
        <ele>102.9</ele>
        <time>2021-04-24T11:41:45Z</time>
      </trkpt>
      <trkpt lat="48.5088" lon="3.10113">
        <ele>103.6</ele>
        <time>2021-04-24T11:41:50Z</time>
      </trkpt>
      <trkpt lat="48.50878" lon="3.10119">
        <ele>104.4</ele>
        <time>2021-04-24T11:41:55Z</time>
      </trkpt>
      <trkpt lat="48.50876" lon="3.10127">
        <ele>105.1</ele>
        <time>2021-04-24T11:42:01Z</time>
      </trkpt>
      <trkpt lat="48.50875" lon="3.10134">
        <ele>105.7</ele>
        <time>2021-04-24T11:42:06Z</time>
      </trkpt>
      <trkpt lat="48.50874" lon="3.1014">
        <ele>106.2</ele>
        <time>2021-04-24T11:42:11Z</time>
      </trkpt>
      <trkpt lat="48.50873" lon="3.10148">
        <ele>106.7</ele>
        <time>2021-04-24T11:42:16Z</time>
      </trkpt>
      <trkpt lat="48.50871" lon="3.10155">
        <ele>107.2</ele>
        <time>2021-04-24T11:42:20Z</time>
      </trkpt>
      <trkpt lat="48.50869" lon="3.10161">
        <ele>107.4</ele>
        <time>2021-04-24T11:42:24Z</time>
      </trkpt>
      <trkpt lat="48.50867" lon="3.10168">
        <ele>107.4</ele>
        <time>2021-04-24T11:42:28Z</time>
      </trkpt>
      <trkpt lat="48.50865" lon="3.10175">
        <ele>107.5</ele>
        <time>2021-04-24T11:42:33Z</time>
      </trkpt>
      <trkpt lat="48.50863" lon="3.10182">
        <ele>107.8</ele>
        <time>2021-04-24T11:42:37Z</time>
      </trkpt>
      <trkpt lat="48.50861" lon="3.10189">
        <ele>107.9</ele>
        <time>2021-04-24T11:42:42Z</time>
      </trkpt>
      <trkpt lat="48.50858" lon="3.10196">
        <ele>107.8</ele>
        <time>2021-04-24T11:42:47Z</time>
      </trkpt>
      <trkpt lat="48.50857" lon="3.10203">
        <ele>107.8</ele>
        <time>2021-04-24T11:42:53Z</time>
      </trkpt>
      <trkpt lat="48.50857" lon="3.1021">
        <ele>107.7</ele>
        <time>2021-04-24T11:42:58Z</time>
      </trkpt>
      <trkpt lat="48.50855" lon="3.10218">
        <ele>107.8</ele>
        <time>2021-04-24T11:43:03Z</time>
      </trkpt>
      <trkpt lat="48.50853" lon="3.10224">
        <ele>108.1</ele>
        <time>2021-04-24T11:43:08Z</time>
      </trkpt>
      <trkpt lat="48.50851" lon="3.10231">
        <ele>108.5</ele>
        <time>2021-04-24T11:43:13Z</time>
      </trkpt>
      <trkpt lat="48.50848" lon="3.10238">
        <ele>108.9</ele>
        <time>2021-04-24T11:43:19Z</time>
      </trkpt>
      <trkpt lat="48.50845" lon="3.10245">
        <ele>108.9</ele>
        <time>2021-04-24T11:43:24Z</time>
      </trkpt>
      <trkpt lat="48.50843" lon="3.10251">
        <ele>109.1</ele>
        <time>2021-04-24T11:43:28Z</time>
      </trkpt>
      <trkpt lat="48.5084" lon="3.10258">
        <ele>109.3</ele>
        <time>2021-04-24T11:43:33Z</time>
      </trkpt>
      <trkpt lat="48.50838" lon="3.10264">
        <ele>109.5</ele>
        <time>2021-04-24T11:43:37Z</time>
      </trkpt>
      <trkpt lat="48.50835" lon="3.1027">
        <ele>109.6</ele>
        <time>2021-04-24T11:43:42Z</time>
      </trkpt>
      <trkpt lat="48.50832" lon="3.10275">
        <ele>109.5</ele>
        <time>2021-04-24T11:43:46Z</time>
      </trkpt>
      <trkpt lat="48.50829" lon="3.1028">
        <ele>109.6</ele>
        <time>2021-04-24T11:43:50Z</time>
      </trkpt>
      <trkpt lat="48.50826" lon="3.10287">
        <ele>109.7</ele>
        <time>2021-04-24T11:43:55Z</time>
      </trkpt>
      <trkpt lat="48.50822" lon="3.10293">
        <ele>109.8</ele>
        <time>2021-04-24T11:43:59Z</time>
      </trkpt>
      <trkpt lat="48.50818" lon="3.10296">
        <ele>109.8</ele>
        <time>2021-04-24T11:44:03Z</time>
      </trkpt>
      <trkpt lat="48.50813" lon="3.103">
        <ele>109.7</ele>
        <time>2021-04-24T11:44:08Z</time>
      </trkpt>
      <trkpt lat="48.50808" lon="3.10301">
        <ele>109.2</ele>
        <time>2021-04-24T11:44:13Z</time>
      </trkpt>
      <trkpt lat="48.50803" lon="3.10301">
        <ele>108.4</ele>
        <time>2021-04-24T11:44:18Z</time>
      </trkpt>
      <trkpt lat="48.50799" lon="3.10306">
        <ele>108</ele>
        <time>2021-04-24T11:44:23Z</time>
      </trkpt>
      <trkpt lat="48.50795" lon="3.10311">
        <ele>107.8</ele>
        <time>2021-04-24T11:44:28Z</time>
      </trkpt>
      <trkpt lat="48.5079" lon="3.10314">
        <ele>107.7</ele>
        <time>2021-04-24T11:44:33Z</time>
      </trkpt>
      <trkpt lat="48.50786" lon="3.10317">
        <ele>107.6</ele>
        <time>2021-04-24T11:44:38Z</time>
      </trkpt>
      <trkpt lat="48.50781" lon="3.1032">
        <ele>107.5</ele>
        <time>2021-04-24T11:44:43Z</time>
      </trkpt>
      <trkpt lat="48.50776" lon="3.10324">
        <ele>107.4</ele>
        <time>2021-04-24T11:44:48Z</time>
      </trkpt>
      <trkpt lat="48.50772" lon="3.10327">
        <ele>107.5</ele>
        <time>2021-04-24T11:44:52Z</time>
      </trkpt>
      <trkpt lat="48.50767" lon="3.10331">
        <ele>107.7</ele>
        <time>2021-04-24T11:44:56Z</time>
      </trkpt>
      <trkpt lat="48.50763" lon="3.10334">
        <ele>107.8</ele>
        <time>2021-04-24T11:45:01Z</time>
      </trkpt>
      <trkpt lat="48.50758" lon="3.10337">
        <ele>107.9</ele>
        <time>2021-04-24T11:45:06Z</time>
      </trkpt>
      <trkpt lat="48.50754" lon="3.10339">
        <ele>108</ele>
        <time>2021-04-24T11:45:10Z</time>
      </trkpt>
      <trkpt lat="48.50749" lon="3.10343">
        <ele>108.2</ele>
        <time>2021-04-24T11:45:15Z</time>
      </trkpt>
      <trkpt lat="48.50744" lon="3.10348">
        <ele>108.2</ele>
        <time>2021-04-24T11:45:21Z</time>
      </trkpt>
      <trkpt lat="48.5074" lon="3.10352">
        <ele>108.1</ele>
        <time>2021-04-24T11:45:26Z</time>
      </trkpt>
      <trkpt lat="48.50735" lon="3.10356">
        <ele>108.2</ele>
        <time>2021-04-24T11:45:30Z</time>
      </trkpt>
      <trkpt lat="48.50729" lon="3.10359">
        <ele>108.5</ele>
        <time>2021-04-24T11:45:35Z</time>
      </trkpt>
      <trkpt lat="48.50725" lon="3.10362">
        <ele>108.8</ele>
        <time>2021-04-24T11:45:39Z</time>
      </trkpt>
      <trkpt lat="48.50721" lon="3.10364">
        <ele>109.1</ele>
        <time>2021-04-24T11:45:43Z</time>
      </trkpt>
      <trkpt lat="48.50716" lon="3.10367">
        <ele>109.6</ele>
        <time>2021-04-24T11:45:48Z</time>
      </trkpt>
      <trkpt lat="48.50711" lon="3.1037">
        <ele>110.2</ele>
        <time>2021-04-24T11:45:53Z</time>
      </trkpt>
      <trkpt lat="48.50707" lon="3.10375">
        <ele>110.8</ele>
        <time>2021-04-24T11:45:58Z</time>
      </trkpt>
      <trkpt lat="48.50704" lon="3.1038">
        <ele>111.1</ele>
        <time>2021-04-24T11:46:02Z</time>
      </trkpt>
      <trkpt lat="48.50699" lon="3.10383">
        <ele>111</ele>
        <time>2021-04-24T11:46:07Z</time>
      </trkpt>
      <trkpt lat="48.50695" lon="3.10386">
        <ele>110.7</ele>
        <time>2021-04-24T11:46:11Z</time>
      </trkpt>
      <trkpt lat="48.50691" lon="3.10389">
        <ele>110.5</ele>
        <time>2021-04-24T11:46:15Z</time>
      </trkpt>
      <trkpt lat="48.50686" lon="3.10392">
        <ele>110.4</ele>
        <time>2021-04-24T11:46:20Z</time>
      </trkpt>
      <trkpt lat="48.50681" lon="3.10395">
        <ele>110.3</ele>
        <time>2021-04-24T11:46:24Z</time>
      </trkpt>
      <trkpt lat="48.50676" lon="3.10398">
        <ele>109.9</ele>
        <time>2021-04-24T11:46:29Z</time>
      </trkpt>
      <trkpt lat="48.50671" lon="3.104">
        <ele>109.7</ele>
        <time>2021-04-24T11:46:34Z</time>
      </trkpt>
      <trkpt lat="48.50666" lon="3.10402">
        <ele>109.5</ele>
        <time>2021-04-24T11:46:39Z</time>
      </trkpt>
      <trkpt lat="48.50662" lon="3.10405">
        <ele>109.3</ele>
        <time>2021-04-24T11:46:43Z</time>
      </trkpt>
      <trkpt lat="48.50657" lon="3.10408">
        <ele>109.2</ele>
        <time>2021-04-24T11:46:47Z</time>
      </trkpt>
      <trkpt lat="48.50653" lon="3.10412">
        <ele>109.1</ele>
        <time>2021-04-24T11:46:52Z</time>
      </trkpt>
      <trkpt lat="48.50649" lon="3.10415">
        <ele>108.8</ele>
        <time>2021-04-24T11:46:56Z</time>
      </trkpt>
      <trkpt lat="48.50644" lon="3.10417">
        <ele>108.3</ele>
        <time>2021-04-24T11:47:01Z</time>
      </trkpt>
      <trkpt lat="48.50639" lon="3.10419">
        <ele>108</ele>
        <time>2021-04-24T11:47:08Z</time>
      </trkpt>
      <trkpt lat="48.50635" lon="3.10416">
        <ele>108</ele>
        <time>2021-04-24T11:47:14Z</time>
      </trkpt>
      <trkpt lat="48.50631" lon="3.10412">
        <ele>108</ele>
        <time>2021-04-24T11:47:20Z</time>
      </trkpt>
      <trkpt lat="48.50628" lon="3.10406">
        <ele>107.8</ele>
        <time>2021-04-24T11:47:24Z</time>
      </trkpt>
      <trkpt lat="48.50624" lon="3.10401">
        <ele>107.3</ele>
        <time>2021-04-24T11:47:30Z</time>
      </trkpt>
      <trkpt lat="48.5062" lon="3.10397">
        <ele>106.8</ele>
        <time>2021-04-24T11:47:38Z</time>
      </trkpt>
      <trkpt lat="48.50615" lon="3.10395">
        <ele>106.4</ele>
        <time>2021-04-24T11:47:45Z</time>
      </trkpt>
      <trkpt lat="48.5061" lon="3.10392">
        <ele>105.8</ele>
        <time>2021-04-24T11:47:51Z</time>
      </trkpt>
      <trkpt lat="48.50605" lon="3.1039">
        <ele>105.4</ele>
        <time>2021-04-24T11:47:56Z</time>
      </trkpt>
      <trkpt lat="48.50601" lon="3.10392">
        <ele>105.2</ele>
        <time>2021-04-24T11:48:02Z</time>
      </trkpt>
      <trkpt lat="48.50596" lon="3.10393">
        <ele>105.2</ele>
        <time>2021-04-24T11:48:08Z</time>
      </trkpt>
      <trkpt lat="48.50591" lon="3.10394">
        <ele>105.4</ele>
        <time>2021-04-24T11:48:14Z</time>
      </trkpt>
      <trkpt lat="48.50586" lon="3.10393">
        <ele>105.7</ele>
        <time>2021-04-24T11:48:21Z</time>
      </trkpt>
      <trkpt lat="48.50581" lon="3.10391">
        <ele>105.8</ele>
        <time>2021-04-24T11:48:25Z</time>
      </trkpt>
      <trkpt lat="48.50576" lon="3.10389">
        <ele>105.7</ele>
        <time>2021-04-24T11:48:30Z</time>
      </trkpt>
      <trkpt lat="48.50572" lon="3.10388">
        <ele>105.7</ele>
        <time>2021-04-24T11:48:34Z</time>
      </trkpt>
      <trkpt lat="48.50567" lon="3.10387">
        <ele>105.4</ele>
        <time>2021-04-24T11:48:39Z</time>
      </trkpt>
      <trkpt lat="48.50562" lon="3.10386">
        <ele>105.1</ele>
        <time>2021-04-24T11:48:44Z</time>
      </trkpt>
      <trkpt lat="48.50557" lon="3.10386">
        <ele>104.8</ele>
        <time>2021-04-24T11:48:49Z</time>
      </trkpt>
      <trkpt lat="48.50552" lon="3.10385">
        <ele>104.2</ele>
        <time>2021-04-24T11:48:56Z</time>
      </trkpt>
      <trkpt lat="48.50548" lon="3.10386">
        <ele>103.7</ele>
        <time>2021-04-24T11:49:03Z</time>
      </trkpt>
      <trkpt lat="48.50543" lon="3.10388">
        <ele>103.1</ele>
        <time>2021-04-24T11:49:11Z</time>
      </trkpt>
      <trkpt lat="48.50539" lon="3.10393">
        <ele>102.7</ele>
        <time>2021-04-24T11:49:16Z</time>
      </trkpt>
      <trkpt lat="48.50536" lon="3.10397">
        <ele>102.5</ele>
        <time>2021-04-24T11:49:20Z</time>
      </trkpt>
      <trkpt lat="48.50531" lon="3.104">
        <ele>102.2</ele>
        <time>2021-04-24T11:49:24Z</time>
      </trkpt>
      <trkpt lat="48.50526" lon="3.10403">
        <ele>101.9</ele>
        <time>2021-04-24T11:49:29Z</time>
      </trkpt>
      <trkpt lat="48.50521" lon="3.10403">
        <ele>101.7</ele>
        <time>2021-04-24T11:49:34Z</time>
      </trkpt>
      <trkpt lat="48.50516" lon="3.10402">
        <ele>102.1</ele>
        <time>2021-04-24T11:49:40Z</time>
      </trkpt>
      <trkpt lat="48.50513" lon="3.10397">
        <ele>102.3</ele>
        <time>2021-04-24T11:49:47Z</time>
      </trkpt>
      <trkpt lat="48.50509" lon="3.10393">
        <ele>102.9</ele>
        <time>2021-04-24T11:49:59Z</time>
      </trkpt>
      <trkpt lat="48.50504" lon="3.10393">
        <ele>103.7</ele>
        <time>2021-04-24T11:50:16Z</time>
      </trkpt>
      <trkpt lat="48.50507" lon="3.10385">
        <ele>104.6</ele>
        <time>2021-04-24T11:50:29Z</time>
      </trkpt>
      <trkpt lat="48.5051" lon="3.1038">
        <ele>105.4</ele>
        <time>2021-04-24T11:50:33Z</time>
      </trkpt>
      <trkpt lat="48.50509" lon="3.10373">
        <ele>106.2</ele>
        <time>2021-04-24T11:50:39Z</time>
      </trkpt>
      <trkpt lat="48.50506" lon="3.10367">
        <ele>106.6</ele>
        <time>2021-04-24T11:50:44Z</time>
      </trkpt>
      <trkpt lat="48.50503" lon="3.10362">
        <ele>106.8</ele>
        <time>2021-04-24T11:50:48Z</time>
      </trkpt>
      <trkpt lat="48.50499" lon="3.10356">
        <ele>107.1</ele>
        <time>2021-04-24T11:50:52Z</time>
      </trkpt>
      <trkpt lat="48.50496" lon="3.10349">
        <ele>107.5</ele>
        <time>2021-04-24T11:50:56Z</time>
      </trkpt>
      <trkpt lat="48.50494" lon="3.10342">
        <ele>107.7</ele>
        <time>2021-04-24T11:51:00Z</time>
      </trkpt>
      <trkpt lat="48.5049" lon="3.10336">
        <ele>107.9</ele>
        <time>2021-04-24T11:51:05Z</time>
      </trkpt>
      <trkpt lat="48.50487" lon="3.1033">
        <ele>108.1</ele>
        <time>2021-04-24T11:51:10Z</time>
      </trkpt>
      <trkpt lat="48.50483" lon="3.10325">
        <ele>108.4</ele>
        <time>2021-04-24T11:51:15Z</time>
      </trkpt>
      <trkpt lat="48.50479" lon="3.10319">
        <ele>108.8</ele>
        <time>2021-04-24T11:51:19Z</time>
      </trkpt>
      <trkpt lat="48.50476" lon="3.10314">
        <ele>109.1</ele>
        <time>2021-04-24T11:51:23Z</time>
      </trkpt>
      <trkpt lat="48.50474" lon="3.10307">
        <ele>109.3</ele>
        <time>2021-04-24T11:51:27Z</time>
      </trkpt>
      <trkpt lat="48.5047" lon="3.10301">
        <ele>109.7</ele>
        <time>2021-04-24T11:51:33Z</time>
      </trkpt>
      <trkpt lat="48.50466" lon="3.10298">
        <ele>109.9</ele>
        <time>2021-04-24T11:51:37Z</time>
      </trkpt>
      <trkpt lat="48.50461" lon="3.10298">
        <ele>110.1</ele>
        <time>2021-04-24T11:51:42Z</time>
      </trkpt>
      <trkpt lat="48.50456" lon="3.10299">
        <ele>110.2</ele>
        <time>2021-04-24T11:51:48Z</time>
      </trkpt>
      <trkpt lat="48.5045" lon="3.10299">
        <ele>110.4</ele>
        <time>2021-04-24T11:51:53Z</time>
      </trkpt>
      <trkpt lat="48.50445" lon="3.10302">
        <ele>110.9</ele>
        <time>2021-04-24T11:51:58Z</time>
      </trkpt>
      <trkpt lat="48.5044" lon="3.103">
        <ele>111.6</ele>
        <time>2021-04-24T11:52:04Z</time>
      </trkpt>
      <trkpt lat="48.50435" lon="3.103">
        <ele>112.2</ele>
        <time>2021-04-24T11:52:09Z</time>
      </trkpt>
      <trkpt lat="48.5043" lon="3.10301">
        <ele>112.5</ele>
        <time>2021-04-24T11:52:14Z</time>
      </trkpt>
      <trkpt lat="48.50425" lon="3.10302">
        <ele>112.4</ele>
        <time>2021-04-24T11:52:21Z</time>
      </trkpt>
      <trkpt lat="48.50421" lon="3.10305">
        <ele>112.3</ele>
        <time>2021-04-24T11:52:28Z</time>
      </trkpt>
      <trkpt lat="48.50416" lon="3.10307">
        <ele>112.2</ele>
        <time>2021-04-24T11:52:33Z</time>
      </trkpt>
      <trkpt lat="48.5041" lon="3.10308">
        <ele>112</ele>
        <time>2021-04-24T11:52:37Z</time>
      </trkpt>
      <trkpt lat="48.50404" lon="3.10308">
        <ele>111.8</ele>
        <time>2021-04-24T11:52:42Z</time>
      </trkpt>
      <trkpt lat="48.50399" lon="3.10307">
        <ele>111.7</ele>
        <time>2021-04-24T11:52:47Z</time>
      </trkpt>
      <trkpt lat="48.50394" lon="3.1031">
        <ele>111.5</ele>
        <time>2021-04-24T11:52:53Z</time>
      </trkpt>
      <trkpt lat="48.50389" lon="3.1031">
        <ele>110.9</ele>
        <time>2021-04-24T11:53:01Z</time>
      </trkpt>
      <trkpt lat="48.50385" lon="3.10314">
        <ele>110.2</ele>
        <time>2021-04-24T11:53:07Z</time>
      </trkpt>
      <trkpt lat="48.50381" lon="3.10318">
        <ele>109.6</ele>
        <time>2021-04-24T11:53:11Z</time>
      </trkpt>
      <trkpt lat="48.50377" lon="3.10322">
        <ele>108.9</ele>
        <time>2021-04-24T11:53:15Z</time>
      </trkpt>
      <trkpt lat="48.50373" lon="3.10324">
        <ele>108.4</ele>
        <time>2021-04-24T11:53:19Z</time>
      </trkpt>
      <trkpt lat="48.50368" lon="3.10327">
        <ele>107.9</ele>
        <time>2021-04-24T11:53:24Z</time>
      </trkpt>
      <trkpt lat="48.50363" lon="3.10329">
        <ele>107.6</ele>
        <time>2021-04-24T11:53:29Z</time>
      </trkpt>
      <trkpt lat="48.50359" lon="3.10333">
        <ele>107.1</ele>
        <time>2021-04-24T11:53:36Z</time>
      </trkpt>
      <trkpt lat="48.50354" lon="3.10337">
        <ele>106.8</ele>
        <time>2021-04-24T11:53:41Z</time>
      </trkpt>
      <trkpt lat="48.50351" lon="3.10343">
        <ele>106.5</ele>
        <time>2021-04-24T11:53:45Z</time>
      </trkpt>
      <trkpt lat="48.50347" lon="3.10349">
        <ele>106.4</ele>
        <time>2021-04-24T11:53:48Z</time>
      </trkpt>
      <trkpt lat="48.50343" lon="3.10354">
        <ele>106.2</ele>
        <time>2021-04-24T11:53:52Z</time>
      </trkpt>
      <trkpt lat="48.50338" lon="3.10358">
        <ele>105.9</ele>
        <time>2021-04-24T11:53:56Z</time>
      </trkpt>
      <trkpt lat="48.50334" lon="3.1036">
        <ele>105.3</ele>
        <time>2021-04-24T11:54:06Z</time>
      </trkpt>
      <trkpt lat="48.50329" lon="3.10364">
        <ele>105.3</ele>
        <time>2021-04-24T11:54:12Z</time>
      </trkpt>
      <trkpt lat="48.50325" lon="3.10367">
        <ele>105.5</ele>
        <time>2021-04-24T11:54:16Z</time>
      </trkpt>
      <trkpt lat="48.50321" lon="3.10371">
        <ele>105.5</ele>
        <time>2021-04-24T11:54:20Z</time>
      </trkpt>
      <trkpt lat="48.50317" lon="3.10376">
        <ele>105.4</ele>
        <time>2021-04-24T11:54:25Z</time>
      </trkpt>
      <trkpt lat="48.50314" lon="3.10382">
        <ele>105.3</ele>
        <time>2021-04-24T11:54:31Z</time>
      </trkpt>
      <trkpt lat="48.50311" lon="3.10387">
        <ele>104.9</ele>
        <time>2021-04-24T11:54:35Z</time>
      </trkpt>
      <trkpt lat="48.50306" lon="3.10391">
        <ele>104.3</ele>
        <time>2021-04-24T11:54:40Z</time>
      </trkpt>
      <trkpt lat="48.50302" lon="3.10393">
        <ele>103.8</ele>
        <time>2021-04-24T11:54:44Z</time>
      </trkpt>
      <trkpt lat="48.50298" lon="3.10396">
        <ele>103.4</ele>
        <time>2021-04-24T11:54:48Z</time>
      </trkpt>
      <trkpt lat="48.50293" lon="3.10398">
        <ele>102.9</ele>
        <time>2021-04-24T11:54:53Z</time>
      </trkpt>
      <trkpt lat="48.50288" lon="3.104">
        <ele>102.5</ele>
        <time>2021-04-24T11:54:57Z</time>
      </trkpt>
      <trkpt lat="48.50282" lon="3.10401">
        <ele>102.2</ele>
        <time>2021-04-24T11:55:01Z</time>
      </trkpt>
      <trkpt lat="48.50276" lon="3.10403">
        <ele>102</ele>
        <time>2021-04-24T11:55:05Z</time>
      </trkpt>
      <trkpt lat="48.50271" lon="3.10404">
        <ele>101.8</ele>
        <time>2021-04-24T11:55:09Z</time>
      </trkpt>
      <trkpt lat="48.50266" lon="3.10403">
        <ele>101.6</ele>
        <time>2021-04-24T11:55:13Z</time>
      </trkpt>
      <trkpt lat="48.50261" lon="3.10403">
        <ele>101.5</ele>
        <time>2021-04-24T11:55:17Z</time>
      </trkpt>
      <trkpt lat="48.50256" lon="3.10403">
        <ele>101.5</ele>
        <time>2021-04-24T11:55:21Z</time>
      </trkpt>
      <trkpt lat="48.50251" lon="3.10401">
        <ele>101.4</ele>
        <time>2021-04-24T11:55:26Z</time>
      </trkpt>
      <trkpt lat="48.50246" lon="3.104">
        <ele>101.2</ele>
        <time>2021-04-24T11:55:34Z</time>
      </trkpt>
      <trkpt lat="48.50241" lon="3.10399">
        <ele>101.1</ele>
        <time>2021-04-24T11:55:40Z</time>
      </trkpt>
      <trkpt lat="48.50236" lon="3.104">
        <ele>101.4</ele>
        <time>2021-04-24T11:55:45Z</time>
      </trkpt>
      <trkpt lat="48.50231" lon="3.10401">
        <ele>101.9</ele>
        <time>2021-04-24T11:55:52Z</time>
      </trkpt>
      <trkpt lat="48.50229" lon="3.10408">
        <ele>106.8</ele>
        <time>2021-04-24T11:56:11Z</time>
      </trkpt>
      <trkpt lat="48.50224" lon="3.10409">
        <ele>110.5</ele>
        <time>2021-04-24T11:57:15Z</time>
      </trkpt>
      <trkpt lat="48.50219" lon="3.1041">
        <ele>111.1</ele>
        <time>2021-04-24T11:57:22Z</time>
      </trkpt>
      <trkpt lat="48.50214" lon="3.10412">
        <ele>111.4</ele>
        <time>2021-04-24T11:57:27Z</time>
      </trkpt>
      <trkpt lat="48.5021" lon="3.10413">
        <ele>111.6</ele>
        <time>2021-04-24T11:57:32Z</time>
      </trkpt>
      <trkpt lat="48.50205" lon="3.10414">
        <ele>111.8</ele>
        <time>2021-04-24T11:57:37Z</time>
      </trkpt>
      <trkpt lat="48.502" lon="3.10416">
        <ele>112.1</ele>
        <time>2021-04-24T11:57:42Z</time>
      </trkpt>
      <trkpt lat="48.50194" lon="3.10418">
        <ele>112.3</ele>
        <time>2021-04-24T11:57:47Z</time>
      </trkpt>
      <trkpt lat="48.5019" lon="3.10425">
        <ele>112.3</ele>
        <time>2021-04-24T11:57:51Z</time>
      </trkpt>
      <trkpt lat="48.50185" lon="3.10428">
        <ele>112.2</ele>
        <time>2021-04-24T11:57:56Z</time>
      </trkpt>
      <trkpt lat="48.5018" lon="3.1043">
        <ele>112.3</ele>
        <time>2021-04-24T11:58:00Z</time>
      </trkpt>
      <trkpt lat="48.50175" lon="3.10433">
        <ele>112.3</ele>
        <time>2021-04-24T11:58:04Z</time>
      </trkpt>
      <trkpt lat="48.5017" lon="3.10434">
        <ele>112.2</ele>
        <time>2021-04-24T11:58:08Z</time>
      </trkpt>
      <trkpt lat="48.50165" lon="3.10436">
        <ele>112.2</ele>
        <time>2021-04-24T11:58:12Z</time>
      </trkpt>
      <trkpt lat="48.5016" lon="3.10434">
        <ele>112.3</ele>
        <time>2021-04-24T11:58:16Z</time>
      </trkpt>
      <trkpt lat="48.50156" lon="3.10436">
        <ele>112.4</ele>
        <time>2021-04-24T11:58:20Z</time>
      </trkpt>
      <trkpt lat="48.50151" lon="3.10439">
        <ele>112.6</ele>
        <time>2021-04-24T11:58:24Z</time>
      </trkpt>
      <trkpt lat="48.50146" lon="3.10442">
        <ele>112.9</ele>
        <time>2021-04-24T11:58:28Z</time>
      </trkpt>
      <trkpt lat="48.50141" lon="3.10442">
        <ele>113.1</ele>
        <time>2021-04-24T11:58:32Z</time>
      </trkpt>
      <trkpt lat="48.50135" lon="3.10444">
        <ele>113.2</ele>
        <time>2021-04-24T11:58:36Z</time>
      </trkpt>
      <trkpt lat="48.5013" lon="3.10445">
        <ele>113.3</ele>
        <time>2021-04-24T11:58:40Z</time>
      </trkpt>
      <trkpt lat="48.50125" lon="3.10447">
        <ele>113.5</ele>
        <time>2021-04-24T11:58:45Z</time>
      </trkpt>
      <trkpt lat="48.5012" lon="3.10449">
        <ele>113.7</ele>
        <time>2021-04-24T11:58:50Z</time>
      </trkpt>
      <trkpt lat="48.50116" lon="3.10452">
        <ele>114</ele>
        <time>2021-04-24T11:58:55Z</time>
      </trkpt>
      <trkpt lat="48.50111" lon="3.10449">
        <ele>114.9</ele>
        <time>2021-04-24T11:59:01Z</time>
      </trkpt>
      <trkpt lat="48.50108" lon="3.10442">
        <ele>115.5</ele>
        <time>2021-04-24T11:59:05Z</time>
      </trkpt>
      <trkpt lat="48.50106" lon="3.10435">
        <ele>116.2</ele>
        <time>2021-04-24T11:59:09Z</time>
      </trkpt>
      <trkpt lat="48.50105" lon="3.10429">
        <ele>117</ele>
        <time>2021-04-24T11:59:13Z</time>
      </trkpt>
      <trkpt lat="48.50103" lon="3.10422">
        <ele>117.9</ele>
        <time>2021-04-24T11:59:18Z</time>
      </trkpt>
      <trkpt lat="48.50101" lon="3.10415">
        <ele>118.6</ele>
        <time>2021-04-24T11:59:22Z</time>
      </trkpt>
      <trkpt lat="48.501" lon="3.10408">
        <ele>119.2</ele>
        <time>2021-04-24T11:59:26Z</time>
      </trkpt>
      <trkpt lat="48.501" lon="3.10401">
        <ele>120.3</ele>
        <time>2021-04-24T11:59:32Z</time>
      </trkpt>
      <trkpt lat="48.50099" lon="3.10393">
        <ele>121.6</ele>
        <time>2021-04-24T11:59:38Z</time>
      </trkpt>
      <trkpt lat="48.50098" lon="3.10386">
        <ele>122.5</ele>
        <time>2021-04-24T11:59:42Z</time>
      </trkpt>
      <trkpt lat="48.50096" lon="3.10379">
        <ele>123.4</ele>
        <time>2021-04-24T11:59:46Z</time>
      </trkpt>
      <trkpt lat="48.50095" lon="3.10373">
        <ele>124.2</ele>
        <time>2021-04-24T11:59:50Z</time>
      </trkpt>
      <trkpt lat="48.50092" lon="3.10367">
        <ele>124.9</ele>
        <time>2021-04-24T11:59:54Z</time>
      </trkpt>
      <trkpt lat="48.5009" lon="3.10359">
        <ele>126.1</ele>
        <time>2021-04-24T11:59:59Z</time>
      </trkpt>
      <trkpt lat="48.50089" lon="3.10352">
        <ele>127</ele>
        <time>2021-04-24T12:00:04Z</time>
      </trkpt>
      <trkpt lat="48.50086" lon="3.10344">
        <ele>128</ele>
        <time>2021-04-24T12:00:09Z</time>
      </trkpt>
      <trkpt lat="48.50085" lon="3.10338">
        <ele>128.7</ele>
        <time>2021-04-24T12:00:14Z</time>
      </trkpt>
      <trkpt lat="48.50083" lon="3.1033">
        <ele>129.4</ele>
        <time>2021-04-24T12:00:19Z</time>
      </trkpt>
      <trkpt lat="48.50082" lon="3.10322">
        <ele>130</ele>
        <time>2021-04-24T12:00:23Z</time>
      </trkpt>
      <trkpt lat="48.50082" lon="3.10315">
        <ele>130.6</ele>
        <time>2021-04-24T12:00:27Z</time>
      </trkpt>
      <trkpt lat="48.50081" lon="3.10308">
        <ele>131.5</ele>
        <time>2021-04-24T12:00:32Z</time>
      </trkpt>
      <trkpt lat="48.5008" lon="3.10301">
        <ele>132.4</ele>
        <time>2021-04-24T12:00:37Z</time>
      </trkpt>
      <trkpt lat="48.50078" lon="3.10294">
        <ele>133.3</ele>
        <time>2021-04-24T12:00:43Z</time>
      </trkpt>
      <trkpt lat="48.50077" lon="3.10287">
        <ele>134.2</ele>
        <time>2021-04-24T12:00:49Z</time>
      </trkpt>
      <trkpt lat="48.50075" lon="3.1028">
        <ele>134.5</ele>
        <time>2021-04-24T12:00:54Z</time>
      </trkpt>
      <trkpt lat="48.50073" lon="3.10273">
        <ele>134.7</ele>
        <time>2021-04-24T12:00:59Z</time>
      </trkpt>
      <trkpt lat="48.5007" lon="3.10266">
        <ele>134.9</ele>
        <time>2021-04-24T12:01:04Z</time>
      </trkpt>
      <trkpt lat="48.50068" lon="3.10259">
        <ele>135</ele>
        <time>2021-04-24T12:01:08Z</time>
      </trkpt>
      <trkpt lat="48.50067" lon="3.10252">
        <ele>135.2</ele>
        <time>2021-04-24T12:01:13Z</time>
      </trkpt>
      <trkpt lat="48.50065" lon="3.10246">
        <ele>135.2</ele>
        <time>2021-04-24T12:01:19Z</time>
      </trkpt>
      <trkpt lat="48.50065" lon="3.10238">
        <ele>135.5</ele>
        <time>2021-04-24T12:01:25Z</time>
      </trkpt>
      <trkpt lat="48.50063" lon="3.10231">
        <ele>135.5</ele>
        <time>2021-04-24T12:01:30Z</time>
      </trkpt>
      <trkpt lat="48.50061" lon="3.10223">
        <ele>135.5</ele>
        <time>2021-04-24T12:01:35Z</time>
      </trkpt>
      <trkpt lat="48.50059" lon="3.10216">
        <ele>135.7</ele>
        <time>2021-04-24T12:01:39Z</time>
      </trkpt>
      <trkpt lat="48.50057" lon="3.1021">
        <ele>135.8</ele>
        <time>2021-04-24T12:01:43Z</time>
      </trkpt>
      <trkpt lat="48.50055" lon="3.10204">
        <ele>136</ele>
        <time>2021-04-24T12:01:47Z</time>
      </trkpt>
      <trkpt lat="48.5005" lon="3.10198">
        <ele>136</ele>
        <time>2021-04-24T12:01:51Z</time>
      </trkpt>
      <trkpt lat="48.50047" lon="3.10192">
        <ele>135.9</ele>
        <time>2021-04-24T12:01:54Z</time>
      </trkpt>
      <trkpt lat="48.50044" lon="3.10187">
        <ele>135.7</ele>
        <time>2021-04-24T12:01:58Z</time>
      </trkpt>
      <trkpt lat="48.50041" lon="3.10181">
        <ele>135.6</ele>
        <time>2021-04-24T12:02:01Z</time>
      </trkpt>
      <trkpt lat="48.50038" lon="3.10176">
        <ele>135.5</ele>
        <time>2021-04-24T12:02:04Z</time>
      </trkpt>
      <trkpt lat="48.50035" lon="3.1017">
        <ele>135.4</ele>
        <time>2021-04-24T12:02:07Z</time>
      </trkpt>
      <trkpt lat="48.50031" lon="3.10164">
        <ele>135.1</ele>
        <time>2021-04-24T12:02:11Z</time>
      </trkpt>
      <trkpt lat="48.50028" lon="3.10159">
        <ele>134.6</ele>
        <time>2021-04-24T12:02:15Z</time>
      </trkpt>
      <trkpt lat="48.50025" lon="3.10153">
        <ele>134</ele>
        <time>2021-04-24T12:02:19Z</time>
      </trkpt>
      <trkpt lat="48.50022" lon="3.10147">
        <ele>133.2</ele>
        <time>2021-04-24T12:02:25Z</time>
      </trkpt>
      <trkpt lat="48.5002" lon="3.10141">
        <ele>133</ele>
        <time>2021-04-24T12:02:29Z</time>
      </trkpt>
      <trkpt lat="48.50017" lon="3.10135">
        <ele>132.9</ele>
        <time>2021-04-24T12:02:33Z</time>
      </trkpt>
      <trkpt lat="48.50013" lon="3.10129">
        <ele>132.8</ele>
        <time>2021-04-24T12:02:37Z</time>
      </trkpt>
      <trkpt lat="48.5001" lon="3.10123">
        <ele>132.6</ele>
        <time>2021-04-24T12:02:41Z</time>
      </trkpt>
      <trkpt lat="48.50006" lon="3.10117">
        <ele>132.4</ele>
        <time>2021-04-24T12:02:45Z</time>
      </trkpt>
      <trkpt lat="48.50002" lon="3.10111">
        <ele>132</ele>
        <time>2021-04-24T12:02:50Z</time>
      </trkpt>
      <trkpt lat="48.49998" lon="3.10107">
        <ele>131.7</ele>
        <time>2021-04-24T12:02:55Z</time>
      </trkpt>
      <trkpt lat="48.49994" lon="3.10101">
        <ele>131</ele>
        <time>2021-04-24T12:03:01Z</time>
      </trkpt>
      <trkpt lat="48.49991" lon="3.10096">
        <ele>130.5</ele>
        <time>2021-04-24T12:03:05Z</time>
      </trkpt>
      <trkpt lat="48.49987" lon="3.10091">
        <ele>129.9</ele>
        <time>2021-04-24T12:03:10Z</time>
      </trkpt>
      <trkpt lat="48.49984" lon="3.10086">
        <ele>129.5</ele>
        <time>2021-04-24T12:03:15Z</time>
      </trkpt>
      <trkpt lat="48.49981" lon="3.1008">
        <ele>129.1</ele>
        <time>2021-04-24T12:03:20Z</time>
      </trkpt>
      <trkpt lat="48.49977" lon="3.10074">
        <ele>128.2</ele>
        <time>2021-04-24T12:03:26Z</time>
      </trkpt>
      <trkpt lat="48.49973" lon="3.10069">
        <ele>127.4</ele>
        <time>2021-04-24T12:03:32Z</time>
      </trkpt>
      <trkpt lat="48.4997" lon="3.10063">
        <ele>126.6</ele>
        <time>2021-04-24T12:03:38Z</time>
      </trkpt>
      <trkpt lat="48.49966" lon="3.10056">
        <ele>126.2</ele>
        <time>2021-04-24T12:03:42Z</time>
      </trkpt>
      <trkpt lat="48.49962" lon="3.1005">
        <ele>125.7</ele>
        <time>2021-04-24T12:03:46Z</time>
      </trkpt>
      <trkpt lat="48.49959" lon="3.10044">
        <ele>125.6</ele>
        <time>2021-04-24T12:03:49Z</time>
      </trkpt>
      <trkpt lat="48.49956" lon="3.10039">
        <ele>125.4</ele>
        <time>2021-04-24T12:03:53Z</time>
      </trkpt>
      <trkpt lat="48.49953" lon="3.10033">
        <ele>125.2</ele>
        <time>2021-04-24T12:03:57Z</time>
      </trkpt>
      <trkpt lat="48.49949" lon="3.10028">
        <ele>124.9</ele>
        <time>2021-04-24T12:04:01Z</time>
      </trkpt>
      <trkpt lat="48.49945" lon="3.10025">
        <ele>124.3</ele>
        <time>2021-04-24T12:04:05Z</time>
      </trkpt>
      <trkpt lat="48.49941" lon="3.10022">
        <ele>123.4</ele>
        <time>2021-04-24T12:04:09Z</time>
      </trkpt>
      <trkpt lat="48.49937" lon="3.10019">
        <ele>122</ele>
        <time>2021-04-24T12:04:14Z</time>
      </trkpt>
      <trkpt lat="48.49933" lon="3.10014">
        <ele>120.1</ele>
        <time>2021-04-24T12:04:20Z</time>
      </trkpt>
      <trkpt lat="48.49929" lon="3.10009">
        <ele>118.5</ele>
        <time>2021-04-24T12:04:25Z</time>
      </trkpt>
      <trkpt lat="48.49925" lon="3.10004">
        <ele>117.1</ele>
        <time>2021-04-24T12:04:29Z</time>
      </trkpt>
      <trkpt lat="48.49922" lon="3.09998">
        <ele>115.8</ele>
        <time>2021-04-24T12:04:33Z</time>
      </trkpt>
      <trkpt lat="48.49918" lon="3.09993">
        <ele>114.3</ele>
        <time>2021-04-24T12:04:38Z</time>
      </trkpt>
      <trkpt lat="48.49914" lon="3.09989">
        <ele>112.9</ele>
        <time>2021-04-24T12:04:43Z</time>
      </trkpt>
      <trkpt lat="48.49909" lon="3.09987">
        <ele>112</ele>
        <time>2021-04-24T12:04:47Z</time>
      </trkpt>
      <trkpt lat="48.49904" lon="3.09984">
        <ele>111.1</ele>
        <time>2021-04-24T12:04:52Z</time>
      </trkpt>
      <trkpt lat="48.499" lon="3.0998">
        <ele>110.3</ele>
        <time>2021-04-24T12:04:57Z</time>
      </trkpt>
      <trkpt lat="48.49895" lon="3.09975">
        <ele>109.5</ele>
        <time>2021-04-24T12:05:02Z</time>
      </trkpt>
      <trkpt lat="48.49891" lon="3.0997">
        <ele>108.8</ele>
        <time>2021-04-24T12:05:08Z</time>
      </trkpt>
      <trkpt lat="48.49887" lon="3.09965">
        <ele>108.2</ele>
        <time>2021-04-24T12:05:13Z</time>
      </trkpt>
      <trkpt lat="48.49882" lon="3.0996">
        <ele>107.7</ele>
        <time>2021-04-24T12:05:17Z</time>
      </trkpt>
      <trkpt lat="48.49877" lon="3.09957">
        <ele>107.3</ele>
        <time>2021-04-24T12:05:21Z</time>
      </trkpt>
      <trkpt lat="48.49873" lon="3.09953">
        <ele>106.9</ele>
        <time>2021-04-24T12:05:25Z</time>
      </trkpt>
      <trkpt lat="48.49869" lon="3.0995">
        <ele>106.5</ele>
        <time>2021-04-24T12:05:29Z</time>
      </trkpt>
      <trkpt lat="48.49865" lon="3.09946">
        <ele>106</ele>
        <time>2021-04-24T12:05:33Z</time>
      </trkpt>
      <trkpt lat="48.49861" lon="3.09942">
        <ele>105.5</ele>
        <time>2021-04-24T12:05:38Z</time>
      </trkpt>
      <trkpt lat="48.49857" lon="3.09938">
        <ele>105.1</ele>
        <time>2021-04-24T12:05:42Z</time>
      </trkpt>
      <trkpt lat="48.49853" lon="3.09934">
        <ele>104.7</ele>
        <time>2021-04-24T12:05:46Z</time>
      </trkpt>
      <trkpt lat="48.49849" lon="3.0993">
        <ele>104.3</ele>
        <time>2021-04-24T12:05:50Z</time>
      </trkpt>
      <trkpt lat="48.49844" lon="3.09926">
        <ele>103.8</ele>
        <time>2021-04-24T12:05:55Z</time>
      </trkpt>
      <trkpt lat="48.4984" lon="3.09922">
        <ele>103.4</ele>
        <time>2021-04-24T12:06:00Z</time>
      </trkpt>
      <trkpt lat="48.49835" lon="3.09919">
        <ele>103.2</ele>
        <time>2021-04-24T12:06:05Z</time>
      </trkpt>
      <trkpt lat="48.4983" lon="3.09915">
        <ele>103.1</ele>
        <time>2021-04-24T12:06:10Z</time>
      </trkpt>
      <trkpt lat="48.49826" lon="3.09912">
        <ele>103</ele>
        <time>2021-04-24T12:06:14Z</time>
      </trkpt>
      <trkpt lat="48.49822" lon="3.09907">
        <ele>102.9</ele>
        <time>2021-04-24T12:06:19Z</time>
      </trkpt>
      <trkpt lat="48.49818" lon="3.09902">
        <ele>102.8</ele>
        <time>2021-04-24T12:06:23Z</time>
      </trkpt>
      <trkpt lat="48.49814" lon="3.09896">
        <ele>102.7</ele>
        <time>2021-04-24T12:06:28Z</time>
      </trkpt>
      <trkpt lat="48.49809" lon="3.09894">
        <ele>102.7</ele>
        <time>2021-04-24T12:06:33Z</time>
      </trkpt>
      <trkpt lat="48.49804" lon="3.09895">
        <ele>102.4</ele>
        <time>2021-04-24T12:06:39Z</time>
      </trkpt>
      <trkpt lat="48.49802" lon="3.09901">
        <ele>101.9</ele>
        <time>2021-04-24T12:06:44Z</time>
      </trkpt>
      <trkpt lat="48.498" lon="3.09908">
        <ele>101.4</ele>
        <time>2021-04-24T12:06:50Z</time>
      </trkpt>
      <trkpt lat="48.49798" lon="3.09916">
        <ele>101.3</ele>
        <time>2021-04-24T12:06:55Z</time>
      </trkpt>
      <trkpt lat="48.49796" lon="3.09923">
        <ele>101.2</ele>
        <time>2021-04-24T12:06:59Z</time>
      </trkpt>
      <trkpt lat="48.49794" lon="3.0993">
        <ele>101.2</ele>
        <time>2021-04-24T12:07:03Z</time>
      </trkpt>
      <trkpt lat="48.49792" lon="3.09938">
        <ele>101.1</ele>
        <time>2021-04-24T12:07:07Z</time>
      </trkpt>
      <trkpt lat="48.49791" lon="3.09947">
        <ele>101</ele>
        <time>2021-04-24T12:07:11Z</time>
      </trkpt>
      <trkpt lat="48.4979" lon="3.09953">
        <ele>101</ele>
        <time>2021-04-24T12:07:14Z</time>
      </trkpt>
      <trkpt lat="48.49788" lon="3.09959">
        <ele>101.1</ele>
        <time>2021-04-24T12:07:17Z</time>
      </trkpt>
      <trkpt lat="48.49786" lon="3.09967">
        <ele>101.1</ele>
        <time>2021-04-24T12:07:21Z</time>
      </trkpt>
      <trkpt lat="48.49784" lon="3.09974">
        <ele>100.9</ele>
        <time>2021-04-24T12:07:25Z</time>
      </trkpt>
      <trkpt lat="48.49783" lon="3.09981">
        <ele>100.7</ele>
        <time>2021-04-24T12:07:30Z</time>
      </trkpt>
      <trkpt lat="48.49779" lon="3.09982">
        <ele>101.4</ele>
        <time>2021-04-24T12:07:38Z</time>
      </trkpt>
      <trkpt lat="48.49778" lon="3.0999">
        <ele>101.9</ele>
        <time>2021-04-24T12:07:44Z</time>
      </trkpt>
      <trkpt lat="48.49776" lon="3.09996">
        <ele>102.3</ele>
        <time>2021-04-24T12:07:49Z</time>
      </trkpt>
      <trkpt lat="48.49772" lon="3.09999">
        <ele>102.5</ele>
        <time>2021-04-24T12:07:55Z</time>
      </trkpt>
      <trkpt lat="48.49766" lon="3.09999">
        <ele>102.6</ele>
        <time>2021-04-24T12:08:00Z</time>
      </trkpt>
      <trkpt lat="48.49761" lon="3.09996">
        <ele>102.8</ele>
        <time>2021-04-24T12:08:05Z</time>
      </trkpt>
      <trkpt lat="48.49756" lon="3.09993">
        <ele>103</ele>
        <time>2021-04-24T12:08:09Z</time>
      </trkpt>
      <trkpt lat="48.49751" lon="3.0999">
        <ele>103.3</ele>
        <time>2021-04-24T12:08:13Z</time>
      </trkpt>
      <trkpt lat="48.49747" lon="3.09987">
        <ele>103.6</ele>
        <time>2021-04-24T12:08:17Z</time>
      </trkpt>
      <trkpt lat="48.49743" lon="3.09983">
        <ele>103.8</ele>
        <time>2021-04-24T12:08:21Z</time>
      </trkpt>
      <trkpt lat="48.49738" lon="3.0998">
        <ele>104.2</ele>
        <time>2021-04-24T12:08:26Z</time>
      </trkpt>
      <trkpt lat="48.49733" lon="3.09977">
        <ele>104.5</ele>
        <time>2021-04-24T12:08:31Z</time>
      </trkpt>
      <trkpt lat="48.49729" lon="3.09971">
        <ele>104.7</ele>
        <time>2021-04-24T12:08:36Z</time>
      </trkpt>
      <trkpt lat="48.49724" lon="3.09967">
        <ele>105</ele>
        <time>2021-04-24T12:08:40Z</time>
      </trkpt>
      <trkpt lat="48.49719" lon="3.09964">
        <ele>105.4</ele>
        <time>2021-04-24T12:08:44Z</time>
      </trkpt>
      <trkpt lat="48.49714" lon="3.0996">
        <ele>105.7</ele>
        <time>2021-04-24T12:08:49Z</time>
      </trkpt>
      <trkpt lat="48.4971" lon="3.09956">
        <ele>106.3</ele>
        <time>2021-04-24T12:08:54Z</time>
      </trkpt>
      <trkpt lat="48.49705" lon="3.09954">
        <ele>107.3</ele>
        <time>2021-04-24T12:08:59Z</time>
      </trkpt>
      <trkpt lat="48.49701" lon="3.09957">
        <ele>110.5</ele>
        <time>2021-04-24T12:09:10Z</time>
      </trkpt>
      <trkpt lat="48.49698" lon="3.0995">
        <ele>113</ele>
        <time>2021-04-24T12:10:42Z</time>
      </trkpt>
      <trkpt lat="48.49694" lon="3.09947">
        <ele>113.6</ele>
        <time>2021-04-24T12:10:46Z</time>
      </trkpt>
      <trkpt lat="48.49689" lon="3.09946">
        <ele>114</ele>
        <time>2021-04-24T12:10:51Z</time>
      </trkpt>
      <trkpt lat="48.49687" lon="3.09953">
        <ele>114.4</ele>
        <time>2021-04-24T12:10:58Z</time>
      </trkpt>
      <trkpt lat="48.49686" lon="3.09961">
        <ele>114.6</ele>
        <time>2021-04-24T12:11:03Z</time>
      </trkpt>
      <trkpt lat="48.49684" lon="3.09969">
        <ele>114.6</ele>
        <time>2021-04-24T12:11:08Z</time>
      </trkpt>
      <trkpt lat="48.49683" lon="3.09975">
        <ele>114.5</ele>
        <time>2021-04-24T12:11:12Z</time>
      </trkpt>
      <trkpt lat="48.49681" lon="3.09982">
        <ele>114.3</ele>
        <time>2021-04-24T12:11:16Z</time>
      </trkpt>
      <trkpt lat="48.49679" lon="3.09989">
        <ele>113.9</ele>
        <time>2021-04-24T12:11:21Z</time>
      </trkpt>
      <trkpt lat="48.49677" lon="3.09996">
        <ele>113.9</ele>
        <time>2021-04-24T12:11:25Z</time>
      </trkpt>
      <trkpt lat="48.49675" lon="3.10004">
        <ele>113.9</ele>
        <time>2021-04-24T12:11:29Z</time>
      </trkpt>
      <trkpt lat="48.49674" lon="3.10012">
        <ele>114</ele>
        <time>2021-04-24T12:11:33Z</time>
      </trkpt>
      <trkpt lat="48.49673" lon="3.10019">
        <ele>114.2</ele>
        <time>2021-04-24T12:11:37Z</time>
      </trkpt>
      <trkpt lat="48.49671" lon="3.10026">
        <ele>114.5</ele>
        <time>2021-04-24T12:11:41Z</time>
      </trkpt>
      <trkpt lat="48.49669" lon="3.10033">
        <ele>114.8</ele>
        <time>2021-04-24T12:11:45Z</time>
      </trkpt>
      <trkpt lat="48.49667" lon="3.1004">
        <ele>114.8</ele>
        <time>2021-04-24T12:11:50Z</time>
      </trkpt>
      <trkpt lat="48.49665" lon="3.10048">
        <ele>114.4</ele>
        <time>2021-04-24T12:11:55Z</time>
      </trkpt>
      <trkpt lat="48.49663" lon="3.10055">
        <ele>113.5</ele>
        <time>2021-04-24T12:12:00Z</time>
      </trkpt>
      <trkpt lat="48.49662" lon="3.10063">
        <ele>112.7</ele>
        <time>2021-04-24T12:12:05Z</time>
      </trkpt>
      <trkpt lat="48.4966" lon="3.1007">
        <ele>112</ele>
        <time>2021-04-24T12:12:10Z</time>
      </trkpt>
      <trkpt lat="48.49658" lon="3.10077">
        <ele>111.7</ele>
        <time>2021-04-24T12:12:15Z</time>
      </trkpt>
      <trkpt lat="48.49656" lon="3.10084">
        <ele>111.3</ele>
        <time>2021-04-24T12:12:20Z</time>
      </trkpt>
      <trkpt lat="48.49654" lon="3.10092">
        <ele>111</ele>
        <time>2021-04-24T12:12:24Z</time>
      </trkpt>
      <trkpt lat="48.49653" lon="3.10098">
        <ele>110.5</ele>
        <time>2021-04-24T12:12:28Z</time>
      </trkpt>
      <trkpt lat="48.49651" lon="3.10106">
        <ele>110</ele>
        <time>2021-04-24T12:12:33Z</time>
      </trkpt>
      <trkpt lat="48.49649" lon="3.10113">
        <ele>109.7</ele>
        <time>2021-04-24T12:12:37Z</time>
      </trkpt>
      <trkpt lat="48.49647" lon="3.1012">
        <ele>109.6</ele>
        <time>2021-04-24T12:12:41Z</time>
      </trkpt>
      <trkpt lat="48.49646" lon="3.10127">
        <ele>109.8</ele>
        <time>2021-04-24T12:12:45Z</time>
      </trkpt>
      <trkpt lat="48.49644" lon="3.10133">
        <ele>110</ele>
        <time>2021-04-24T12:12:49Z</time>
      </trkpt>
      <trkpt lat="48.49642" lon="3.1014">
        <ele>110.2</ele>
        <time>2021-04-24T12:12:53Z</time>
      </trkpt>
      <trkpt lat="48.49639" lon="3.10147">
        <ele>110.3</ele>
        <time>2021-04-24T12:12:57Z</time>
      </trkpt>
      <trkpt lat="48.49637" lon="3.10154">
        <ele>110.4</ele>
        <time>2021-04-24T12:13:01Z</time>
      </trkpt>
      <trkpt lat="48.49634" lon="3.1016">
        <ele>110.5</ele>
        <time>2021-04-24T12:13:05Z</time>
      </trkpt>
      <trkpt lat="48.4963" lon="3.10165">
        <ele>110.8</ele>
        <time>2021-04-24T12:13:09Z</time>
      </trkpt>
      <trkpt lat="48.49626" lon="3.1017">
        <ele>110.9</ele>
        <time>2021-04-24T12:13:13Z</time>
      </trkpt>
      <trkpt lat="48.49623" lon="3.10175">
        <ele>110.8</ele>
        <time>2021-04-24T12:13:17Z</time>
      </trkpt>
      <trkpt lat="48.49619" lon="3.10179">
        <ele>110.5</ele>
        <time>2021-04-24T12:13:21Z</time>
      </trkpt>
      <trkpt lat="48.49614" lon="3.10183">
        <ele>110.4</ele>
        <time>2021-04-24T12:13:25Z</time>
      </trkpt>
      <trkpt lat="48.4961" lon="3.10187">
        <ele>110.2</ele>
        <time>2021-04-24T12:13:29Z</time>
      </trkpt>
      <trkpt lat="48.49606" lon="3.10191">
        <ele>110.1</ele>
        <time>2021-04-24T12:13:33Z</time>
      </trkpt>
      <trkpt lat="48.49602" lon="3.10197">
        <ele>110.1</ele>
        <time>2021-04-24T12:13:37Z</time>
      </trkpt>
      <trkpt lat="48.49599" lon="3.10201">
        <ele>110.3</ele>
        <time>2021-04-24T12:13:41Z</time>
      </trkpt>
      <trkpt lat="48.49594" lon="3.10205">
        <ele>110.6</ele>
        <time>2021-04-24T12:13:46Z</time>
      </trkpt>
      <trkpt lat="48.4959" lon="3.10209">
        <ele>110.7</ele>
        <time>2021-04-24T12:13:50Z</time>
      </trkpt>
      <trkpt lat="48.49586" lon="3.10213">
        <ele>110.6</ele>
        <time>2021-04-24T12:13:55Z</time>
      </trkpt>
      <trkpt lat="48.49581" lon="3.10217">
        <ele>109.8</ele>
        <time>2021-04-24T12:14:00Z</time>
      </trkpt>
      <trkpt lat="48.49577" lon="3.10221">
        <ele>109</ele>
        <time>2021-04-24T12:14:05Z</time>
      </trkpt>
      <trkpt lat="48.49572" lon="3.10225">
        <ele>108.2</ele>
        <time>2021-04-24T12:14:11Z</time>
      </trkpt>
      <trkpt lat="48.49568" lon="3.10229">
        <ele>108</ele>
        <time>2021-04-24T12:14:15Z</time>
      </trkpt>
      <trkpt lat="48.49564" lon="3.10232">
        <ele>107.9</ele>
        <time>2021-04-24T12:14:19Z</time>
      </trkpt>
      <trkpt lat="48.4956" lon="3.10235">
        <ele>107.7</ele>
        <time>2021-04-24T12:14:23Z</time>
      </trkpt>
      <trkpt lat="48.49556" lon="3.1024">
        <ele>107.5</ele>
        <time>2021-04-24T12:14:27Z</time>
      </trkpt>
      <trkpt lat="48.49552" lon="3.10244">
        <ele>107.2</ele>
        <time>2021-04-24T12:14:31Z</time>
      </trkpt>
      <trkpt lat="48.49548" lon="3.10249">
        <ele>107</ele>
        <time>2021-04-24T12:14:35Z</time>
      </trkpt>
      <trkpt lat="48.49543" lon="3.10252">
        <ele>106.6</ele>
        <time>2021-04-24T12:14:40Z</time>
      </trkpt>
      <trkpt lat="48.49539" lon="3.10256">
        <ele>106.2</ele>
        <time>2021-04-24T12:14:45Z</time>
      </trkpt>
      <trkpt lat="48.49535" lon="3.10259">
        <ele>105.9</ele>
        <time>2021-04-24T12:14:49Z</time>
      </trkpt>
      <trkpt lat="48.4953" lon="3.10261">
        <ele>105.5</ele>
        <time>2021-04-24T12:14:53Z</time>
      </trkpt>
      <trkpt lat="48.49525" lon="3.10263">
        <ele>105.1</ele>
        <time>2021-04-24T12:14:57Z</time>
      </trkpt>
      <trkpt lat="48.4952" lon="3.10265">
        <ele>104.8</ele>
        <time>2021-04-24T12:15:01Z</time>
      </trkpt>
      <trkpt lat="48.49514" lon="3.10267">
        <ele>104.5</ele>
        <time>2021-04-24T12:15:05Z</time>
      </trkpt>
      <trkpt lat="48.49509" lon="3.10266">
        <ele>104.5</ele>
        <time>2021-04-24T12:15:09Z</time>
      </trkpt>
      <trkpt lat="48.49504" lon="3.10263">
        <ele>105</ele>
        <time>2021-04-24T12:15:14Z</time>
      </trkpt>
      <trkpt lat="48.495" lon="3.10257">
        <ele>105.7</ele>
        <time>2021-04-24T12:15:19Z</time>
      </trkpt>
      <trkpt lat="48.49497" lon="3.10252">
        <ele>106.2</ele>
        <time>2021-04-24T12:15:24Z</time>
      </trkpt>
      <trkpt lat="48.49494" lon="3.10247">
        <ele>106.7</ele>
        <time>2021-04-24T12:15:28Z</time>
      </trkpt>
      <trkpt lat="48.4949" lon="3.10241">
        <ele>107.2</ele>
        <time>2021-04-24T12:15:32Z</time>
      </trkpt>
      <trkpt lat="48.49487" lon="3.10235">
        <ele>107.5</ele>
        <time>2021-04-24T12:15:36Z</time>
      </trkpt>
      <trkpt lat="48.49484" lon="3.10228">
        <ele>107.8</ele>
        <time>2021-04-24T12:15:41Z</time>
      </trkpt>
      <trkpt lat="48.49481" lon="3.10222">
        <ele>108.3</ele>
        <time>2021-04-24T12:15:46Z</time>
      </trkpt>
      <trkpt lat="48.49478" lon="3.10215">
        <ele>109.6</ele>
        <time>2021-04-24T12:15:51Z</time>
      </trkpt>
      <trkpt lat="48.49478" lon="3.10208">
        <ele>110.5</ele>
        <time>2021-04-24T12:15:57Z</time>
      </trkpt>
      <trkpt lat="48.49482" lon="3.10203">
        <ele>111.6</ele>
        <time>2021-04-24T12:16:04Z</time>
      </trkpt>
      <trkpt lat="48.49484" lon="3.10196">
        <ele>112.3</ele>
        <time>2021-04-24T12:16:09Z</time>
      </trkpt>
      <trkpt lat="48.49487" lon="3.1019">
        <ele>112.8</ele>
        <time>2021-04-24T12:16:13Z</time>
      </trkpt>
      <trkpt lat="48.49491" lon="3.10185">
        <ele>113.4</ele>
        <time>2021-04-24T12:16:17Z</time>
      </trkpt>
      <trkpt lat="48.49494" lon="3.10179">
        <ele>113.9</ele>
        <time>2021-04-24T12:16:21Z</time>
      </trkpt>
      <trkpt lat="48.49497" lon="3.10172">
        <ele>114.4</ele>
        <time>2021-04-24T12:16:26Z</time>
      </trkpt>
      <trkpt lat="48.49499" lon="3.10166">
        <ele>114.7</ele>
        <time>2021-04-24T12:16:30Z</time>
      </trkpt>
      <trkpt lat="48.495" lon="3.10158">
        <ele>115.1</ele>
        <time>2021-04-24T12:16:35Z</time>
      </trkpt>
      <trkpt lat="48.495" lon="3.1015">
        <ele>115.4</ele>
        <time>2021-04-24T12:16:40Z</time>
      </trkpt>
      <trkpt lat="48.49501" lon="3.10143">
        <ele>115.7</ele>
        <time>2021-04-24T12:16:44Z</time>
      </trkpt>
      <trkpt lat="48.495" lon="3.10135">
        <ele>115.9</ele>
        <time>2021-04-24T12:16:49Z</time>
      </trkpt>
      <trkpt lat="48.49499" lon="3.10128">
        <ele>116</ele>
        <time>2021-04-24T12:16:54Z</time>
      </trkpt>
      <trkpt lat="48.49498" lon="3.10121">
        <ele>116</ele>
        <time>2021-04-24T12:16:59Z</time>
      </trkpt>
      <trkpt lat="48.49498" lon="3.10113">
        <ele>115.9</ele>
        <time>2021-04-24T12:17:04Z</time>
      </trkpt>
      <trkpt lat="48.49498" lon="3.10106">
        <ele>115.8</ele>
        <time>2021-04-24T12:17:08Z</time>
      </trkpt>
      <trkpt lat="48.49497" lon="3.10098">
        <ele>115.8</ele>
        <time>2021-04-24T12:17:12Z</time>
      </trkpt>
      <trkpt lat="48.49497" lon="3.10091">
        <ele>115.8</ele>
        <time>2021-04-24T12:17:16Z</time>
      </trkpt>
      <trkpt lat="48.49497" lon="3.10082">
        <ele>116.1</ele>
        <time>2021-04-24T12:17:21Z</time>
      </trkpt>
      <trkpt lat="48.49496" lon="3.10076">
        <ele>116.3</ele>
        <time>2021-04-24T12:17:25Z</time>
      </trkpt>
      <trkpt lat="48.49495" lon="3.10069">
        <ele>116.4</ele>
        <time>2021-04-24T12:17:29Z</time>
      </trkpt>
      <trkpt lat="48.49494" lon="3.10062">
        <ele>116.6</ele>
        <time>2021-04-24T12:17:33Z</time>
      </trkpt>
      <trkpt lat="48.49492" lon="3.10054">
        <ele>116.6</ele>
        <time>2021-04-24T12:17:38Z</time>
      </trkpt>
      <trkpt lat="48.49491" lon="3.10047">
        <ele>116.7</ele>
        <time>2021-04-24T12:17:42Z</time>
      </trkpt>
      <trkpt lat="48.4949" lon="3.10041">
        <ele>117</ele>
        <time>2021-04-24T12:17:47Z</time>
      </trkpt>
      <trkpt lat="48.4949" lon="3.10034">
        <ele>117.5</ele>
        <time>2021-04-24T12:17:54Z</time>
      </trkpt>
      <trkpt lat="48.4949" lon="3.10026">
        <ele>117.9</ele>
        <time>2021-04-24T12:18:00Z</time>
      </trkpt>
      <trkpt lat="48.49488" lon="3.10018">
        <ele>118.1</ele>
        <time>2021-04-24T12:18:06Z</time>
      </trkpt>
      <trkpt lat="48.49488" lon="3.10011">
        <ele>118.2</ele>
        <time>2021-04-24T12:18:11Z</time>
      </trkpt>
      <trkpt lat="48.49488" lon="3.10003">
        <ele>118.3</ele>
        <time>2021-04-24T12:18:16Z</time>
      </trkpt>
      <trkpt lat="48.49487" lon="3.09996">
        <ele>118.5</ele>
        <time>2021-04-24T12:18:21Z</time>
      </trkpt>
      <trkpt lat="48.49486" lon="3.09987">
        <ele>118.7</ele>
        <time>2021-04-24T12:18:26Z</time>
      </trkpt>
      <trkpt lat="48.49484" lon="3.0998">
        <ele>118.9</ele>
        <time>2021-04-24T12:18:30Z</time>
      </trkpt>
      <trkpt lat="48.49483" lon="3.09973">
        <ele>118.9</ele>
        <time>2021-04-24T12:18:35Z</time>
      </trkpt>
      <trkpt lat="48.49482" lon="3.09966">
        <ele>119.1</ele>
        <time>2021-04-24T12:18:40Z</time>
      </trkpt>
      <trkpt lat="48.49481" lon="3.09959">
        <ele>119.2</ele>
        <time>2021-04-24T12:18:44Z</time>
      </trkpt>
      <trkpt lat="48.49479" lon="3.09952">
        <ele>119.4</ele>
        <time>2021-04-24T12:18:48Z</time>
      </trkpt>
      <trkpt lat="48.49479" lon="3.09945">
        <ele>119.6</ele>
        <time>2021-04-24T12:18:52Z</time>
      </trkpt>
      <trkpt lat="48.49478" lon="3.09938">
        <ele>119.7</ele>
        <time>2021-04-24T12:18:56Z</time>
      </trkpt>
      <trkpt lat="48.49477" lon="3.09931">
        <ele>119.8</ele>
        <time>2021-04-24T12:19:00Z</time>
      </trkpt>
      <trkpt lat="48.49476" lon="3.09923">
        <ele>120.1</ele>
        <time>2021-04-24T12:19:05Z</time>
      </trkpt>
      <trkpt lat="48.49475" lon="3.09915">
        <ele>120.3</ele>
        <time>2021-04-24T12:19:10Z</time>
      </trkpt>
      <trkpt lat="48.49473" lon="3.09907">
        <ele>120.6</ele>
        <time>2021-04-24T12:19:14Z</time>
      </trkpt>
      <trkpt lat="48.49472" lon="3.099">
        <ele>120.8</ele>
        <time>2021-04-24T12:19:18Z</time>
      </trkpt>
      <trkpt lat="48.4947" lon="3.09893">
        <ele>121.1</ele>
        <time>2021-04-24T12:19:22Z</time>
      </trkpt>
      <trkpt lat="48.49469" lon="3.09885">
        <ele>121.3</ele>
        <time>2021-04-24T12:19:26Z</time>
      </trkpt>
      <trkpt lat="48.49468" lon="3.09878">
        <ele>121.6</ele>
        <time>2021-04-24T12:19:30Z</time>
      </trkpt>
      <trkpt lat="48.49467" lon="3.09871">
        <ele>121.9</ele>
        <time>2021-04-24T12:19:36Z</time>
      </trkpt>
      <trkpt lat="48.49465" lon="3.09864">
        <ele>122.1</ele>
        <time>2021-04-24T12:19:40Z</time>
      </trkpt>
      <trkpt lat="48.49464" lon="3.09856">
        <ele>122.2</ele>
        <time>2021-04-24T12:19:44Z</time>
      </trkpt>
      <trkpt lat="48.49464" lon="3.09848">
        <ele>122.2</ele>
        <time>2021-04-24T12:19:48Z</time>
      </trkpt>
      <trkpt lat="48.49464" lon="3.0984">
        <ele>122.4</ele>
        <time>2021-04-24T12:19:53Z</time>
      </trkpt>
      <trkpt lat="48.49462" lon="3.09833">
        <ele>122.5</ele>
        <time>2021-04-24T12:19:57Z</time>
      </trkpt>
      <trkpt lat="48.4946" lon="3.09825">
        <ele>122.5</ele>
        <time>2021-04-24T12:20:00Z</time>
      </trkpt>
      <trkpt lat="48.49459" lon="3.09818">
        <ele>122.4</ele>
        <time>2021-04-24T12:20:04Z</time>
      </trkpt>
      <trkpt lat="48.49457" lon="3.09812">
        <ele>122.4</ele>
        <time>2021-04-24T12:20:09Z</time>
      </trkpt>
      <trkpt lat="48.49455" lon="3.09805">
        <ele>122.6</ele>
        <time>2021-04-24T12:20:14Z</time>
      </trkpt>
      <trkpt lat="48.49454" lon="3.09798">
        <ele>122.8</ele>
        <time>2021-04-24T12:20:18Z</time>
      </trkpt>
      <trkpt lat="48.49454" lon="3.09791">
        <ele>123</ele>
        <time>2021-04-24T12:20:22Z</time>
      </trkpt>
      <trkpt lat="48.49453" lon="3.09784">
        <ele>123.2</ele>
        <time>2021-04-24T12:20:27Z</time>
      </trkpt>
      <trkpt lat="48.49453" lon="3.09776">
        <ele>123.2</ele>
        <time>2021-04-24T12:20:32Z</time>
      </trkpt>
      <trkpt lat="48.49452" lon="3.09768">
        <ele>123.2</ele>
        <time>2021-04-24T12:20:36Z</time>
      </trkpt>
      <trkpt lat="48.49449" lon="3.0976">
        <ele>123</ele>
        <time>2021-04-24T12:20:41Z</time>
      </trkpt>
      <trkpt lat="48.49448" lon="3.09752">
        <ele>122.8</ele>
        <time>2021-04-24T12:20:46Z</time>
      </trkpt>
      <trkpt lat="48.49447" lon="3.09745">
        <ele>122.7</ele>
        <time>2021-04-24T12:20:51Z</time>
      </trkpt>
      <trkpt lat="48.49445" lon="3.09737">
        <ele>122.6</ele>
        <time>2021-04-24T12:20:56Z</time>
      </trkpt>
      <trkpt lat="48.49444" lon="3.0973">
        <ele>122.5</ele>
        <time>2021-04-24T12:21:00Z</time>
      </trkpt>
      <trkpt lat="48.49443" lon="3.09722">
        <ele>122.5</ele>
        <time>2021-04-24T12:21:04Z</time>
      </trkpt>
      <trkpt lat="48.49443" lon="3.09715">
        <ele>122.5</ele>
        <time>2021-04-24T12:21:08Z</time>
      </trkpt>
      <trkpt lat="48.49443" lon="3.09708">
        <ele>122.5</ele>
        <time>2021-04-24T12:21:13Z</time>
      </trkpt>
      <trkpt lat="48.49444" lon="3.097">
        <ele>122.8</ele>
        <time>2021-04-24T12:21:18Z</time>
      </trkpt>
      <trkpt lat="48.49444" lon="3.09693">
        <ele>123</ele>
        <time>2021-04-24T12:21:23Z</time>
      </trkpt>
      <trkpt lat="48.49444" lon="3.09684">
        <ele>123.1</ele>
        <time>2021-04-24T12:21:28Z</time>
      </trkpt>
      <trkpt lat="48.49444" lon="3.09676">
        <ele>123</ele>
        <time>2021-04-24T12:21:32Z</time>
      </trkpt>
      <trkpt lat="48.49443" lon="3.0967">
        <ele>122.8</ele>
        <time>2021-04-24T12:21:36Z</time>
      </trkpt>
      <trkpt lat="48.49443" lon="3.09663">
        <ele>122.6</ele>
        <time>2021-04-24T12:21:40Z</time>
      </trkpt>
      <trkpt lat="48.49443" lon="3.09656">
        <ele>122.4</ele>
        <time>2021-04-24T12:21:44Z</time>
      </trkpt>
      <trkpt lat="48.49444" lon="3.09649">
        <ele>122.3</ele>
        <time>2021-04-24T12:21:48Z</time>
      </trkpt>
      <trkpt lat="48.49445" lon="3.09641">
        <ele>122.1</ele>
        <time>2021-04-24T12:21:53Z</time>
      </trkpt>
      <trkpt lat="48.49447" lon="3.09634">
        <ele>121.8</ele>
        <time>2021-04-24T12:21:58Z</time>
      </trkpt>
      <trkpt lat="48.49448" lon="3.09627">
        <ele>121.7</ele>
        <time>2021-04-24T12:22:03Z</time>
      </trkpt>
      <trkpt lat="48.49448" lon="3.0962">
        <ele>121.6</ele>
        <time>2021-04-24T12:22:07Z</time>
      </trkpt>
      <trkpt lat="48.49448" lon="3.09611">
        <ele>121.5</ele>
        <time>2021-04-24T12:22:11Z</time>
      </trkpt>
      <trkpt lat="48.49448" lon="3.09604">
        <ele>121.5</ele>
        <time>2021-04-24T12:22:14Z</time>
      </trkpt>
      <trkpt lat="48.49449" lon="3.09596">
        <ele>121.8</ele>
        <time>2021-04-24T12:22:17Z</time>
      </trkpt>
      <trkpt lat="48.49449" lon="3.09588">
        <ele>122.1</ele>
        <time>2021-04-24T12:22:20Z</time>
      </trkpt>
      <trkpt lat="48.4945" lon="3.09581">
        <ele>122.6</ele>
        <time>2021-04-24T12:22:23Z</time>
      </trkpt>
      <trkpt lat="48.49451" lon="3.09574">
        <ele>123.2</ele>
        <time>2021-04-24T12:22:26Z</time>
      </trkpt>
      <trkpt lat="48.49452" lon="3.09565">
        <ele>124.3</ele>
        <time>2021-04-24T12:22:30Z</time>
      </trkpt>
      <trkpt lat="48.49454" lon="3.09558">
        <ele>125.7</ele>
        <time>2021-04-24T12:22:34Z</time>
      </trkpt>
      <trkpt lat="48.49455" lon="3.09551">
        <ele>126.8</ele>
        <time>2021-04-24T12:22:38Z</time>
      </trkpt>
      <trkpt lat="48.49456" lon="3.09544">
        <ele>127.7</ele>
        <time>2021-04-24T12:22:41Z</time>
      </trkpt>
      <trkpt lat="48.49457" lon="3.09536">
        <ele>128.6</ele>
        <time>2021-04-24T12:22:45Z</time>
      </trkpt>
      <trkpt lat="48.4946" lon="3.09529">
        <ele>129.5</ele>
        <time>2021-04-24T12:22:50Z</time>
      </trkpt>
      <trkpt lat="48.49462" lon="3.09523">
        <ele>130.5</ele>
        <time>2021-04-24T12:22:54Z</time>
      </trkpt>
      <trkpt lat="48.49466" lon="3.09517">
        <ele>131.3</ele>
        <time>2021-04-24T12:22:58Z</time>
      </trkpt>
      <trkpt lat="48.49467" lon="3.0951">
        <ele>132.2</ele>
        <time>2021-04-24T12:23:03Z</time>
      </trkpt>
      <trkpt lat="48.49468" lon="3.09503">
        <ele>132.4</ele>
        <time>2021-04-24T12:23:08Z</time>
      </trkpt>
      <trkpt lat="48.49469" lon="3.09495">
        <ele>132.5</ele>
        <time>2021-04-24T12:23:13Z</time>
      </trkpt>
      <trkpt lat="48.49471" lon="3.09488">
        <ele>132.5</ele>
        <time>2021-04-24T12:23:18Z</time>
      </trkpt>
      <trkpt lat="48.49471" lon="3.09481">
        <ele>132.8</ele>
        <time>2021-04-24T12:23:23Z</time>
      </trkpt>
      <trkpt lat="48.4947" lon="3.09473">
        <ele>133.2</ele>
        <time>2021-04-24T12:23:30Z</time>
      </trkpt>
      <trkpt lat="48.4947" lon="3.09466">
        <ele>133.2</ele>
        <time>2021-04-24T12:23:35Z</time>
      </trkpt>
      <trkpt lat="48.49471" lon="3.09458">
        <ele>133.2</ele>
        <time>2021-04-24T12:23:40Z</time>
      </trkpt>
      <trkpt lat="48.49471" lon="3.09449">
        <ele>133.2</ele>
        <time>2021-04-24T12:23:44Z</time>
      </trkpt>
      <trkpt lat="48.49471" lon="3.0944">
        <ele>133.2</ele>
        <time>2021-04-24T12:23:48Z</time>
      </trkpt>
      <trkpt lat="48.49471" lon="3.09432">
        <ele>133.2</ele>
        <time>2021-04-24T12:23:52Z</time>
      </trkpt>
      <trkpt lat="48.4947" lon="3.09424">
        <ele>133.3</ele>
        <time>2021-04-24T12:23:56Z</time>
      </trkpt>
      <trkpt lat="48.49469" lon="3.09415">
        <ele>133.3</ele>
        <time>2021-04-24T12:24:00Z</time>
      </trkpt>
      <trkpt lat="48.49469" lon="3.09407">
        <ele>133.1</ele>
        <time>2021-04-24T12:24:04Z</time>
      </trkpt>
      <trkpt lat="48.4947" lon="3.094">
        <ele>132.7</ele>
        <time>2021-04-24T12:24:09Z</time>
      </trkpt>
      <trkpt lat="48.49471" lon="3.09392">
        <ele>132.3</ele>
        <time>2021-04-24T12:24:14Z</time>
      </trkpt>
      <trkpt lat="48.4947" lon="3.09385">
        <ele>132</ele>
        <time>2021-04-24T12:24:18Z</time>
      </trkpt>
      <trkpt lat="48.49469" lon="3.09378">
        <ele>131.6</ele>
        <time>2021-04-24T12:24:22Z</time>
      </trkpt>
      <trkpt lat="48.49468" lon="3.0937">
        <ele>131</ele>
        <time>2021-04-24T12:24:27Z</time>
      </trkpt>
      <trkpt lat="48.49468" lon="3.09364">
        <ele>130.4</ele>
        <time>2021-04-24T12:24:32Z</time>
      </trkpt>
      <trkpt lat="48.49468" lon="3.09356">
        <ele>129.9</ele>
        <time>2021-04-24T12:24:36Z</time>
      </trkpt>
      <trkpt lat="48.49468" lon="3.09348">
        <ele>129.3</ele>
        <time>2021-04-24T12:24:40Z</time>
      </trkpt>
      <trkpt lat="48.49468" lon="3.09341">
        <ele>128.8</ele>
        <time>2021-04-24T12:24:44Z</time>
      </trkpt>
      <trkpt lat="48.49469" lon="3.09333">
        <ele>128.8</ele>
        <time>2021-04-24T12:24:49Z</time>
      </trkpt>
      <trkpt lat="48.49469" lon="3.09326">
        <ele>129</ele>
        <time>2021-04-24T12:24:53Z</time>
      </trkpt>
      <trkpt lat="48.49468" lon="3.09319">
        <ele>129.1</ele>
        <time>2021-04-24T12:24:57Z</time>
      </trkpt>
      <trkpt lat="48.49466" lon="3.09312">
        <ele>129.1</ele>
        <time>2021-04-24T12:25:00Z</time>
      </trkpt>
      <trkpt lat="48.49462" lon="3.09307">
        <ele>129.3</ele>
        <time>2021-04-24T12:25:05Z</time>
      </trkpt>
      <trkpt lat="48.49456" lon="3.09308">
        <ele>129.3</ele>
        <time>2021-04-24T12:25:10Z</time>
      </trkpt>
      <trkpt lat="48.49452" lon="3.0931">
        <ele>129.2</ele>
        <time>2021-04-24T12:25:14Z</time>
      </trkpt>
      <trkpt lat="48.49447" lon="3.09313">
        <ele>129</ele>
        <time>2021-04-24T12:25:18Z</time>
      </trkpt>
      <trkpt lat="48.49443" lon="3.09314">
        <ele>128.6</ele>
        <time>2021-04-24T12:25:22Z</time>
      </trkpt>
      <trkpt lat="48.49438" lon="3.09316">
        <ele>128.1</ele>
        <time>2021-04-24T12:25:26Z</time>
      </trkpt>
      <trkpt lat="48.49433" lon="3.09317">
        <ele>127.6</ele>
        <time>2021-04-24T12:25:30Z</time>
      </trkpt>
      <trkpt lat="48.49428" lon="3.0932">
        <ele>127</ele>
        <time>2021-04-24T12:25:35Z</time>
      </trkpt>
      <trkpt lat="48.49424" lon="3.09324">
        <ele>126.3</ele>
        <time>2021-04-24T12:25:40Z</time>
      </trkpt>
      <trkpt lat="48.49419" lon="3.09325">
        <ele>125.5</ele>
        <time>2021-04-24T12:25:45Z</time>
      </trkpt>
      <trkpt lat="48.49414" lon="3.09328">
        <ele>124.6</ele>
        <time>2021-04-24T12:25:49Z</time>
      </trkpt>
      <trkpt lat="48.49409" lon="3.09332">
        <ele>123.6</ele>
        <time>2021-04-24T12:25:54Z</time>
      </trkpt>
      <trkpt lat="48.49405" lon="3.09334">
        <ele>123</ele>
        <time>2021-04-24T12:25:58Z</time>
      </trkpt>
      <trkpt lat="48.494" lon="3.09338">
        <ele>122.6</ele>
        <time>2021-04-24T12:26:02Z</time>
      </trkpt>
      <trkpt lat="48.49396" lon="3.0934">
        <ele>122.3</ele>
        <time>2021-04-24T12:26:06Z</time>
      </trkpt>
      <trkpt lat="48.49392" lon="3.09342">
        <ele>121.9</ele>
        <time>2021-04-24T12:26:10Z</time>
      </trkpt>
      <trkpt lat="48.49386" lon="3.09344">
        <ele>121.3</ele>
        <time>2021-04-24T12:26:15Z</time>
      </trkpt>
      <trkpt lat="48.49381" lon="3.09347">
        <ele>120.9</ele>
        <time>2021-04-24T12:26:19Z</time>
      </trkpt>
      <trkpt lat="48.49376" lon="3.0935">
        <ele>120.3</ele>
        <time>2021-04-24T12:26:24Z</time>
      </trkpt>
      <trkpt lat="48.49371" lon="3.09353">
        <ele>120</ele>
        <time>2021-04-24T12:26:28Z</time>
      </trkpt>
      <trkpt lat="48.49366" lon="3.09354">
        <ele>119.6</ele>
        <time>2021-04-24T12:26:32Z</time>
      </trkpt>
      <trkpt lat="48.49362" lon="3.09357">
        <ele>119.3</ele>
        <time>2021-04-24T12:26:36Z</time>
      </trkpt>
      <trkpt lat="48.49358" lon="3.09361">
        <ele>118.8</ele>
        <time>2021-04-24T12:26:40Z</time>
      </trkpt>
      <trkpt lat="48.49354" lon="3.09365">
        <ele>118.5</ele>
        <time>2021-04-24T12:26:44Z</time>
      </trkpt>
      <trkpt lat="48.49349" lon="3.09368">
        <ele>118.2</ele>
        <time>2021-04-24T12:26:48Z</time>
      </trkpt>
      <trkpt lat="48.49344" lon="3.09371">
        <ele>118</ele>
        <time>2021-04-24T12:26:53Z</time>
      </trkpt>
      <trkpt lat="48.49339" lon="3.09374">
        <ele>118</ele>
        <time>2021-04-24T12:26:58Z</time>
      </trkpt>
      <trkpt lat="48.49335" lon="3.09377">
        <ele>118</ele>
        <time>2021-04-24T12:27:03Z</time>
      </trkpt>
      <trkpt lat="48.49331" lon="3.09381">
        <ele>117.9</ele>
        <time>2021-04-24T12:27:08Z</time>
      </trkpt>
      <trkpt lat="48.49326" lon="3.09384">
        <ele>117.8</ele>
        <time>2021-04-24T12:27:12Z</time>
      </trkpt>
      <trkpt lat="48.49323" lon="3.09388">
        <ele>117.6</ele>
        <time>2021-04-24T12:27:16Z</time>
      </trkpt>
      <trkpt lat="48.49318" lon="3.09393">
        <ele>117.4</ele>
        <time>2021-04-24T12:27:20Z</time>
      </trkpt>
      <trkpt lat="48.49313" lon="3.09397">
        <ele>117.3</ele>
        <time>2021-04-24T12:27:24Z</time>
      </trkpt>
      <trkpt lat="48.49309" lon="3.09402">
        <ele>117.3</ele>
        <time>2021-04-24T12:27:28Z</time>
      </trkpt>
      <trkpt lat="48.49306" lon="3.09407">
        <ele>117.1</ele>
        <time>2021-04-24T12:27:32Z</time>
      </trkpt>
      <trkpt lat="48.49302" lon="3.09412">
        <ele>117</ele>
        <time>2021-04-24T12:27:36Z</time>
      </trkpt>
      <trkpt lat="48.49298" lon="3.09417">
        <ele>117.1</ele>
        <time>2021-04-24T12:27:40Z</time>
      </trkpt>
      <trkpt lat="48.49294" lon="3.09424">
        <ele>117.2</ele>
        <time>2021-04-24T12:27:44Z</time>
      </trkpt>
      <trkpt lat="48.49291" lon="3.0943">
        <ele>117.3</ele>
        <time>2021-04-24T12:27:48Z</time>
      </trkpt>
      <trkpt lat="48.49287" lon="3.09436">
        <ele>117.4</ele>
        <time>2021-04-24T12:27:52Z</time>
      </trkpt>
      <trkpt lat="48.49284" lon="3.09442">
        <ele>117.4</ele>
        <time>2021-04-24T12:27:56Z</time>
      </trkpt>
      <trkpt lat="48.49281" lon="3.09448">
        <ele>117.3</ele>
        <time>2021-04-24T12:28:01Z</time>
      </trkpt>
      <trkpt lat="48.49276" lon="3.09453">
        <ele>117.4</ele>
        <time>2021-04-24T12:28:06Z</time>
      </trkpt>
      <trkpt lat="48.49273" lon="3.0946">
        <ele>117.3</ele>
        <time>2021-04-24T12:28:11Z</time>
      </trkpt>
      <trkpt lat="48.4927" lon="3.09465">
        <ele>117.2</ele>
        <time>2021-04-24T12:28:16Z</time>
      </trkpt>
      <trkpt lat="48.49267" lon="3.09471">
        <ele>117.2</ele>
        <time>2021-04-24T12:28:20Z</time>
      </trkpt>
      <trkpt lat="48.49263" lon="3.09476">
        <ele>117.3</ele>
        <time>2021-04-24T12:28:24Z</time>
      </trkpt>
      <trkpt lat="48.49259" lon="3.09481">
        <ele>117.5</ele>
        <time>2021-04-24T12:28:28Z</time>
      </trkpt>
      <trkpt lat="48.49255" lon="3.09487">
        <ele>117.4</ele>
        <time>2021-04-24T12:28:32Z</time>
      </trkpt>
      <trkpt lat="48.49252" lon="3.09494">
        <ele>117.2</ele>
        <time>2021-04-24T12:28:36Z</time>
      </trkpt>
      <trkpt lat="48.49249" lon="3.09501">
        <ele>117.1</ele>
        <time>2021-04-24T12:28:41Z</time>
      </trkpt>
      <trkpt lat="48.49245" lon="3.09506">
        <ele>117.1</ele>
        <time>2021-04-24T12:28:45Z</time>
      </trkpt>
      <trkpt lat="48.49242" lon="3.09512">
        <ele>117.1</ele>
        <time>2021-04-24T12:28:49Z</time>
      </trkpt>
      <trkpt lat="48.49238" lon="3.09518">
        <ele>117.1</ele>
        <time>2021-04-24T12:28:54Z</time>
      </trkpt>
      <trkpt lat="48.49234" lon="3.09524">
        <ele>117.3</ele>
        <time>2021-04-24T12:28:59Z</time>
      </trkpt>
      <trkpt lat="48.49228" lon="3.09525">
        <ele>117.9</ele>
        <time>2021-04-24T12:29:05Z</time>
      </trkpt>
      <trkpt lat="48.49224" lon="3.09525">
        <ele>118.5</ele>
        <time>2021-04-24T12:29:09Z</time>
      </trkpt>
      <trkpt lat="48.49219" lon="3.09526">
        <ele>119.1</ele>
        <time>2021-04-24T12:29:13Z</time>
      </trkpt>
      <trkpt lat="48.49214" lon="3.09524">
        <ele>119.6</ele>
        <time>2021-04-24T12:29:17Z</time>
      </trkpt>
      <trkpt lat="48.49209" lon="3.09523">
        <ele>119.9</ele>
        <time>2021-04-24T12:29:22Z</time>
      </trkpt>
      <trkpt lat="48.49204" lon="3.09522">
        <ele>120.2</ele>
        <time>2021-04-24T12:29:26Z</time>
      </trkpt>
      <trkpt lat="48.49199" lon="3.0952">
        <ele>120</ele>
        <time>2021-04-24T12:29:31Z</time>
      </trkpt>
      <trkpt lat="48.49193" lon="3.09518">
        <ele>119.4</ele>
        <time>2021-04-24T12:29:36Z</time>
      </trkpt>
      <trkpt lat="48.49188" lon="3.09517">
        <ele>119</ele>
        <time>2021-04-24T12:29:40Z</time>
      </trkpt>
      <trkpt lat="48.49184" lon="3.09517">
        <ele>118.6</ele>
        <time>2021-04-24T12:29:44Z</time>
      </trkpt>
      <trkpt lat="48.49179" lon="3.09517">
        <ele>117.8</ele>
        <time>2021-04-24T12:29:49Z</time>
      </trkpt>
      <trkpt lat="48.49173" lon="3.09517">
        <ele>116.8</ele>
        <time>2021-04-24T12:29:54Z</time>
      </trkpt>
      <trkpt lat="48.49168" lon="3.09516">
        <ele>116.7</ele>
        <time>2021-04-24T12:29:58Z</time>
      </trkpt>
      <trkpt lat="48.49164" lon="3.09516">
        <ele>116.7</ele>
        <time>2021-04-24T12:30:02Z</time>
      </trkpt>
      <trkpt lat="48.49158" lon="3.09514">
        <ele>116.8</ele>
        <time>2021-04-24T12:30:06Z</time>
      </trkpt>
      <trkpt lat="48.49154" lon="3.09511">
        <ele>116.9</ele>
        <time>2021-04-24T12:30:10Z</time>
      </trkpt>
      <trkpt lat="48.49149" lon="3.0951">
        <ele>117.2</ele>
        <time>2021-04-24T12:30:14Z</time>
      </trkpt>
      <trkpt lat="48.49144" lon="3.09508">
        <ele>117.4</ele>
        <time>2021-04-24T12:30:19Z</time>
      </trkpt>
      <trkpt lat="48.49139" lon="3.09506">
        <ele>117.5</ele>
        <time>2021-04-24T12:30:23Z</time>
      </trkpt>
      <trkpt lat="48.49134" lon="3.09505">
        <ele>118</ele>
        <time>2021-04-24T12:30:27Z</time>
      </trkpt>
      <trkpt lat="48.49129" lon="3.09503">
        <ele>118.4</ele>
        <time>2021-04-24T12:30:31Z</time>
      </trkpt>
      <trkpt lat="48.49124" lon="3.09503">
        <ele>118.8</ele>
        <time>2021-04-24T12:30:35Z</time>
      </trkpt>
      <trkpt lat="48.49119" lon="3.09501">
        <ele>119.3</ele>
        <time>2021-04-24T12:30:39Z</time>
      </trkpt>
      <trkpt lat="48.49114" lon="3.095">
        <ele>120</ele>
        <time>2021-04-24T12:30:43Z</time>
      </trkpt>
      <trkpt lat="48.49109" lon="3.095">
        <ele>120.6</ele>
        <time>2021-04-24T12:30:48Z</time>
      </trkpt>
      <trkpt lat="48.49104" lon="3.09501">
        <ele>120.8</ele>
        <time>2021-04-24T12:30:53Z</time>
      </trkpt>
      <trkpt lat="48.491" lon="3.09503">
        <ele>123.5</ele>
        <time>2021-04-24T12:31:13Z</time>
      </trkpt>
      <trkpt lat="48.49095" lon="3.09502">
        <ele>123.7</ele>
        <time>2021-04-24T12:31:20Z</time>
      </trkpt>
      <trkpt lat="48.4909" lon="3.095">
        <ele>122.2</ele>
        <time>2021-04-24T12:31:34Z</time>
      </trkpt>
      <trkpt lat="48.49086" lon="3.09498">
        <ele>122</ele>
        <time>2021-04-24T12:31:38Z</time>
      </trkpt>
      <trkpt lat="48.4908" lon="3.09497">
        <ele>121.8</ele>
        <time>2021-04-24T12:31:43Z</time>
      </trkpt>
      <trkpt lat="48.49075" lon="3.09497">
        <ele>121.7</ele>
        <time>2021-04-24T12:31:47Z</time>
      </trkpt>
      <trkpt lat="48.4907" lon="3.09496">
        <ele>121.5</ele>
        <time>2021-04-24T12:31:50Z</time>
      </trkpt>
      <trkpt lat="48.49066" lon="3.09495">
        <ele>121.4</ele>
        <time>2021-04-24T12:31:54Z</time>
      </trkpt>
      <trkpt lat="48.49061" lon="3.09495">
        <ele>121.6</ele>
        <time>2021-04-24T12:31:59Z</time>
      </trkpt>
      <trkpt lat="48.49056" lon="3.09492">
        <ele>122.1</ele>
        <time>2021-04-24T12:32:04Z</time>
      </trkpt>
      <trkpt lat="48.49051" lon="3.0949">
        <ele>122.6</ele>
        <time>2021-04-24T12:32:08Z</time>
      </trkpt>
      <trkpt lat="48.49047" lon="3.09489">
        <ele>123</ele>
        <time>2021-04-24T12:32:12Z</time>
      </trkpt>
      <trkpt lat="48.49042" lon="3.09488">
        <ele>123.6</ele>
        <time>2021-04-24T12:32:18Z</time>
      </trkpt>
      <trkpt lat="48.49037" lon="3.09488">
        <ele>125.5</ele>
        <time>2021-04-24T12:32:33Z</time>
      </trkpt>
      <trkpt lat="48.49032" lon="3.09488">
        <ele>126.4</ele>
        <time>2021-04-24T12:32:37Z</time>
      </trkpt>
      <trkpt lat="48.49027" lon="3.09488">
        <ele>127.3</ele>
        <time>2021-04-24T12:32:41Z</time>
      </trkpt>
      <trkpt lat="48.49022" lon="3.09488">
        <ele>128</ele>
        <time>2021-04-24T12:32:45Z</time>
      </trkpt>
      <trkpt lat="48.49017" lon="3.09487">
        <ele>128.6</ele>
        <time>2021-04-24T12:32:49Z</time>
      </trkpt>
      <trkpt lat="48.49012" lon="3.09487">
        <ele>129.8</ele>
        <time>2021-04-24T12:32:55Z</time>
      </trkpt>
      <trkpt lat="48.49007" lon="3.09486">
        <ele>130.2</ele>
        <time>2021-04-24T12:33:00Z</time>
      </trkpt>
      <trkpt lat="48.49001" lon="3.09484">
        <ele>130.6</ele>
        <time>2021-04-24T12:33:05Z</time>
      </trkpt>
      <trkpt lat="48.48997" lon="3.09484">
        <ele>131.2</ele>
        <time>2021-04-24T12:33:10Z</time>
      </trkpt>
      <trkpt lat="48.48992" lon="3.09483">
        <ele>131.7</ele>
        <time>2021-04-24T12:33:14Z</time>
      </trkpt>
      <trkpt lat="48.48988" lon="3.09479">
        <ele>132</ele>
        <time>2021-04-24T12:33:18Z</time>
      </trkpt>
      <trkpt lat="48.48986" lon="3.09472">
        <ele>133</ele>
        <time>2021-04-24T12:33:37Z</time>
      </trkpt>
      <trkpt lat="48.48984" lon="3.09466">
        <ele>131.8</ele>
        <time>2021-04-24T12:35:15Z</time>
      </trkpt>
      <trkpt lat="48.48984" lon="3.09458">
        <ele>131.7</ele>
        <time>2021-04-24T12:35:22Z</time>
      </trkpt>
      <trkpt lat="48.48984" lon="3.09451">
        <ele>131.7</ele>
        <time>2021-04-24T12:35:27Z</time>
      </trkpt>
      <trkpt lat="48.48984" lon="3.09443">
        <ele>131.6</ele>
        <time>2021-04-24T12:35:33Z</time>
      </trkpt>
      <trkpt lat="48.4898" lon="3.09439">
        <ele>130.9</ele>
        <time>2021-04-24T12:36:05Z</time>
      </trkpt>
      <trkpt lat="48.48979" lon="3.09431">
        <ele>130.8</ele>
        <time>2021-04-24T12:36:12Z</time>
      </trkpt>
      <trkpt lat="48.48977" lon="3.09424">
        <ele>130.7</ele>
        <time>2021-04-24T12:36:18Z</time>
      </trkpt>
      <trkpt lat="48.48975" lon="3.09417">
        <ele>129.4</ele>
        <time>2021-04-24T12:36:52Z</time>
      </trkpt>
      <trkpt lat="48.48975" lon="3.0941">
        <ele>129.2</ele>
        <time>2021-04-24T12:36:56Z</time>
      </trkpt>
      <trkpt lat="48.48974" lon="3.09402">
        <ele>129.1</ele>
        <time>2021-04-24T12:37:01Z</time>
      </trkpt>
      <trkpt lat="48.48974" lon="3.09395">
        <ele>129</ele>
        <time>2021-04-24T12:37:06Z</time>
      </trkpt>
      <trkpt lat="48.48973" lon="3.09388">
        <ele>128.9</ele>
        <time>2021-04-24T12:37:14Z</time>
      </trkpt>
      <trkpt lat="48.48974" lon="3.09381">
        <ele>128.8</ele>
        <time>2021-04-24T12:37:19Z</time>
      </trkpt>
      <trkpt lat="48.48973" lon="3.09373">
        <ele>128.7</ele>
        <time>2021-04-24T12:37:24Z</time>
      </trkpt>
      <trkpt lat="48.48972" lon="3.09366">
        <ele>128.5</ele>
        <time>2021-04-24T12:37:29Z</time>
      </trkpt>
      <trkpt lat="48.4897" lon="3.09359">
        <ele>128.3</ele>
        <time>2021-04-24T12:37:33Z</time>
      </trkpt>
      <trkpt lat="48.48969" lon="3.09352">
        <ele>128.2</ele>
        <time>2021-04-24T12:37:38Z</time>
      </trkpt>
      <trkpt lat="48.48967" lon="3.09346">
        <ele>128.1</ele>
        <time>2021-04-24T12:37:42Z</time>
      </trkpt>
      <trkpt lat="48.48962" lon="3.09343">
        <ele>128.2</ele>
        <time>2021-04-24T12:37:47Z</time>
      </trkpt>
      <trkpt lat="48.48958" lon="3.09339">
        <ele>128.4</ele>
        <time>2021-04-24T12:37:57Z</time>
      </trkpt>
      <trkpt lat="48.48954" lon="3.09333">
        <ele>128.5</ele>
        <time>2021-04-24T12:38:03Z</time>
      </trkpt>
      <trkpt lat="48.4895" lon="3.09332">
        <ele>128.6</ele>
        <time>2021-04-24T12:38:08Z</time>
      </trkpt>
      <trkpt lat="48.48945" lon="3.09331">
        <ele>128.7</ele>
        <time>2021-04-24T12:38:12Z</time>
      </trkpt>
      <trkpt lat="48.48941" lon="3.09329">
        <ele>129</ele>
        <time>2021-04-24T12:38:16Z</time>
      </trkpt>
      <trkpt lat="48.48936" lon="3.09327">
        <ele>129.3</ele>
        <time>2021-04-24T12:38:20Z</time>
      </trkpt>
      <trkpt lat="48.48931" lon="3.09325">
        <ele>129.6</ele>
        <time>2021-04-24T12:38:25Z</time>
      </trkpt>
      <trkpt lat="48.48926" lon="3.09324">
        <ele>129.8</ele>
        <time>2021-04-24T12:38:29Z</time>
      </trkpt>
      <trkpt lat="48.4892" lon="3.09324">
        <ele>130</ele>
        <time>2021-04-24T12:38:34Z</time>
      </trkpt>
      <trkpt lat="48.48915" lon="3.09323">
        <ele>130.2</ele>
        <time>2021-04-24T12:38:39Z</time>
      </trkpt>
      <trkpt lat="48.48911" lon="3.09322">
        <ele>130.4</ele>
        <time>2021-04-24T12:38:43Z</time>
      </trkpt>
      <trkpt lat="48.48906" lon="3.09319">
        <ele>130.8</ele>
        <time>2021-04-24T12:38:48Z</time>
      </trkpt>
      <trkpt lat="48.48901" lon="3.09319">
        <ele>131.2</ele>
        <time>2021-04-24T12:38:52Z</time>
      </trkpt>
      <trkpt lat="48.48896" lon="3.09321">
        <ele>131.7</ele>
        <time>2021-04-24T12:38:58Z</time>
      </trkpt>
      <trkpt lat="48.48892" lon="3.09322">
        <ele>132</ele>
        <time>2021-04-24T12:39:03Z</time>
      </trkpt>
      <trkpt lat="48.48886" lon="3.09319">
        <ele>132.1</ele>
        <time>2021-04-24T12:39:07Z</time>
      </trkpt>
      <trkpt lat="48.4888" lon="3.09316">
        <ele>132.1</ele>
        <time>2021-04-24T12:39:10Z</time>
      </trkpt>
      <trkpt lat="48.48875" lon="3.09313">
        <ele>131.9</ele>
        <time>2021-04-24T12:39:13Z</time>
      </trkpt>
      <trkpt lat="48.48871" lon="3.09309">
        <ele>131.8</ele>
        <time>2021-04-24T12:39:17Z</time>
      </trkpt>
      <trkpt lat="48.48866" lon="3.09307">
        <ele>131.6</ele>
        <time>2021-04-24T12:39:21Z</time>
      </trkpt>
      <trkpt lat="48.48861" lon="3.09305">
        <ele>131.3</ele>
        <time>2021-04-24T12:39:26Z</time>
      </trkpt>
      <trkpt lat="48.48856" lon="3.09303">
        <ele>131.1</ele>
        <time>2021-04-24T12:39:31Z</time>
      </trkpt>
      <trkpt lat="48.48851" lon="3.093">
        <ele>131.2</ele>
        <time>2021-04-24T12:39:37Z</time>
      </trkpt>
      <trkpt lat="48.48846" lon="3.09296">
        <ele>132</ele>
        <time>2021-04-24T12:39:43Z</time>
      </trkpt>
      <trkpt lat="48.48841" lon="3.09292">
        <ele>133.1</ele>
        <time>2021-04-24T12:39:49Z</time>
      </trkpt>
      <trkpt lat="48.48838" lon="3.09287">
        <ele>133.6</ele>
        <time>2021-04-24T12:39:54Z</time>
      </trkpt>
      <trkpt lat="48.48836" lon="3.0928">
        <ele>133.7</ele>
        <time>2021-04-24T12:39:59Z</time>
      </trkpt>
      <trkpt lat="48.48835" lon="3.09273">
        <ele>133.6</ele>
        <time>2021-04-24T12:40:04Z</time>
      </trkpt>
      <trkpt lat="48.48835" lon="3.09265">
        <ele>133.7</ele>
        <time>2021-04-24T12:40:08Z</time>
      </trkpt>
      <trkpt lat="48.48835" lon="3.09258">
        <ele>133.8</ele>
        <time>2021-04-24T12:40:12Z</time>
      </trkpt>
      <trkpt lat="48.48834" lon="3.09251">
        <ele>134</ele>
        <time>2021-04-24T12:40:16Z</time>
      </trkpt>
      <trkpt lat="48.48834" lon="3.09244">
        <ele>134.2</ele>
        <time>2021-04-24T12:40:21Z</time>
      </trkpt>
      <trkpt lat="48.48835" lon="3.09236">
        <ele>133.9</ele>
        <time>2021-04-24T12:40:26Z</time>
      </trkpt>
      <trkpt lat="48.48836" lon="3.09229">
        <ele>133.7</ele>
        <time>2021-04-24T12:40:31Z</time>
      </trkpt>
      <trkpt lat="48.48836" lon="3.09222">
        <ele>133.5</ele>
        <time>2021-04-24T12:40:35Z</time>
      </trkpt>
      <trkpt lat="48.48835" lon="3.09215">
        <ele>133.2</ele>
        <time>2021-04-24T12:40:39Z</time>
      </trkpt>
      <trkpt lat="48.48834" lon="3.09208">
        <ele>133</ele>
        <time>2021-04-24T12:40:43Z</time>
      </trkpt>
      <trkpt lat="48.48834" lon="3.09201">
        <ele>132.8</ele>
        <time>2021-04-24T12:40:47Z</time>
      </trkpt>
      <trkpt lat="48.48834" lon="3.09194">
        <ele>132.5</ele>
        <time>2021-04-24T12:40:51Z</time>
      </trkpt>
      <trkpt lat="48.48833" lon="3.09187">
        <ele>132.1</ele>
        <time>2021-04-24T12:40:55Z</time>
      </trkpt>
      <trkpt lat="48.48833" lon="3.09179">
        <ele>131.8</ele>
        <time>2021-04-24T12:40:59Z</time>
      </trkpt>
      <trkpt lat="48.48833" lon="3.09171">
        <ele>131.4</ele>
        <time>2021-04-24T12:41:03Z</time>
      </trkpt>
      <trkpt lat="48.48833" lon="3.09164">
        <ele>131.1</ele>
        <time>2021-04-24T12:41:07Z</time>
      </trkpt>
      <trkpt lat="48.48833" lon="3.09156">
        <ele>131</ele>
        <time>2021-04-24T12:41:11Z</time>
      </trkpt>
      <trkpt lat="48.48835" lon="3.09148">
        <ele>131</ele>
        <time>2021-04-24T12:41:15Z</time>
      </trkpt>
      <trkpt lat="48.48836" lon="3.09141">
        <ele>130.9</ele>
        <time>2021-04-24T12:41:19Z</time>
      </trkpt>
      <trkpt lat="48.48835" lon="3.09133">
        <ele>130.7</ele>
        <time>2021-04-24T12:41:24Z</time>
      </trkpt>
      <trkpt lat="48.48834" lon="3.09126">
        <ele>130.6</ele>
        <time>2021-04-24T12:41:29Z</time>
      </trkpt>
      <trkpt lat="48.48833" lon="3.09118">
        <ele>130.8</ele>
        <time>2021-04-24T12:41:34Z</time>
      </trkpt>
      <trkpt lat="48.4883" lon="3.09111">
        <ele>131</ele>
        <time>2021-04-24T12:41:39Z</time>
      </trkpt>
      <trkpt lat="48.48829" lon="3.09104">
        <ele>131.1</ele>
        <time>2021-04-24T12:41:43Z</time>
      </trkpt>
      <trkpt lat="48.4883" lon="3.09096">
        <ele>131.4</ele>
        <time>2021-04-24T12:41:48Z</time>
      </trkpt>
      <trkpt lat="48.4883" lon="3.09087">
        <ele>131.7</ele>
        <time>2021-04-24T12:41:53Z</time>
      </trkpt>
      <trkpt lat="48.48829" lon="3.09079">
        <ele>131.8</ele>
        <time>2021-04-24T12:41:58Z</time>
      </trkpt>
      <trkpt lat="48.48828" lon="3.09071">
        <ele>132</ele>
        <time>2021-04-24T12:42:03Z</time>
      </trkpt>
      <trkpt lat="48.48825" lon="3.09064">
        <ele>132</ele>
        <time>2021-04-24T12:42:07Z</time>
      </trkpt>
      <trkpt lat="48.48823" lon="3.09057">
        <ele>131.9</ele>
        <time>2021-04-24T12:42:10Z</time>
      </trkpt>
      <trkpt lat="48.48822" lon="3.0905">
        <ele>131.8</ele>
        <time>2021-04-24T12:42:14Z</time>
      </trkpt>
      <trkpt lat="48.48821" lon="3.09042">
        <ele>131.7</ele>
        <time>2021-04-24T12:42:19Z</time>
      </trkpt>
      <trkpt lat="48.48821" lon="3.09035">
        <ele>131.7</ele>
        <time>2021-04-24T12:42:23Z</time>
      </trkpt>
      <trkpt lat="48.4882" lon="3.09028">
        <ele>131.6</ele>
        <time>2021-04-24T12:42:27Z</time>
      </trkpt>
      <trkpt lat="48.48818" lon="3.0902">
        <ele>131.4</ele>
        <time>2021-04-24T12:42:31Z</time>
      </trkpt>
      <trkpt lat="48.48816" lon="3.09013">
        <ele>131.3</ele>
        <time>2021-04-24T12:42:35Z</time>
      </trkpt>
      <trkpt lat="48.48814" lon="3.09006">
        <ele>131.2</ele>
        <time>2021-04-24T12:42:40Z</time>
      </trkpt>
      <trkpt lat="48.48813" lon="3.08999">
        <ele>131.5</ele>
        <time>2021-04-24T12:42:44Z</time>
      </trkpt>
      <trkpt lat="48.48812" lon="3.08992">
        <ele>132.1</ele>
        <time>2021-04-24T12:42:50Z</time>
      </trkpt>
      <trkpt lat="48.4881" lon="3.08985">
        <ele>133.4</ele>
        <time>2021-04-24T12:43:01Z</time>
      </trkpt>
      <trkpt lat="48.48811" lon="3.08977">
        <ele>135.2</ele>
        <time>2021-04-24T12:43:24Z</time>
      </trkpt>
      <trkpt lat="48.48815" lon="3.08974">
        <ele>134.6</ele>
        <time>2021-04-24T12:43:29Z</time>
      </trkpt>
      <trkpt lat="48.48819" lon="3.08972">
        <ele>134.1</ele>
        <time>2021-04-24T12:43:34Z</time>
      </trkpt>
      <trkpt lat="48.48824" lon="3.08971">
        <ele>133.5</ele>
        <time>2021-04-24T12:43:40Z</time>
      </trkpt>
      <trkpt lat="48.48829" lon="3.08972">
        <ele>133.2</ele>
        <time>2021-04-24T12:43:45Z</time>
      </trkpt>
      <trkpt lat="48.48834" lon="3.08975">
        <ele>133.2</ele>
        <time>2021-04-24T12:43:49Z</time>
      </trkpt>
      <trkpt lat="48.48838" lon="3.08977">
        <ele>133.1</ele>
        <time>2021-04-24T12:43:53Z</time>
      </trkpt>
      <trkpt lat="48.48843" lon="3.08978">
        <ele>133.1</ele>
        <time>2021-04-24T12:43:57Z</time>
      </trkpt>
      <trkpt lat="48.48848" lon="3.08979">
        <ele>132.8</ele>
        <time>2021-04-24T12:44:01Z</time>
      </trkpt>
      <trkpt lat="48.48853" lon="3.08981">
        <ele>132.5</ele>
        <time>2021-04-24T12:44:05Z</time>
      </trkpt>
      <trkpt lat="48.48857" lon="3.08983">
        <ele>132.1</ele>
        <time>2021-04-24T12:44:09Z</time>
      </trkpt>
      <trkpt lat="48.48861" lon="3.08987">
        <ele>131.4</ele>
        <time>2021-04-24T12:44:15Z</time>
      </trkpt>
      <trkpt lat="48.48866" lon="3.0899">
        <ele>130.9</ele>
        <time>2021-04-24T12:44:21Z</time>
      </trkpt>
      <trkpt lat="48.48872" lon="3.08992">
        <ele>130.7</ele>
        <time>2021-04-24T12:44:25Z</time>
      </trkpt>
      <trkpt lat="48.48876" lon="3.08994">
        <ele>130.3</ele>
        <time>2021-04-24T12:44:29Z</time>
      </trkpt>
      <trkpt lat="48.48882" lon="3.08994">
        <ele>129.9</ele>
        <time>2021-04-24T12:44:33Z</time>
      </trkpt>
      <trkpt lat="48.48886" lon="3.08997">
        <ele>129.4</ele>
        <time>2021-04-24T12:44:37Z</time>
      </trkpt>
      <trkpt lat="48.48891" lon="3.09">
        <ele>128.7</ele>
        <time>2021-04-24T12:44:42Z</time>
      </trkpt>
      <trkpt lat="48.48896" lon="3.09002">
        <ele>128.1</ele>
        <time>2021-04-24T12:44:47Z</time>
      </trkpt>
      <trkpt lat="48.48901" lon="3.09003">
        <ele>127.7</ele>
        <time>2021-04-24T12:44:51Z</time>
      </trkpt>
      <trkpt lat="48.48906" lon="3.09005">
        <ele>127.5</ele>
        <time>2021-04-24T12:44:55Z</time>
      </trkpt>
      <trkpt lat="48.48912" lon="3.09007">
        <ele>127.3</ele>
        <time>2021-04-24T12:44:59Z</time>
      </trkpt>
      <trkpt lat="48.48916" lon="3.09009">
        <ele>127.1</ele>
        <time>2021-04-24T12:45:02Z</time>
      </trkpt>
      <trkpt lat="48.48921" lon="3.09012">
        <ele>126.8</ele>
        <time>2021-04-24T12:45:06Z</time>
      </trkpt>
      <trkpt lat="48.48926" lon="3.09014">
        <ele>126.1</ele>
        <time>2021-04-24T12:45:11Z</time>
      </trkpt>
      <trkpt lat="48.48931" lon="3.09016">
        <ele>125.6</ele>
        <time>2021-04-24T12:45:15Z</time>
      </trkpt>
      <trkpt lat="48.48935" lon="3.09018">
        <ele>124.9</ele>
        <time>2021-04-24T12:45:19Z</time>
      </trkpt>
      <trkpt lat="48.48941" lon="3.09022">
        <ele>124.5</ele>
        <time>2021-04-24T12:45:23Z</time>
      </trkpt>
      <trkpt lat="48.48945" lon="3.09024">
        <ele>123.9</ele>
        <time>2021-04-24T12:45:27Z</time>
      </trkpt>
      <trkpt lat="48.4895" lon="3.09026">
        <ele>123.1</ele>
        <time>2021-04-24T12:45:32Z</time>
      </trkpt>
      <trkpt lat="48.48954" lon="3.09029">
        <ele>122.7</ele>
        <time>2021-04-24T12:45:36Z</time>
      </trkpt>
      <trkpt lat="48.48959" lon="3.09031">
        <ele>122.6</ele>
        <time>2021-04-24T12:45:40Z</time>
      </trkpt>
      <trkpt lat="48.48964" lon="3.09032">
        <ele>122.4</ele>
        <time>2021-04-24T12:45:46Z</time>
      </trkpt>
      <trkpt lat="48.48969" lon="3.09035">
        <ele>122.3</ele>
        <time>2021-04-24T12:45:51Z</time>
      </trkpt>
      <trkpt lat="48.48975" lon="3.09036">
        <ele>121.9</ele>
        <time>2021-04-24T12:45:55Z</time>
      </trkpt>
      <trkpt lat="48.4898" lon="3.09037">
        <ele>121.4</ele>
        <time>2021-04-24T12:45:59Z</time>
      </trkpt>
      <trkpt lat="48.48985" lon="3.09036">
        <ele>121</ele>
        <time>2021-04-24T12:46:03Z</time>
      </trkpt>
      <trkpt lat="48.4899" lon="3.09036">
        <ele>120.8</ele>
        <time>2021-04-24T12:46:06Z</time>
      </trkpt>
      <trkpt lat="48.48994" lon="3.09036">
        <ele>120.8</ele>
        <time>2021-04-24T12:46:10Z</time>
      </trkpt>
      <trkpt lat="48.48999" lon="3.09037">
        <ele>120.9</ele>
        <time>2021-04-24T12:46:14Z</time>
      </trkpt>
      <trkpt lat="48.49005" lon="3.09038">
        <ele>120.8</ele>
        <time>2021-04-24T12:46:19Z</time>
      </trkpt>
      <trkpt lat="48.4901" lon="3.09039">
        <ele>120.6</ele>
        <time>2021-04-24T12:46:23Z</time>
      </trkpt>
      <trkpt lat="48.49014" lon="3.09041">
        <ele>120.4</ele>
        <time>2021-04-24T12:46:27Z</time>
      </trkpt>
      <trkpt lat="48.49019" lon="3.09042">
        <ele>120</ele>
        <time>2021-04-24T12:46:32Z</time>
      </trkpt>
      <trkpt lat="48.49025" lon="3.09043">
        <ele>119.7</ele>
        <time>2021-04-24T12:46:36Z</time>
      </trkpt>
      <trkpt lat="48.4903" lon="3.09043">
        <ele>119.4</ele>
        <time>2021-04-24T12:46:40Z</time>
      </trkpt>
      <trkpt lat="48.49035" lon="3.09042">
        <ele>118.7</ele>
        <time>2021-04-24T12:46:45Z</time>
      </trkpt>
      <trkpt lat="48.4904" lon="3.09042">
        <ele>118.2</ele>
        <time>2021-04-24T12:46:49Z</time>
      </trkpt>
      <trkpt lat="48.49044" lon="3.09042">
        <ele>117.6</ele>
        <time>2021-04-24T12:46:53Z</time>
      </trkpt>
      <trkpt lat="48.49049" lon="3.09042">
        <ele>116.9</ele>
        <time>2021-04-24T12:46:58Z</time>
      </trkpt>
      <trkpt lat="48.49054" lon="3.09042">
        <ele>116.6</ele>
        <time>2021-04-24T12:47:02Z</time>
      </trkpt>
      <trkpt lat="48.49059" lon="3.09041">
        <ele>116.2</ele>
        <time>2021-04-24T12:47:06Z</time>
      </trkpt>
      <trkpt lat="48.49064" lon="3.0904">
        <ele>115.8</ele>
        <time>2021-04-24T12:47:10Z</time>
      </trkpt>
      <trkpt lat="48.4907" lon="3.0904">
        <ele>115.7</ele>
        <time>2021-04-24T12:47:14Z</time>
      </trkpt>
      <trkpt lat="48.49074" lon="3.09039">
        <ele>115.3</ele>
        <time>2021-04-24T12:47:19Z</time>
      </trkpt>
      <trkpt lat="48.4908" lon="3.0904">
        <ele>114.7</ele>
        <time>2021-04-24T12:47:25Z</time>
      </trkpt>
      <trkpt lat="48.49086" lon="3.09039">
        <ele>114.3</ele>
        <time>2021-04-24T12:47:29Z</time>
      </trkpt>
      <trkpt lat="48.49091" lon="3.09038">
        <ele>114.2</ele>
        <time>2021-04-24T12:47:33Z</time>
      </trkpt>
      <trkpt lat="48.49096" lon="3.09039">
        <ele>114.3</ele>
        <time>2021-04-24T12:47:37Z</time>
      </trkpt>
      <trkpt lat="48.49101" lon="3.09038">
        <ele>114.1</ele>
        <time>2021-04-24T12:47:42Z</time>
      </trkpt>
      <trkpt lat="48.49105" lon="3.09037">
        <ele>114</ele>
        <time>2021-04-24T12:47:46Z</time>
      </trkpt>
      <trkpt lat="48.49111" lon="3.09037">
        <ele>113.9</ele>
        <time>2021-04-24T12:47:50Z</time>
      </trkpt>
      <trkpt lat="48.49116" lon="3.09036">
        <ele>113.9</ele>
        <time>2021-04-24T12:47:54Z</time>
      </trkpt>
      <trkpt lat="48.49121" lon="3.09037">
        <ele>114.1</ele>
        <time>2021-04-24T12:47:59Z</time>
      </trkpt>
      <trkpt lat="48.49126" lon="3.09037">
        <ele>114</ele>
        <time>2021-04-24T12:48:03Z</time>
      </trkpt>
      <trkpt lat="48.4913" lon="3.09037">
        <ele>113.9</ele>
        <time>2021-04-24T12:48:07Z</time>
      </trkpt>
      <trkpt lat="48.49135" lon="3.09036">
        <ele>113.9</ele>
        <time>2021-04-24T12:48:11Z</time>
      </trkpt>
      <trkpt lat="48.49139" lon="3.09036">
        <ele>114</ele>
        <time>2021-04-24T12:48:15Z</time>
      </trkpt>
      <trkpt lat="48.49144" lon="3.09037">
        <ele>115.3</ele>
        <time>2021-04-24T12:48:20Z</time>
      </trkpt>
      <trkpt lat="48.4915" lon="3.09038">
        <ele>118.1</ele>
        <time>2021-04-24T12:49:04Z</time>
      </trkpt>
      <trkpt lat="48.49155" lon="3.09037">
        <ele>117.7</ele>
        <time>2021-04-24T12:49:10Z</time>
      </trkpt>
      <trkpt lat="48.4916" lon="3.09038">
        <ele>116</ele>
        <time>2021-04-24T12:50:29Z</time>
      </trkpt>
      <trkpt lat="48.49165" lon="3.09038">
        <ele>115.7</ele>
        <time>2021-04-24T12:50:41Z</time>
      </trkpt>
      <trkpt lat="48.4917" lon="3.09038">
        <ele>115.3</ele>
        <time>2021-04-24T12:50:46Z</time>
      </trkpt>
      <trkpt lat="48.49175" lon="3.0904">
        <ele>115.1</ele>
        <time>2021-04-24T12:50:51Z</time>
      </trkpt>
      <trkpt lat="48.4918" lon="3.0904">
        <ele>114.8</ele>
        <time>2021-04-24T12:50:56Z</time>
      </trkpt>
      <trkpt lat="48.49185" lon="3.0904">
        <ele>114.6</ele>
        <time>2021-04-24T12:51:00Z</time>
      </trkpt>
      <trkpt lat="48.4919" lon="3.09041">
        <ele>114.4</ele>
        <time>2021-04-24T12:51:05Z</time>
      </trkpt>
      <trkpt lat="48.49195" lon="3.0904">
        <ele>114.2</ele>
        <time>2021-04-24T12:51:09Z</time>
      </trkpt>
      <trkpt lat="48.49201" lon="3.0904">
        <ele>114</ele>
        <time>2021-04-24T12:51:13Z</time>
      </trkpt>
      <trkpt lat="48.49206" lon="3.0904">
        <ele>113.8</ele>
        <time>2021-04-24T12:51:18Z</time>
      </trkpt>
      <trkpt lat="48.49211" lon="3.0904">
        <ele>114.1</ele>
        <time>2021-04-24T12:51:22Z</time>
      </trkpt>
      <trkpt lat="48.49216" lon="3.09041">
        <ele>114.3</ele>
        <time>2021-04-24T12:51:27Z</time>
      </trkpt>
      <trkpt lat="48.49221" lon="3.09042">
        <ele>114.5</ele>
        <time>2021-04-24T12:51:31Z</time>
      </trkpt>
      <trkpt lat="48.49226" lon="3.09043">
        <ele>114.5</ele>
        <time>2021-04-24T12:51:35Z</time>
      </trkpt>
      <trkpt lat="48.49231" lon="3.09044">
        <ele>114.6</ele>
        <time>2021-04-24T12:51:39Z</time>
      </trkpt>
      <trkpt lat="48.49236" lon="3.09045">
        <ele>114.5</ele>
        <time>2021-04-24T12:51:43Z</time>
      </trkpt>
      <trkpt lat="48.4924" lon="3.09047">
        <ele>114.5</ele>
        <time>2021-04-24T12:51:47Z</time>
      </trkpt>
      <trkpt lat="48.49245" lon="3.09049">
        <ele>114.4</ele>
        <time>2021-04-24T12:51:52Z</time>
      </trkpt>
      <trkpt lat="48.49251" lon="3.09049">
        <ele>114.3</ele>
        <time>2021-04-24T12:51:57Z</time>
      </trkpt>
      <trkpt lat="48.49255" lon="3.0905">
        <ele>114.2</ele>
        <time>2021-04-24T12:52:02Z</time>
      </trkpt>
      <trkpt lat="48.4926" lon="3.09052">
        <ele>113.9</ele>
        <time>2021-04-24T12:52:07Z</time>
      </trkpt>
      <trkpt lat="48.49265" lon="3.09052">
        <ele>113.9</ele>
        <time>2021-04-24T12:52:12Z</time>
      </trkpt>
      <trkpt lat="48.4927" lon="3.09054">
        <ele>114</ele>
        <time>2021-04-24T12:52:17Z</time>
      </trkpt>
      <trkpt lat="48.49276" lon="3.09055">
        <ele>114.2</ele>
        <time>2021-04-24T12:52:22Z</time>
      </trkpt>
      <trkpt lat="48.4928" lon="3.09056">
        <ele>114.5</ele>
        <time>2021-04-24T12:52:25Z</time>
      </trkpt>
      <trkpt lat="48.49285" lon="3.09056">
        <ele>115.3</ele>
        <time>2021-04-24T12:52:29Z</time>
      </trkpt>
      <trkpt lat="48.49289" lon="3.09053">
        <ele>116.7</ele>
        <time>2021-04-24T12:52:37Z</time>
      </trkpt>
      <trkpt lat="48.49294" lon="3.09054">
        <ele>117.2</ele>
        <time>2021-04-24T12:52:42Z</time>
      </trkpt>
      <trkpt lat="48.493" lon="3.09058">
        <ele>117.5</ele>
        <time>2021-04-24T12:52:46Z</time>
      </trkpt>
      <trkpt lat="48.49304" lon="3.0906">
        <ele>117.8</ele>
        <time>2021-04-24T12:52:50Z</time>
      </trkpt>
      <trkpt lat="48.49308" lon="3.09062">
        <ele>117.9</ele>
        <time>2021-04-24T12:52:55Z</time>
      </trkpt>
      <trkpt lat="48.49313" lon="3.09062">
        <ele>118.1</ele>
        <time>2021-04-24T12:53:00Z</time>
      </trkpt>
      <trkpt lat="48.49318" lon="3.09062">
        <ele>118.4</ele>
        <time>2021-04-24T12:53:06Z</time>
      </trkpt>
      <trkpt lat="48.49323" lon="3.09062">
        <ele>118.9</ele>
        <time>2021-04-24T12:53:12Z</time>
      </trkpt>
      <trkpt lat="48.49328" lon="3.09063">
        <ele>119.4</ele>
        <time>2021-04-24T12:53:16Z</time>
      </trkpt>
      <trkpt lat="48.49333" lon="3.09065">
        <ele>119.9</ele>
        <time>2021-04-24T12:53:21Z</time>
      </trkpt>
      <trkpt lat="48.49337" lon="3.09067">
        <ele>120.4</ele>
        <time>2021-04-24T12:53:25Z</time>
      </trkpt>
      <trkpt lat="48.49343" lon="3.09068">
        <ele>120.8</ele>
        <time>2021-04-24T12:53:29Z</time>
      </trkpt>
      <trkpt lat="48.49349" lon="3.09071">
        <ele>121.1</ele>
        <time>2021-04-24T12:53:33Z</time>
      </trkpt>
      <trkpt lat="48.49353" lon="3.09072">
        <ele>121.5</ele>
        <time>2021-04-24T12:53:37Z</time>
      </trkpt>
      <trkpt lat="48.49358" lon="3.09071">
        <ele>121.8</ele>
        <time>2021-04-24T12:53:42Z</time>
      </trkpt>
      <trkpt lat="48.49363" lon="3.09071">
        <ele>122.2</ele>
        <time>2021-04-24T12:53:47Z</time>
      </trkpt>
      <trkpt lat="48.49368" lon="3.09071">
        <ele>122.6</ele>
        <time>2021-04-24T12:53:51Z</time>
      </trkpt>
      <trkpt lat="48.49373" lon="3.09073">
        <ele>123</ele>
        <time>2021-04-24T12:53:55Z</time>
      </trkpt>
      <trkpt lat="48.49378" lon="3.09075">
        <ele>123.6</ele>
        <time>2021-04-24T12:54:00Z</time>
      </trkpt>
      <trkpt lat="48.49384" lon="3.09075">
        <ele>124.2</ele>
        <time>2021-04-24T12:54:04Z</time>
      </trkpt>
      <trkpt lat="48.4939" lon="3.09076">
        <ele>124.9</ele>
        <time>2021-04-24T12:54:08Z</time>
      </trkpt>
      <trkpt lat="48.49395" lon="3.09077">
        <ele>125.4</ele>
        <time>2021-04-24T12:54:12Z</time>
      </trkpt>
      <trkpt lat="48.49401" lon="3.09078">
        <ele>125.8</ele>
        <time>2021-04-24T12:54:16Z</time>
      </trkpt>
      <trkpt lat="48.49405" lon="3.09078">
        <ele>126.1</ele>
        <time>2021-04-24T12:54:20Z</time>
      </trkpt>
      <trkpt lat="48.49411" lon="3.0908">
        <ele>126.2</ele>
        <time>2021-04-24T12:54:25Z</time>
      </trkpt>
      <trkpt lat="48.49415" lon="3.09081">
        <ele>126.2</ele>
        <time>2021-04-24T12:54:29Z</time>
      </trkpt>
      <trkpt lat="48.4942" lon="3.09082">
        <ele>126.2</ele>
        <time>2021-04-24T12:54:33Z</time>
      </trkpt>
      <trkpt lat="48.49425" lon="3.09083">
        <ele>126.1</ele>
        <time>2021-04-24T12:54:37Z</time>
      </trkpt>
      <trkpt lat="48.4943" lon="3.09085">
        <ele>126.2</ele>
        <time>2021-04-24T12:54:41Z</time>
      </trkpt>
      <trkpt lat="48.49435" lon="3.09087">
        <ele>126.4</ele>
        <time>2021-04-24T12:54:45Z</time>
      </trkpt>
      <trkpt lat="48.4944" lon="3.09088">
        <ele>126.9</ele>
        <time>2021-04-24T12:54:49Z</time>
      </trkpt>
      <trkpt lat="48.49446" lon="3.09089">
        <ele>127.4</ele>
        <time>2021-04-24T12:54:53Z</time>
      </trkpt>
      <trkpt lat="48.49451" lon="3.09091">
        <ele>127.8</ele>
        <time>2021-04-24T12:54:57Z</time>
      </trkpt>
      <trkpt lat="48.49456" lon="3.09091">
        <ele>128.2</ele>
        <time>2021-04-24T12:55:01Z</time>
      </trkpt>
      <trkpt lat="48.49461" lon="3.09093">
        <ele>128.3</ele>
        <time>2021-04-24T12:55:05Z</time>
      </trkpt>
      <trkpt lat="48.49465" lon="3.09094">
        <ele>128.4</ele>
        <time>2021-04-24T12:55:09Z</time>
      </trkpt>
      <trkpt lat="48.4947" lon="3.09095">
        <ele>128.4</ele>
        <time>2021-04-24T12:55:13Z</time>
      </trkpt>
      <trkpt lat="48.49476" lon="3.09097">
        <ele>128.2</ele>
        <time>2021-04-24T12:55:18Z</time>
      </trkpt>
      <trkpt lat="48.49481" lon="3.09097">
        <ele>128.1</ele>
        <time>2021-04-24T12:55:22Z</time>
      </trkpt>
      <trkpt lat="48.49485" lon="3.09097">
        <ele>127.9</ele>
        <time>2021-04-24T12:55:27Z</time>
      </trkpt>
      <trkpt lat="48.4949" lon="3.09097">
        <ele>128</ele>
        <time>2021-04-24T12:55:32Z</time>
      </trkpt>
      <trkpt lat="48.49495" lon="3.09098">
        <ele>128</ele>
        <time>2021-04-24T12:55:36Z</time>
      </trkpt>
      <trkpt lat="48.495" lon="3.09099">
        <ele>128.2</ele>
        <time>2021-04-24T12:55:40Z</time>
      </trkpt>
      <trkpt lat="48.49505" lon="3.09101">
        <ele>128.4</ele>
        <time>2021-04-24T12:55:44Z</time>
      </trkpt>
      <trkpt lat="48.4951" lon="3.09104">
        <ele>128.5</ele>
        <time>2021-04-24T12:55:49Z</time>
      </trkpt>
      <trkpt lat="48.49515" lon="3.09105">
        <ele>128.6</ele>
        <time>2021-04-24T12:55:53Z</time>
      </trkpt>
      <trkpt lat="48.4952" lon="3.09107">
        <ele>128.6</ele>
        <time>2021-04-24T12:55:57Z</time>
      </trkpt>
      <trkpt lat="48.49525" lon="3.09108">
        <ele>128.7</ele>
        <time>2021-04-24T12:56:01Z</time>
      </trkpt>
      <trkpt lat="48.4953" lon="3.09108">
        <ele>128.7</ele>
        <time>2021-04-24T12:56:05Z</time>
      </trkpt>
      <trkpt lat="48.49535" lon="3.09108">
        <ele>128.4</ele>
        <time>2021-04-24T12:56:10Z</time>
      </trkpt>
      <trkpt lat="48.4954" lon="3.09108">
        <ele>127.9</ele>
        <time>2021-04-24T12:56:14Z</time>
      </trkpt>
      <trkpt lat="48.49545" lon="3.09107">
        <ele>127.5</ele>
        <time>2021-04-24T12:56:18Z</time>
      </trkpt>
      <trkpt lat="48.4955" lon="3.09109">
        <ele>127.2</ele>
        <time>2021-04-24T12:56:23Z</time>
      </trkpt>
      <trkpt lat="48.49555" lon="3.09109">
        <ele>126.9</ele>
        <time>2021-04-24T12:56:28Z</time>
      </trkpt>
      <trkpt lat="48.49559" lon="3.09109">
        <ele>126.9</ele>
        <time>2021-04-24T12:56:33Z</time>
      </trkpt>
      <trkpt lat="48.49564" lon="3.09111">
        <ele>126.9</ele>
        <time>2021-04-24T12:56:37Z</time>
      </trkpt>
      <trkpt lat="48.49569" lon="3.09113">
        <ele>126.7</ele>
        <time>2021-04-24T12:56:41Z</time>
      </trkpt>
      <trkpt lat="48.49575" lon="3.09113">
        <ele>126.6</ele>
        <time>2021-04-24T12:56:45Z</time>
      </trkpt>
      <trkpt lat="48.49581" lon="3.09113">
        <ele>126.4</ele>
        <time>2021-04-24T12:56:49Z</time>
      </trkpt>
      <trkpt lat="48.49585" lon="3.09115">
        <ele>126.2</ele>
        <time>2021-04-24T12:56:52Z</time>
      </trkpt>
      <trkpt lat="48.4959" lon="3.09117">
        <ele>126.1</ele>
        <time>2021-04-24T12:56:55Z</time>
      </trkpt>
      <trkpt lat="48.49595" lon="3.09117">
        <ele>126</ele>
        <time>2021-04-24T12:56:59Z</time>
      </trkpt>
      <trkpt lat="48.496" lon="3.09119">
        <ele>125.8</ele>
        <time>2021-04-24T12:57:04Z</time>
      </trkpt>
      <trkpt lat="48.49604" lon="3.09122">
        <ele>125.8</ele>
        <time>2021-04-24T12:57:09Z</time>
      </trkpt>
      <trkpt lat="48.49609" lon="3.09125">
        <ele>126</ele>
        <time>2021-04-24T12:57:15Z</time>
      </trkpt>
      <trkpt lat="48.49614" lon="3.09126">
        <ele>126.1</ele>
        <time>2021-04-24T12:57:19Z</time>
      </trkpt>
      <trkpt lat="48.49619" lon="3.09126">
        <ele>126.1</ele>
        <time>2021-04-24T12:57:23Z</time>
      </trkpt>
      <trkpt lat="48.49624" lon="3.09128">
        <ele>125.9</ele>
        <time>2021-04-24T12:57:27Z</time>
      </trkpt>
      <trkpt lat="48.49629" lon="3.0913">
        <ele>125.5</ele>
        <time>2021-04-24T12:57:32Z</time>
      </trkpt>
      <trkpt lat="48.49634" lon="3.09131">
        <ele>125.3</ele>
        <time>2021-04-24T12:57:36Z</time>
      </trkpt>
      <trkpt lat="48.49638" lon="3.09133">
        <ele>125.1</ele>
        <time>2021-04-24T12:57:40Z</time>
      </trkpt>
      <trkpt lat="48.49643" lon="3.09135">
        <ele>124.9</ele>
        <time>2021-04-24T12:57:43Z</time>
      </trkpt>
      <trkpt lat="48.49649" lon="3.09137">
        <ele>124.7</ele>
        <time>2021-04-24T12:57:47Z</time>
      </trkpt>
      <trkpt lat="48.49654" lon="3.09138">
        <ele>124.5</ele>
        <time>2021-04-24T12:57:51Z</time>
      </trkpt>
      <trkpt lat="48.49659" lon="3.09138">
        <ele>124.2</ele>
        <time>2021-04-24T12:57:54Z</time>
      </trkpt>
      <trkpt lat="48.49664" lon="3.09139">
        <ele>123.8</ele>
        <time>2021-04-24T12:57:57Z</time>
      </trkpt>
      <trkpt lat="48.49668" lon="3.09138">
        <ele>123.4</ele>
        <time>2021-04-24T12:58:00Z</time>
      </trkpt>
      <trkpt lat="48.49674" lon="3.09139">
        <ele>123</ele>
        <time>2021-04-24T12:58:04Z</time>
      </trkpt>
      <trkpt lat="48.49678" lon="3.0914">
        <ele>122.5</ele>
        <time>2021-04-24T12:58:08Z</time>
      </trkpt>
      <trkpt lat="48.49684" lon="3.09141">
        <ele>122</ele>
        <time>2021-04-24T12:58:13Z</time>
      </trkpt>
      <trkpt lat="48.49688" lon="3.0914">
        <ele>121.6</ele>
        <time>2021-04-24T12:58:17Z</time>
      </trkpt>
      <trkpt lat="48.49694" lon="3.09138">
        <ele>121.1</ele>
        <time>2021-04-24T12:58:21Z</time>
      </trkpt>
      <trkpt lat="48.49699" lon="3.09139">
        <ele>120.8</ele>
        <time>2021-04-24T12:58:26Z</time>
      </trkpt>
      <trkpt lat="48.49704" lon="3.09141">
        <ele>120.5</ele>
        <time>2021-04-24T12:58:31Z</time>
      </trkpt>
      <trkpt lat="48.49709" lon="3.09142">
        <ele>120.2</ele>
        <time>2021-04-24T12:58:35Z</time>
      </trkpt>
      <trkpt lat="48.49714" lon="3.09144">
        <ele>120.1</ele>
        <time>2021-04-24T12:58:39Z</time>
      </trkpt>
      <trkpt lat="48.49718" lon="3.09146">
        <ele>119.9</ele>
        <time>2021-04-24T12:58:43Z</time>
      </trkpt>
      <trkpt lat="48.49723" lon="3.09147">
        <ele>119.8</ele>
        <time>2021-04-24T12:58:46Z</time>
      </trkpt>
      <trkpt lat="48.49728" lon="3.09149">
        <ele>119.6</ele>
        <time>2021-04-24T12:58:50Z</time>
      </trkpt>
      <trkpt lat="48.49733" lon="3.0915">
        <ele>119.3</ele>
        <time>2021-04-24T12:58:54Z</time>
      </trkpt>
      <trkpt lat="48.49737" lon="3.09151">
        <ele>119</ele>
        <time>2021-04-24T12:58:58Z</time>
      </trkpt>
      <trkpt lat="48.49743" lon="3.09152">
        <ele>118.6</ele>
        <time>2021-04-24T12:59:03Z</time>
      </trkpt>
      <trkpt lat="48.49748" lon="3.09153">
        <ele>118.5</ele>
        <time>2021-04-24T12:59:08Z</time>
      </trkpt>
      <trkpt lat="48.49753" lon="3.09153">
        <ele>118.4</ele>
        <time>2021-04-24T12:59:12Z</time>
      </trkpt>
      <trkpt lat="48.49758" lon="3.09155">
        <ele>118.4</ele>
        <time>2021-04-24T12:59:16Z</time>
      </trkpt>
      <trkpt lat="48.49763" lon="3.09156">
        <ele>118.4</ele>
        <time>2021-04-24T12:59:20Z</time>
      </trkpt>
      <trkpt lat="48.49768" lon="3.09157">
        <ele>118.2</ele>
        <time>2021-04-24T12:59:24Z</time>
      </trkpt>
      <trkpt lat="48.49773" lon="3.09158">
        <ele>117.9</ele>
        <time>2021-04-24T12:59:29Z</time>
      </trkpt>
      <trkpt lat="48.49778" lon="3.09159">
        <ele>117.9</ele>
        <time>2021-04-24T12:59:34Z</time>
      </trkpt>
      <trkpt lat="48.49783" lon="3.0916">
        <ele>118</ele>
        <time>2021-04-24T12:59:38Z</time>
      </trkpt>
      <trkpt lat="48.49788" lon="3.09162">
        <ele>118.2</ele>
        <time>2021-04-24T12:59:41Z</time>
      </trkpt>
      <trkpt lat="48.49794" lon="3.09163">
        <ele>118.5</ele>
        <time>2021-04-24T12:59:45Z</time>
      </trkpt>
      <trkpt lat="48.49799" lon="3.09164">
        <ele>118.9</ele>
        <time>2021-04-24T12:59:49Z</time>
      </trkpt>
      <trkpt lat="48.49804" lon="3.09165">
        <ele>119.2</ele>
        <time>2021-04-24T12:59:53Z</time>
      </trkpt>
      <trkpt lat="48.49809" lon="3.09167">
        <ele>119.6</ele>
        <time>2021-04-24T12:59:57Z</time>
      </trkpt>
      <trkpt lat="48.49814" lon="3.09168">
        <ele>119.9</ele>
        <time>2021-04-24T13:00:01Z</time>
      </trkpt>
      <trkpt lat="48.49819" lon="3.09166">
        <ele>120.1</ele>
        <time>2021-04-24T13:00:05Z</time>
      </trkpt>
      <trkpt lat="48.49824" lon="3.09167">
        <ele>120.3</ele>
        <time>2021-04-24T13:00:12Z</time>
      </trkpt>
      <trkpt lat="48.4983" lon="3.0917">
        <ele>120.6</ele>
        <time>2021-04-24T13:00:18Z</time>
      </trkpt>
      <trkpt lat="48.49835" lon="3.0917">
        <ele>120.7</ele>
        <time>2021-04-24T13:00:23Z</time>
      </trkpt>
      <trkpt lat="48.49841" lon="3.0917">
        <ele>120.8</ele>
        <time>2021-04-24T13:00:27Z</time>
      </trkpt>
      <trkpt lat="48.49845" lon="3.09171">
        <ele>120.8</ele>
        <time>2021-04-24T13:00:31Z</time>
      </trkpt>
      <trkpt lat="48.4985" lon="3.09173">
        <ele>120.9</ele>
        <time>2021-04-24T13:00:36Z</time>
      </trkpt>
      <trkpt lat="48.49856" lon="3.09174">
        <ele>120.6</ele>
        <time>2021-04-24T13:00:41Z</time>
      </trkpt>
      <trkpt lat="48.49861" lon="3.09174">
        <ele>120.4</ele>
        <time>2021-04-24T13:00:46Z</time>
      </trkpt>
      <trkpt lat="48.49865" lon="3.09177">
        <ele>120.4</ele>
        <time>2021-04-24T13:00:51Z</time>
      </trkpt>
      <trkpt lat="48.49869" lon="3.0918">
        <ele>120.6</ele>
        <time>2021-04-24T13:00:55Z</time>
      </trkpt>
      <trkpt lat="48.49874" lon="3.09182">
        <ele>120.6</ele>
        <time>2021-04-24T13:00:59Z</time>
      </trkpt>
      <trkpt lat="48.49879" lon="3.09183">
        <ele>120.4</ele>
        <time>2021-04-24T13:01:03Z</time>
      </trkpt>
      <trkpt lat="48.49884" lon="3.09185">
        <ele>120.5</ele>
        <time>2021-04-24T13:01:07Z</time>
      </trkpt>
      <trkpt lat="48.49889" lon="3.09188">
        <ele>120.7</ele>
        <time>2021-04-24T13:01:11Z</time>
      </trkpt>
      <trkpt lat="48.49894" lon="3.0919">
        <ele>121.2</ele>
        <time>2021-04-24T13:01:16Z</time>
      </trkpt>
      <trkpt lat="48.49899" lon="3.09193">
        <ele>121.9</ele>
        <time>2021-04-24T13:01:21Z</time>
      </trkpt>
      <trkpt lat="48.49903" lon="3.09196">
        <ele>122.3</ele>
        <time>2021-04-24T13:01:25Z</time>
      </trkpt>
      <trkpt lat="48.49908" lon="3.092">
        <ele>122.8</ele>
        <time>2021-04-24T13:01:30Z</time>
      </trkpt>
      <trkpt lat="48.49912" lon="3.09204">
        <ele>123.1</ele>
        <time>2021-04-24T13:01:35Z</time>
      </trkpt>
      <trkpt lat="48.49917" lon="3.09207">
        <ele>123.3</ele>
        <time>2021-04-24T13:01:39Z</time>
      </trkpt>
      <trkpt lat="48.49921" lon="3.09208">
        <ele>123.5</ele>
        <time>2021-04-24T13:01:43Z</time>
      </trkpt>
      <trkpt lat="48.49927" lon="3.09208">
        <ele>123.6</ele>
        <time>2021-04-24T13:01:48Z</time>
      </trkpt>
      <trkpt lat="48.49932" lon="3.09209">
        <ele>123.9</ele>
        <time>2021-04-24T13:01:52Z</time>
      </trkpt>
      <trkpt lat="48.49937" lon="3.0921">
        <ele>124.2</ele>
        <time>2021-04-24T13:01:55Z</time>
      </trkpt>
      <trkpt lat="48.49942" lon="3.09214">
        <ele>124.5</ele>
        <time>2021-04-24T13:01:59Z</time>
      </trkpt>
      <trkpt lat="48.49947" lon="3.09217">
        <ele>124.8</ele>
        <time>2021-04-24T13:02:03Z</time>
      </trkpt>
      <trkpt lat="48.49952" lon="3.0922">
        <ele>125.1</ele>
        <time>2021-04-24T13:02:08Z</time>
      </trkpt>
      <trkpt lat="48.49956" lon="3.09222">
        <ele>125.5</ele>
        <time>2021-04-24T13:02:12Z</time>
      </trkpt>
      <trkpt lat="48.49961" lon="3.09225">
        <ele>125.7</ele>
        <time>2021-04-24T13:02:15Z</time>
      </trkpt>
      <trkpt lat="48.49965" lon="3.09227">
        <ele>126</ele>
        <time>2021-04-24T13:02:19Z</time>
      </trkpt>
      <trkpt lat="48.4997" lon="3.09229">
        <ele>126.5</ele>
        <time>2021-04-24T13:02:24Z</time>
      </trkpt>
      <trkpt lat="48.49974" lon="3.09233">
        <ele>126.9</ele>
        <time>2021-04-24T13:02:29Z</time>
      </trkpt>
      <trkpt lat="48.49978" lon="3.09236">
        <ele>127.3</ele>
        <time>2021-04-24T13:02:33Z</time>
      </trkpt>
      <trkpt lat="48.49984" lon="3.09238">
        <ele>127.5</ele>
        <time>2021-04-24T13:02:37Z</time>
      </trkpt>
      <trkpt lat="48.49988" lon="3.0924">
        <ele>127.8</ele>
        <time>2021-04-24T13:02:41Z</time>
      </trkpt>
      <trkpt lat="48.49993" lon="3.09243">
        <ele>127.8</ele>
        <time>2021-04-24T13:02:45Z</time>
      </trkpt>
      <trkpt lat="48.49995" lon="3.09249">
        <ele>128.1</ele>
        <time>2021-04-24T13:02:53Z</time>
      </trkpt>
      <trkpt lat="48.49998" lon="3.09255">
        <ele>128.3</ele>
        <time>2021-04-24T13:03:07Z</time>
      </trkpt>
      <trkpt lat="48.50002" lon="3.09256">
        <ele>128.2</ele>
        <time>2021-04-24T13:03:12Z</time>
      </trkpt>
      <trkpt lat="48.50007" lon="3.09257">
        <ele>128</ele>
        <time>2021-04-24T13:03:17Z</time>
      </trkpt>
      <trkpt lat="48.50012" lon="3.0926">
        <ele>127.9</ele>
        <time>2021-04-24T13:03:22Z</time>
      </trkpt>
      <trkpt lat="48.50018" lon="3.09263">
        <ele>128</ele>
        <time>2021-04-24T13:03:26Z</time>
      </trkpt>
      <trkpt lat="48.50022" lon="3.09267">
        <ele>127.9</ele>
        <time>2021-04-24T13:03:30Z</time>
      </trkpt>
      <trkpt lat="48.50027" lon="3.09271">
        <ele>127.9</ele>
        <time>2021-04-24T13:03:35Z</time>
      </trkpt>
      <trkpt lat="48.50031" lon="3.09273">
        <ele>127.8</ele>
        <time>2021-04-24T13:03:38Z</time>
      </trkpt>
      <trkpt lat="48.50037" lon="3.09274">
        <ele>127.7</ele>
        <time>2021-04-24T13:03:42Z</time>
      </trkpt>
      <trkpt lat="48.50042" lon="3.09275">
        <ele>127.7</ele>
        <time>2021-04-24T13:03:46Z</time>
      </trkpt>
      <trkpt lat="48.50047" lon="3.09275">
        <ele>127.3</ele>
        <time>2021-04-24T13:03:50Z</time>
      </trkpt>
      <trkpt lat="48.50052" lon="3.09277">
        <ele>126.8</ele>
        <time>2021-04-24T13:03:59Z</time>
      </trkpt>
      <trkpt lat="48.50055" lon="3.09283">
        <ele>128.1</ele>
        <time>2021-04-24T13:04:23Z</time>
      </trkpt>
      <trkpt lat="48.5006" lon="3.09286">
        <ele>128.4</ele>
        <time>2021-04-24T13:04:28Z</time>
      </trkpt>
      <trkpt lat="48.50065" lon="3.0929">
        <ele>128.6</ele>
        <time>2021-04-24T13:04:32Z</time>
      </trkpt>
      <trkpt lat="48.5007" lon="3.09294">
        <ele>128.9</ele>
        <time>2021-04-24T13:04:37Z</time>
      </trkpt>
      <trkpt lat="48.50074" lon="3.09295">
        <ele>129.1</ele>
        <time>2021-04-24T13:04:42Z</time>
      </trkpt>
      <trkpt lat="48.50079" lon="3.09297">
        <ele>129.3</ele>
        <time>2021-04-24T13:04:47Z</time>
      </trkpt>
      <trkpt lat="48.50085" lon="3.093">
        <ele>129.4</ele>
        <time>2021-04-24T13:04:52Z</time>
      </trkpt>
      <trkpt lat="48.50089" lon="3.09303">
        <ele>129.5</ele>
        <time>2021-04-24T13:04:57Z</time>
      </trkpt>
      <trkpt lat="48.50094" lon="3.09306">
        <ele>129.8</ele>
        <time>2021-04-24T13:05:02Z</time>
      </trkpt>
      <trkpt lat="48.50099" lon="3.09308">
        <ele>130</ele>
        <time>2021-04-24T13:05:06Z</time>
      </trkpt>
      <trkpt lat="48.50104" lon="3.0931">
        <ele>130.1</ele>
        <time>2021-04-24T13:05:10Z</time>
      </trkpt>
      <trkpt lat="48.50109" lon="3.09313">
        <ele>130.3</ele>
        <time>2021-04-24T13:05:14Z</time>
      </trkpt>
      <trkpt lat="48.50114" lon="3.09315">
        <ele>130.3</ele>
        <time>2021-04-24T13:05:17Z</time>
      </trkpt>
      <trkpt lat="48.5012" lon="3.09317">
        <ele>130.2</ele>
        <time>2021-04-24T13:05:21Z</time>
      </trkpt>
      <trkpt lat="48.50125" lon="3.0932">
        <ele>130.3</ele>
        <time>2021-04-24T13:05:25Z</time>
      </trkpt>
      <trkpt lat="48.50129" lon="3.09322">
        <ele>130.2</ele>
        <time>2021-04-24T13:05:29Z</time>
      </trkpt>
      <trkpt lat="48.50134" lon="3.09326">
        <ele>130.2</ele>
        <time>2021-04-24T13:05:34Z</time>
      </trkpt>
      <trkpt lat="48.50138" lon="3.09328">
        <ele>130.3</ele>
        <time>2021-04-24T13:05:38Z</time>
      </trkpt>
      <trkpt lat="48.50143" lon="3.0933">
        <ele>130.3</ele>
        <time>2021-04-24T13:05:42Z</time>
      </trkpt>
      <trkpt lat="48.50149" lon="3.09331">
        <ele>130.3</ele>
        <time>2021-04-24T13:05:46Z</time>
      </trkpt>
      <trkpt lat="48.50154" lon="3.09333">
        <ele>130.2</ele>
        <time>2021-04-24T13:05:49Z</time>
      </trkpt>
      <trkpt lat="48.50159" lon="3.09336">
        <ele>129.9</ele>
        <time>2021-04-24T13:05:53Z</time>
      </trkpt>
      <trkpt lat="48.50164" lon="3.09339">
        <ele>129.7</ele>
        <time>2021-04-24T13:05:57Z</time>
      </trkpt>
      <trkpt lat="48.50169" lon="3.09342">
        <ele>129.4</ele>
        <time>2021-04-24T13:06:01Z</time>
      </trkpt>
      <trkpt lat="48.50174" lon="3.09345">
        <ele>129.1</ele>
        <time>2021-04-24T13:06:05Z</time>
      </trkpt>
      <trkpt lat="48.50179" lon="3.09348">
        <ele>128.7</ele>
        <time>2021-04-24T13:06:09Z</time>
      </trkpt>
      <trkpt lat="48.50183" lon="3.09351">
        <ele>128.4</ele>
        <time>2021-04-24T13:06:13Z</time>
      </trkpt>
      <trkpt lat="48.50188" lon="3.09353">
        <ele>128.1</ele>
        <time>2021-04-24T13:06:18Z</time>
      </trkpt>
      <trkpt lat="48.50193" lon="3.09355">
        <ele>127.8</ele>
        <time>2021-04-24T13:06:22Z</time>
      </trkpt>
      <trkpt lat="48.50197" lon="3.09359">
        <ele>127.5</ele>
        <time>2021-04-24T13:06:26Z</time>
      </trkpt>
      <trkpt lat="48.50201" lon="3.09364">
        <ele>127.2</ele>
        <time>2021-04-24T13:06:31Z</time>
      </trkpt>
      <trkpt lat="48.50205" lon="3.09367">
        <ele>127</ele>
        <time>2021-04-24T13:06:34Z</time>
      </trkpt>
      <trkpt lat="48.50211" lon="3.09369">
        <ele>126.9</ele>
        <time>2021-04-24T13:06:38Z</time>
      </trkpt>
      <trkpt lat="48.50216" lon="3.09371">
        <ele>126.7</ele>
        <time>2021-04-24T13:06:43Z</time>
      </trkpt>
      <trkpt lat="48.5022" lon="3.09374">
        <ele>126.6</ele>
        <time>2021-04-24T13:06:48Z</time>
      </trkpt>
      <trkpt lat="48.50225" lon="3.09375">
        <ele>126.5</ele>
        <time>2021-04-24T13:06:54Z</time>
      </trkpt>
      <trkpt lat="48.5023" lon="3.09377">
        <ele>126.6</ele>
        <time>2021-04-24T13:06:58Z</time>
      </trkpt>
      <trkpt lat="48.50235" lon="3.0938">
        <ele>126.6</ele>
        <time>2021-04-24T13:07:02Z</time>
      </trkpt>
      <trkpt lat="48.5024" lon="3.09383">
        <ele>126.5</ele>
        <time>2021-04-24T13:07:06Z</time>
      </trkpt>
      <trkpt lat="48.50244" lon="3.09387">
        <ele>126.3</ele>
        <time>2021-04-24T13:07:10Z</time>
      </trkpt>
      <trkpt lat="48.50249" lon="3.09391">
        <ele>126.1</ele>
        <time>2021-04-24T13:07:15Z</time>
      </trkpt>
      <trkpt lat="48.50254" lon="3.09395">
        <ele>125.9</ele>
        <time>2021-04-24T13:07:20Z</time>
      </trkpt>
      <trkpt lat="48.50259" lon="3.09398">
        <ele>125.8</ele>
        <time>2021-04-24T13:07:24Z</time>
      </trkpt>
      <trkpt lat="48.50264" lon="3.094">
        <ele>125.6</ele>
        <time>2021-04-24T13:07:28Z</time>
      </trkpt>
      <trkpt lat="48.50269" lon="3.09402">
        <ele>125.4</ele>
        <time>2021-04-24T13:07:32Z</time>
      </trkpt>
      <trkpt lat="48.50275" lon="3.09404">
        <ele>125.3</ele>
        <time>2021-04-24T13:07:36Z</time>
      </trkpt>
      <trkpt lat="48.50279" lon="3.09408">
        <ele>125.4</ele>
        <time>2021-04-24T13:07:40Z</time>
      </trkpt>
      <trkpt lat="48.50283" lon="3.09413">
        <ele>125.4</ele>
        <time>2021-04-24T13:07:45Z</time>
      </trkpt>
      <trkpt lat="48.50288" lon="3.09416">
        <ele>125.3</ele>
        <time>2021-04-24T13:07:50Z</time>
      </trkpt>
      <trkpt lat="48.50293" lon="3.09418">
        <ele>125.4</ele>
        <time>2021-04-24T13:07:55Z</time>
      </trkpt>
      <trkpt lat="48.50298" lon="3.0942">
        <ele>125.5</ele>
        <time>2021-04-24T13:08:00Z</time>
      </trkpt>
      <trkpt lat="48.50303" lon="3.09423">
        <ele>125.6</ele>
        <time>2021-04-24T13:08:04Z</time>
      </trkpt>
      <trkpt lat="48.50307" lon="3.09426">
        <ele>125.8</ele>
        <time>2021-04-24T13:08:08Z</time>
      </trkpt>
      <trkpt lat="48.50312" lon="3.09429">
        <ele>125.8</ele>
        <time>2021-04-24T13:08:12Z</time>
      </trkpt>
      <trkpt lat="48.50316" lon="3.09432">
        <ele>125.8</ele>
        <time>2021-04-24T13:08:16Z</time>
      </trkpt>
      <trkpt lat="48.50321" lon="3.09434">
        <ele>125.8</ele>
        <time>2021-04-24T13:08:20Z</time>
      </trkpt>
      <trkpt lat="48.50326" lon="3.09436">
        <ele>125.9</ele>
        <time>2021-04-24T13:08:24Z</time>
      </trkpt>
      <trkpt lat="48.50331" lon="3.09438">
        <ele>125.9</ele>
        <time>2021-04-24T13:08:27Z</time>
      </trkpt>
      <trkpt lat="48.50335" lon="3.0944">
        <ele>125.9</ele>
        <time>2021-04-24T13:08:30Z</time>
      </trkpt>
      <trkpt lat="48.5034" lon="3.09443">
        <ele>125.9</ele>
        <time>2021-04-24T13:08:33Z</time>
      </trkpt>
      <trkpt lat="48.50345" lon="3.09445">
        <ele>125.8</ele>
        <time>2021-04-24T13:08:36Z</time>
      </trkpt>
      <trkpt lat="48.50349" lon="3.09447">
        <ele>125.6</ele>
        <time>2021-04-24T13:08:39Z</time>
      </trkpt>
      <trkpt lat="48.50354" lon="3.09449">
        <ele>125.4</ele>
        <time>2021-04-24T13:08:43Z</time>
      </trkpt>
      <trkpt lat="48.50359" lon="3.09453">
        <ele>125.1</ele>
        <time>2021-04-24T13:08:48Z</time>
      </trkpt>
      <trkpt lat="48.50363" lon="3.09457">
        <ele>124.6</ele>
        <time>2021-04-24T13:08:53Z</time>
      </trkpt>
      <trkpt lat="48.50367" lon="3.09461">
        <ele>123.9</ele>
        <time>2021-04-24T13:08:59Z</time>
      </trkpt>
      <trkpt lat="48.50373" lon="3.09464">
        <ele>123.3</ele>
        <time>2021-04-24T13:09:04Z</time>
      </trkpt>
      <trkpt lat="48.50378" lon="3.09466">
        <ele>122.8</ele>
        <time>2021-04-24T13:09:08Z</time>
      </trkpt>
      <trkpt lat="48.50384" lon="3.09468">
        <ele>122.2</ele>
        <time>2021-04-24T13:09:12Z</time>
      </trkpt>
      <trkpt lat="48.50388" lon="3.09469">
        <ele>121.8</ele>
        <time>2021-04-24T13:09:16Z</time>
      </trkpt>
      <trkpt lat="48.50393" lon="3.09472">
        <ele>121.5</ele>
        <time>2021-04-24T13:09:20Z</time>
      </trkpt>
      <trkpt lat="48.50398" lon="3.09475">
        <ele>121.3</ele>
        <time>2021-04-24T13:09:24Z</time>
      </trkpt>
      <trkpt lat="48.50403" lon="3.09479">
        <ele>120.9</ele>
        <time>2021-04-24T13:09:29Z</time>
      </trkpt>
      <trkpt lat="48.50407" lon="3.09481">
        <ele>120.4</ele>
        <time>2021-04-24T13:09:33Z</time>
      </trkpt>
      <trkpt lat="48.50412" lon="3.09484">
        <ele>119.8</ele>
        <time>2021-04-24T13:09:37Z</time>
      </trkpt>
      <trkpt lat="48.50416" lon="3.09486">
        <ele>119.1</ele>
        <time>2021-04-24T13:09:41Z</time>
      </trkpt>
      <trkpt lat="48.50422" lon="3.09488">
        <ele>118.5</ele>
        <time>2021-04-24T13:09:45Z</time>
      </trkpt>
      <trkpt lat="48.50427" lon="3.09491">
        <ele>118</ele>
        <time>2021-04-24T13:09:49Z</time>
      </trkpt>
      <trkpt lat="48.50432" lon="3.09494">
        <ele>117.4</ele>
        <time>2021-04-24T13:09:54Z</time>
      </trkpt>
      <trkpt lat="48.50436" lon="3.09499">
        <ele>116.8</ele>
        <time>2021-04-24T13:09:59Z</time>
      </trkpt>
      <trkpt lat="48.5044" lon="3.09503">
        <ele>116.3</ele>
        <time>2021-04-24T13:10:03Z</time>
      </trkpt>
      <trkpt lat="48.50446" lon="3.09506">
        <ele>115.9</ele>
        <time>2021-04-24T13:10:07Z</time>
      </trkpt>
      <trkpt lat="48.50451" lon="3.09508">
        <ele>115.7</ele>
        <time>2021-04-24T13:10:11Z</time>
      </trkpt>
      <trkpt lat="48.50455" lon="3.0951">
        <ele>115.5</ele>
        <time>2021-04-24T13:10:15Z</time>
      </trkpt>
      <trkpt lat="48.5046" lon="3.09511">
        <ele>115.5</ele>
        <time>2021-04-24T13:10:23Z</time>
      </trkpt>
      <trkpt lat="48.50465" lon="3.09514">
        <ele>115.5</ele>
        <time>2021-04-24T13:10:30Z</time>
      </trkpt>
      <trkpt lat="48.50469" lon="3.09519">
        <ele>115.8</ele>
        <time>2021-04-24T13:10:36Z</time>
      </trkpt>
      <trkpt lat="48.50474" lon="3.09522">
        <ele>116.3</ele>
        <time>2021-04-24T13:10:40Z</time>
      </trkpt>
      <trkpt lat="48.50478" lon="3.09524">
        <ele>116.6</ele>
        <time>2021-04-24T13:10:44Z</time>
      </trkpt>
      <trkpt lat="48.50483" lon="3.09528">
        <ele>117</ele>
        <time>2021-04-24T13:10:48Z</time>
      </trkpt>
      <trkpt lat="48.50488" lon="3.09531">
        <ele>117.6</ele>
        <time>2021-04-24T13:10:54Z</time>
      </trkpt>
      <trkpt lat="48.50493" lon="3.09535">
        <ele>118.2</ele>
        <time>2021-04-24T13:11:00Z</time>
      </trkpt>
      <trkpt lat="48.50498" lon="3.09537">
        <ele>118.8</ele>
        <time>2021-04-24T13:11:04Z</time>
      </trkpt>
      <trkpt lat="48.50503" lon="3.0954">
        <ele>119.5</ele>
        <time>2021-04-24T13:11:08Z</time>
      </trkpt>
      <trkpt lat="48.50508" lon="3.09543">
        <ele>120.2</ele>
        <time>2021-04-24T13:11:11Z</time>
      </trkpt>
      <trkpt lat="48.50512" lon="3.09545">
        <ele>120.9</ele>
        <time>2021-04-24T13:11:15Z</time>
      </trkpt>
      <trkpt lat="48.50517" lon="3.09546">
        <ele>121.7</ele>
        <time>2021-04-24T13:11:20Z</time>
      </trkpt>
      <trkpt lat="48.50522" lon="3.09546">
        <ele>122.1</ele>
        <time>2021-04-24T13:11:24Z</time>
      </trkpt>
      <trkpt lat="48.50527" lon="3.0955">
        <ele>122.3</ele>
        <time>2021-04-24T13:11:27Z</time>
      </trkpt>
      <trkpt lat="48.50532" lon="3.09554">
        <ele>122.6</ele>
        <time>2021-04-24T13:11:31Z</time>
      </trkpt>
      <trkpt lat="48.50538" lon="3.09556">
        <ele>122.8</ele>
        <time>2021-04-24T13:11:35Z</time>
      </trkpt>
      <trkpt lat="48.50542" lon="3.0956">
        <ele>122.8</ele>
        <time>2021-04-24T13:11:38Z</time>
      </trkpt>
      <trkpt lat="48.50547" lon="3.09565">
        <ele>122.6</ele>
        <time>2021-04-24T13:11:41Z</time>
      </trkpt>
      <trkpt lat="48.50551" lon="3.09571">
        <ele>122.3</ele>
        <time>2021-04-24T13:11:44Z</time>
      </trkpt>
      <trkpt lat="48.50555" lon="3.09575">
        <ele>122.1</ele>
        <time>2021-04-24T13:11:48Z</time>
      </trkpt>
      <trkpt lat="48.50561" lon="3.09576">
        <ele>122</ele>
        <time>2021-04-24T13:11:53Z</time>
      </trkpt>
      <trkpt lat="48.50566" lon="3.09579">
        <ele>122.2</ele>
        <time>2021-04-24T13:11:58Z</time>
      </trkpt>
      <trkpt lat="48.50571" lon="3.09581">
        <ele>122.9</ele>
        <time>2021-04-24T13:12:02Z</time>
      </trkpt>
      <trkpt lat="48.50577" lon="3.09584">
        <ele>124</ele>
        <time>2021-04-24T13:12:07Z</time>
      </trkpt>
      <trkpt lat="48.50583" lon="3.0959">
        <ele>124.6</ele>
        <time>2021-04-24T13:12:10Z</time>
      </trkpt>
      <trkpt lat="48.50587" lon="3.09594">
        <ele>125.2</ele>
        <time>2021-04-24T13:12:13Z</time>
      </trkpt>
      <trkpt lat="48.50591" lon="3.09597">
        <ele>125.7</ele>
        <time>2021-04-24T13:12:16Z</time>
      </trkpt>
      <trkpt lat="48.50596" lon="3.09601">
        <ele>126.7</ele>
        <time>2021-04-24T13:12:21Z</time>
      </trkpt>
      <trkpt lat="48.50601" lon="3.09604">
        <ele>127.1</ele>
        <time>2021-04-24T13:12:25Z</time>
      </trkpt>
      <trkpt lat="48.50605" lon="3.09608">
        <ele>127.1</ele>
        <time>2021-04-24T13:12:28Z</time>
      </trkpt>
      <trkpt lat="48.50611" lon="3.09611">
        <ele>127</ele>
        <time>2021-04-24T13:12:32Z</time>
      </trkpt>
      <trkpt lat="48.50615" lon="3.09617">
        <ele>126.9</ele>
        <time>2021-04-24T13:12:37Z</time>
      </trkpt>
      <trkpt lat="48.50619" lon="3.09621">
        <ele>126.6</ele>
        <time>2021-04-24T13:12:41Z</time>
      </trkpt>
      <trkpt lat="48.50623" lon="3.09625">
        <ele>125.7</ele>
        <time>2021-04-24T13:12:46Z</time>
      </trkpt>
      <trkpt lat="48.50627" lon="3.0963">
        <ele>124.4</ele>
        <time>2021-04-24T13:12:50Z</time>
      </trkpt>
      <trkpt lat="48.50632" lon="3.09635">
        <ele>123.4</ele>
        <time>2021-04-24T13:12:55Z</time>
      </trkpt>
      <trkpt lat="48.50636" lon="3.09641">
        <ele>122.9</ele>
        <time>2021-04-24T13:12:59Z</time>
      </trkpt>
      <trkpt lat="48.5064" lon="3.09645">
        <ele>122.7</ele>
        <time>2021-04-24T13:13:02Z</time>
      </trkpt>
      <trkpt lat="48.50644" lon="3.0965">
        <ele>122.5</ele>
        <time>2021-04-24T13:13:06Z</time>
      </trkpt>
      <trkpt lat="48.50649" lon="3.09654">
        <ele>122.1</ele>
        <time>2021-04-24T13:13:10Z</time>
      </trkpt>
      <trkpt lat="48.50653" lon="3.09658">
        <ele>121.8</ele>
        <time>2021-04-24T13:13:14Z</time>
      </trkpt>
      <trkpt lat="48.50657" lon="3.09662">
        <ele>121.4</ele>
        <time>2021-04-24T13:13:18Z</time>
      </trkpt>
      <trkpt lat="48.50661" lon="3.09666">
        <ele>120.9</ele>
        <time>2021-04-24T13:13:22Z</time>
      </trkpt>
      <trkpt lat="48.50666" lon="3.09671">
        <ele>120.2</ele>
        <time>2021-04-24T13:13:27Z</time>
      </trkpt>
      <trkpt lat="48.5067" lon="3.09676">
        <ele>119.7</ele>
        <time>2021-04-24T13:13:31Z</time>
      </trkpt>
      <trkpt lat="48.50675" lon="3.0968">
        <ele>119.4</ele>
        <time>2021-04-24T13:13:35Z</time>
      </trkpt>
      <trkpt lat="48.50679" lon="3.09685">
        <ele>119.2</ele>
        <time>2021-04-24T13:13:39Z</time>
      </trkpt>
      <trkpt lat="48.50684" lon="3.09689">
        <ele>119.1</ele>
        <time>2021-04-24T13:13:43Z</time>
      </trkpt>
      <trkpt lat="48.50688" lon="3.09693">
        <ele>119.1</ele>
        <time>2021-04-24T13:13:47Z</time>
      </trkpt>
      <trkpt lat="48.50692" lon="3.09695">
        <ele>119.2</ele>
        <time>2021-04-24T13:13:51Z</time>
      </trkpt>
      <trkpt lat="48.50696" lon="3.09699">
        <ele>119.3</ele>
        <time>2021-04-24T13:13:54Z</time>
      </trkpt>
      <trkpt lat="48.507" lon="3.09703">
        <ele>119.6</ele>
        <time>2021-04-24T13:13:58Z</time>
      </trkpt>
      <trkpt lat="48.50703" lon="3.09709">
        <ele>119.9</ele>
        <time>2021-04-24T13:14:02Z</time>
      </trkpt>
      <trkpt lat="48.50707" lon="3.09714">
        <ele>120.1</ele>
        <time>2021-04-24T13:14:06Z</time>
      </trkpt>
      <trkpt lat="48.50711" lon="3.09719">
        <ele>119.9</ele>
        <time>2021-04-24T13:14:10Z</time>
      </trkpt>
      <trkpt lat="48.50714" lon="3.09724">
        <ele>119.7</ele>
        <time>2021-04-24T13:14:14Z</time>
      </trkpt>
      <trkpt lat="48.50719" lon="3.09729">
        <ele>119.4</ele>
        <time>2021-04-24T13:14:19Z</time>
      </trkpt>
      <trkpt lat="48.50723" lon="3.09733">
        <ele>118.9</ele>
        <time>2021-04-24T13:14:22Z</time>
      </trkpt>
      <trkpt lat="48.50728" lon="3.09736">
        <ele>118</ele>
        <time>2021-04-24T13:14:26Z</time>
      </trkpt>
      <trkpt lat="48.50732" lon="3.0974">
        <ele>117.3</ele>
        <time>2021-04-24T13:14:30Z</time>
      </trkpt>
      <trkpt lat="48.50737" lon="3.09744">
        <ele>116.3</ele>
        <time>2021-04-24T13:14:35Z</time>
      </trkpt>
      <trkpt lat="48.50741" lon="3.09747">
        <ele>115.8</ele>
        <time>2021-04-24T13:14:39Z</time>
      </trkpt>
      <trkpt lat="48.50745" lon="3.09751">
        <ele>115.6</ele>
        <time>2021-04-24T13:14:43Z</time>
      </trkpt>
      <trkpt lat="48.5075" lon="3.09756">
        <ele>115.6</ele>
        <time>2021-04-24T13:14:48Z</time>
      </trkpt>
      <trkpt lat="48.50754" lon="3.09761">
        <ele>115.9</ele>
        <time>2021-04-24T13:14:52Z</time>
      </trkpt>
      <trkpt lat="48.50759" lon="3.09766">
        <ele>116.2</ele>
        <time>2021-04-24T13:14:56Z</time>
      </trkpt>
      <trkpt lat="48.50763" lon="3.0977">
        <ele>116.3</ele>
        <time>2021-04-24T13:14:59Z</time>
      </trkpt>
      <trkpt lat="48.50767" lon="3.09775">
        <ele>116.6</ele>
        <time>2021-04-24T13:15:03Z</time>
      </trkpt>
      <trkpt lat="48.50771" lon="3.0978">
        <ele>117.2</ele>
        <time>2021-04-24T13:15:07Z</time>
      </trkpt>
      <trkpt lat="48.50775" lon="3.09785">
        <ele>118.1</ele>
        <time>2021-04-24T13:15:12Z</time>
      </trkpt>
      <trkpt lat="48.50779" lon="3.09788">
        <ele>118.7</ele>
        <time>2021-04-24T13:15:15Z</time>
      </trkpt>
      <trkpt lat="48.50784" lon="3.09792">
        <ele>119</ele>
        <time>2021-04-24T13:15:19Z</time>
      </trkpt>
      <trkpt lat="48.50788" lon="3.09797">
        <ele>119.1</ele>
        <time>2021-04-24T13:15:23Z</time>
      </trkpt>
      <trkpt lat="48.50792" lon="3.09802">
        <ele>119.1</ele>
        <time>2021-04-24T13:15:27Z</time>
      </trkpt>
      <trkpt lat="48.50796" lon="3.09806">
        <ele>119.4</ele>
        <time>2021-04-24T13:15:31Z</time>
      </trkpt>
      <trkpt lat="48.508" lon="3.0981">
        <ele>119.6</ele>
        <time>2021-04-24T13:15:35Z</time>
      </trkpt>
      <trkpt lat="48.50804" lon="3.09815">
        <ele>119.9</ele>
        <time>2021-04-24T13:15:39Z</time>
      </trkpt>
      <trkpt lat="48.50808" lon="3.0982">
        <ele>120</ele>
        <time>2021-04-24T13:15:43Z</time>
      </trkpt>
      <trkpt lat="48.50813" lon="3.09824">
        <ele>120.3</ele>
        <time>2021-04-24T13:15:48Z</time>
      </trkpt>
      <trkpt lat="48.50818" lon="3.09828">
        <ele>120.6</ele>
        <time>2021-04-24T13:15:52Z</time>
      </trkpt>
      <trkpt lat="48.50822" lon="3.09833">
        <ele>120.8</ele>
        <time>2021-04-24T13:15:56Z</time>
      </trkpt>
      <trkpt lat="48.50827" lon="3.09836">
        <ele>120.9</ele>
        <time>2021-04-24T13:16:00Z</time>
      </trkpt>
      <trkpt lat="48.50832" lon="3.0984">
        <ele>120.9</ele>
        <time>2021-04-24T13:16:04Z</time>
      </trkpt>
      <trkpt lat="48.50837" lon="3.09843">
        <ele>120.8</ele>
        <time>2021-04-24T13:16:08Z</time>
      </trkpt>
      <trkpt lat="48.50841" lon="3.09846">
        <ele>120.5</ele>
        <time>2021-04-24T13:16:12Z</time>
      </trkpt>
      <trkpt lat="48.50845" lon="3.09851">
        <ele>120.2</ele>
        <time>2021-04-24T13:16:16Z</time>
      </trkpt>
      <trkpt lat="48.50849" lon="3.09855">
        <ele>119.6</ele>
        <time>2021-04-24T13:16:20Z</time>
      </trkpt>
      <trkpt lat="48.50853" lon="3.09859">
        <ele>118.7</ele>
        <time>2021-04-24T13:16:25Z</time>
      </trkpt>
      <trkpt lat="48.50859" lon="3.09861">
        <ele>118</ele>
        <time>2021-04-24T13:16:29Z</time>
      </trkpt>
      <trkpt lat="48.50863" lon="3.09865">
        <ele>117.4</ele>
        <time>2021-04-24T13:16:33Z</time>
      </trkpt>
      <trkpt lat="48.50867" lon="3.09869">
        <ele>116.8</ele>
        <time>2021-04-24T13:16:37Z</time>
      </trkpt>
      <trkpt lat="48.50871" lon="3.09872">
        <ele>116.1</ele>
        <time>2021-04-24T13:16:41Z</time>
      </trkpt>
      <trkpt lat="48.50876" lon="3.09875">
        <ele>115.5</ele>
        <time>2021-04-24T13:16:45Z</time>
      </trkpt>
      <trkpt lat="48.50881" lon="3.09878">
        <ele>114.9</ele>
        <time>2021-04-24T13:16:49Z</time>
      </trkpt>
      <trkpt lat="48.50885" lon="3.09883">
        <ele>114.4</ele>
        <time>2021-04-24T13:16:54Z</time>
      </trkpt>
      <trkpt lat="48.50889" lon="3.09887">
        <ele>114.3</ele>
        <time>2021-04-24T13:16:59Z</time>
      </trkpt>
      <trkpt lat="48.50894" lon="3.0989">
        <ele>114.4</ele>
        <time>2021-04-24T13:17:03Z</time>
      </trkpt>
      <trkpt lat="48.50898" lon="3.09894">
        <ele>114.5</ele>
        <time>2021-04-24T13:17:07Z</time>
      </trkpt>
      <trkpt lat="48.50902" lon="3.09898">
        <ele>114.4</ele>
        <time>2021-04-24T13:17:11Z</time>
      </trkpt>
      <trkpt lat="48.50906" lon="3.09902">
        <ele>114.1</ele>
        <time>2021-04-24T13:17:15Z</time>
      </trkpt>
      <trkpt lat="48.5091" lon="3.09906">
        <ele>113.5</ele>
        <time>2021-04-24T13:17:21Z</time>
      </trkpt>
      <trkpt lat="48.50915" lon="3.0991">
        <ele>113</ele>
        <time>2021-04-24T13:17:27Z</time>
      </trkpt>
      <trkpt lat="48.50919" lon="3.09914">
        <ele>112.6</ele>
        <time>2021-04-24T13:17:31Z</time>
      </trkpt>
      <trkpt lat="48.50923" lon="3.09918">
        <ele>112.2</ele>
        <time>2021-04-24T13:17:35Z</time>
      </trkpt>
      <trkpt lat="48.50928" lon="3.09921">
        <ele>111.9</ele>
        <time>2021-04-24T13:17:39Z</time>
      </trkpt>
      <trkpt lat="48.50932" lon="3.09925">
        <ele>111.9</ele>
        <time>2021-04-24T13:17:44Z</time>
      </trkpt>
      <trkpt lat="48.50937" lon="3.0993">
        <ele>112.2</ele>
        <time>2021-04-24T13:17:49Z</time>
      </trkpt>
      <trkpt lat="48.50941" lon="3.09934">
        <ele>113</ele>
        <time>2021-04-24T13:17:53Z</time>
      </trkpt>
      <trkpt lat="48.50945" lon="3.09938">
        <ele>114</ele>
        <time>2021-04-24T13:17:57Z</time>
      </trkpt>
      <trkpt lat="48.50949" lon="3.09943">
        <ele>115</ele>
        <time>2021-04-24T13:18:02Z</time>
      </trkpt>
      <trkpt lat="48.50953" lon="3.09947">
        <ele>115.5</ele>
        <time>2021-04-24T13:18:06Z</time>
      </trkpt>
      <trkpt lat="48.50957" lon="3.09951">
        <ele>116</ele>
        <time>2021-04-24T13:18:10Z</time>
      </trkpt>
      <trkpt lat="48.50961" lon="3.09955">
        <ele>116.7</ele>
        <time>2021-04-24T13:18:16Z</time>
      </trkpt>
      <trkpt lat="48.50966" lon="3.0996">
        <ele>116.7</ele>
        <time>2021-04-24T13:18:20Z</time>
      </trkpt>
      <trkpt lat="48.5097" lon="3.09963">
        <ele>116.6</ele>
        <time>2021-04-24T13:18:24Z</time>
      </trkpt>
      <trkpt lat="48.50974" lon="3.09968">
        <ele>116.6</ele>
        <time>2021-04-24T13:18:29Z</time>
      </trkpt>
      <trkpt lat="48.50979" lon="3.09972">
        <ele>117</ele>
        <time>2021-04-24T13:18:34Z</time>
      </trkpt>
      <trkpt lat="48.50983" lon="3.09976">
        <ele>117.6</ele>
        <time>2021-04-24T13:18:38Z</time>
      </trkpt>
      <trkpt lat="48.50988" lon="3.09979">
        <ele>118.1</ele>
        <time>2021-04-24T13:18:42Z</time>
      </trkpt>
      <trkpt lat="48.50992" lon="3.09984">
        <ele>118.4</ele>
        <time>2021-04-24T13:18:46Z</time>
      </trkpt>
      <trkpt lat="48.50997" lon="3.09988">
        <ele>118.7</ele>
        <time>2021-04-24T13:18:50Z</time>
      </trkpt>
      <trkpt lat="48.51001" lon="3.09993">
        <ele>119</ele>
        <time>2021-04-24T13:18:54Z</time>
      </trkpt>
      <trkpt lat="48.51005" lon="3.09996">
        <ele>119.4</ele>
        <time>2021-04-24T13:18:59Z</time>
      </trkpt>
      <trkpt lat="48.5101" lon="3.09999">
        <ele>120</ele>
        <time>2021-04-24T13:19:04Z</time>
      </trkpt>
      <trkpt lat="48.51016" lon="3.10002">
        <ele>120.6</ele>
        <time>2021-04-24T13:19:09Z</time>
      </trkpt>
      <trkpt lat="48.5102" lon="3.10008">
        <ele>121.1</ele>
        <time>2021-04-24T13:19:13Z</time>
      </trkpt>
      <trkpt lat="48.51024" lon="3.10013">
        <ele>121.3</ele>
        <time>2021-04-24T13:19:17Z</time>
      </trkpt>
      <trkpt lat="48.51029" lon="3.10016">
        <ele>121.4</ele>
        <time>2021-04-24T13:19:22Z</time>
      </trkpt>
      <trkpt lat="48.51034" lon="3.10021">
        <ele>121.2</ele>
        <time>2021-04-24T13:19:26Z</time>
      </trkpt>
      <trkpt lat="48.51037" lon="3.10026">
        <ele>120.6</ele>
        <time>2021-04-24T13:19:30Z</time>
      </trkpt>
      <trkpt lat="48.51042" lon="3.10028">
        <ele>119.1</ele>
        <time>2021-04-24T13:19:36Z</time>
      </trkpt>
      <trkpt lat="48.51046" lon="3.10031">
        <ele>118.2</ele>
        <time>2021-04-24T13:19:41Z</time>
      </trkpt>
      <trkpt lat="48.51051" lon="3.10036">
        <ele>117.7</ele>
        <time>2021-04-24T13:19:46Z</time>
      </trkpt>
      <trkpt lat="48.51055" lon="3.10041">
        <ele>117.4</ele>
        <time>2021-04-24T13:19:50Z</time>
      </trkpt>
      <trkpt lat="48.51058" lon="3.10046">
        <ele>117</ele>
        <time>2021-04-24T13:19:53Z</time>
      </trkpt>
      <trkpt lat="48.51063" lon="3.1005">
        <ele>116.5</ele>
        <time>2021-04-24T13:19:56Z</time>
      </trkpt>
      <trkpt lat="48.51068" lon="3.10054">
        <ele>115.9</ele>
        <time>2021-04-24T13:19:59Z</time>
      </trkpt>
      <trkpt lat="48.51073" lon="3.10057">
        <ele>115.2</ele>
        <time>2021-04-24T13:20:03Z</time>
      </trkpt>
      <trkpt lat="48.51078" lon="3.10058">
        <ele>115</ele>
        <time>2021-04-24T13:20:08Z</time>
      </trkpt>
      <trkpt lat="48.51083" lon="3.1006">
        <ele>114.9</ele>
        <time>2021-04-24T13:20:13Z</time>
      </trkpt>
      <trkpt lat="48.51087" lon="3.10057">
        <ele>116.2</ele>
        <time>2021-04-24T13:20:39Z</time>
      </trkpt>
      <trkpt lat="48.51091" lon="3.10051">
        <ele>116</ele>
        <time>2021-04-24T13:20:44Z</time>
      </trkpt>
      <trkpt lat="48.51095" lon="3.10046">
        <ele>115.6</ele>
        <time>2021-04-24T13:20:50Z</time>
      </trkpt>
      <trkpt lat="48.51104" lon="3.10064">
        <ele>125.3</ele>
        <time>2021-04-24T13:22:04Z</time>
      </trkpt>
      <trkpt lat="48.51104" lon="3.10055">
        <ele>125.7</ele>
        <time>2021-04-24T13:22:07Z</time>
      </trkpt>
      <trkpt lat="48.51096" lon="3.10038">
        <ele>120.1</ele>
        <time>2021-04-24T13:22:10Z</time>
      </trkpt>
      <trkpt lat="48.5109" lon="3.10029">
        <ele>118.1</ele>
        <time>2021-04-24T13:22:13Z</time>
      </trkpt>
      <trkpt lat="48.51086" lon="3.1002">
        <ele>116</ele>
        <time>2021-04-24T13:22:27Z</time>
      </trkpt>
      <trkpt lat="48.51084" lon="3.10031">
        <ele>109.1</ele>
        <time>2021-04-24T13:22:44Z</time>
      </trkpt>
    </trkseg>
  </trk>
</gpx>